Provisional Data: Meshoppen Creek near Kaiserville, PA


Please select a monitoring station.
Please select start date.
Please select start date.

Toggle Unit: C/F Toggle Unit: C/F
Sample Time Temperature (C) Temperature (F) Specific Conductivity (mS/cm) pH   Turbidity (NTU+) DO (mg/L)
12/23/2021 12:00:00 AM -0.02 31.964 0.125 7.33 7.43 14.53
12/23/2021 12:15:00 AM -0.04 31.928 0.125 7.33 10.03 14.54
12/23/2021 12:30:00 AM -0.06 31.892 0.124 7.33 2.61 14.56
12/23/2021 12:45:00 AM -0.02 31.964 0.121 7.33 3.05 14.57
12/23/2021 1:00:00 AM -0.02 31.964 0.123 7.33 10.42 14.57
12/23/2021 1:15:00 AM -0.02 31.964 0.124 7.33 2.76 14.57
12/23/2021 1:30:00 AM -0.01 31.982 0.126 7.33 2.84 14.57
12/23/2021 1:45:00 AM -0.01 31.982 0.125 7.33 7.91 14.58
12/23/2021 2:00:00 AM -0.01 31.982 0.126 7.33 2.93 14.58
12/23/2021 2:15:00 AM -0.01 31.982 0.125 7.33 2.71 14.58
12/23/2021 2:30:00 AM -0.01 31.982 0.126 7.33 2.89 14.59
12/23/2021 2:45:00 AM -0.01 31.982 0.126 7.33 2.88 14.6
12/23/2021 3:00:00 AM -0.01 31.982 0.126 7.33 10.37 14.6
12/23/2021 3:15:00 AM -0.01 31.982 0.126 7.33 9.99 14.6
12/23/2021 3:30:00 AM -0.01 31.982 0.126 7.33 7.64 14.6
12/23/2021 3:45:00 AM -0.01 31.982 0.127 7.33 10.05 14.6
12/23/2021 4:00:00 AM -0.01 31.982 0.127 7.33 7.58 14.6
12/23/2021 4:15:00 AM -0.01 31.982 0.126 7.33 2.77 14.61
12/23/2021 4:30:00 AM -0.01 31.982 0.126 7.33 2.7 14.61
12/23/2021 4:45:00 AM -0.01 31.982 0.126 7.33 10.03 14.62
12/23/2021 5:00:00 AM -0.01 31.982 0.128 7.33 9.54 14.62
12/23/2021 5:15:00 AM -0.01 31.982 0.127 7.33 9.92 14.61
12/23/2021 5:30:00 AM -0.01 31.982 0.128 7.33 9.89 14.61
12/23/2021 5:45:00 AM -0.01 31.982 0.127 7.33 2.84 14.61
12/23/2021 6:00:00 AM -0.01 31.982 0.128 7.33 2.98 14.61
12/23/2021 6:15:00 AM -0.01 31.982 0.129 7.33 9.72 14.62
12/23/2021 6:30:00 AM -0.01 31.982 0.128 7.33 9.58 14.62
12/23/2021 6:45:00 AM -0.01 31.982 0.127 7.33 7.74 14.62
12/23/2021 7:00:00 AM -0.01 31.982 0.128 7.33 7.01 14.63
12/23/2021 7:15:00 AM -0.01 31.982 0.128 7.33 7.77 14.63
12/23/2021 7:30:00 AM -0.01 31.982 0.129 7.33 2.91 14.64
12/23/2021 7:45:00 AM -0.01 31.982 0.128 7.33 6.76 14.67
12/23/2021 8:00:00 AM -0.01 31.982 0.129 7.33 9.39 14.7
12/23/2021 8:15:00 AM -0.01 31.982 0.128 7.35 9.53 14.76
12/23/2021 8:30:00 AM -0.01 31.982 0.129 7.36 6.87 14.85
12/23/2021 8:45:00 AM -0.01 31.982 0.129 7.38 9.73 14.91
12/23/2021 9:00:00 AM -0.01 31.982 0.128 7.4 10.16 14.97
12/23/2021 9:15:00 AM -0.01 31.982 0.13 7.43 9.48 15.08
12/23/2021 9:30:00 AM -0.01 31.982 0.129 7.45 8.97 15.11
12/23/2021 9:45:00 AM -0.01 31.982 0.128 7.47 9.15 15.19
12/23/2021 10:00:00 AM -0.01 31.982 0.129 7.49 9.48 15.25
12/23/2021 10:15:00 AM -0.01 31.982 0.13 7.52 8.93 15.37
12/23/2021 10:30:00 AM -0.01 31.982 0.128 7.55 7.05 15.35
12/23/2021 10:45:00 AM -0.01 31.982 0.129 7.57 9.63 15.38
12/23/2021 11:00:00 AM -0.01 31.982 0.129 7.6 9.56 15.44
12/23/2021 11:15:00 AM -0.01 31.982 0.128 7.63 6.93 15.51
12/23/2021 11:30:00 AM -0.01 31.982 0.128 7.65 9.75 15.51
12/23/2021 11:45:00 AM -0.01 31.982 0.129 7.66 8.97 15.49
12/23/2021 12:00:00 PM -0.01 31.982 0.127 7.67 9.62 15.47
12/23/2021 12:15:00 PM -0.01 31.982 0.127 7.69 9.08 15.52
12/23/2021 12:30:00 PM -0.01 31.982 0.127 7.71 9.49 15.49
12/23/2021 12:45:00 PM -0.01 31.982 0.126 7.72 9.44 15.47
12/23/2021 1:00:00 PM -0.01 31.982 0.127 7.73 9.8 15.48
12/23/2021 1:15:00 PM -0.01 31.982 0.127 7.74 9.37 15.49
12/23/2021 1:30:00 PM -0.01 31.982 0.126 7.75 9.57 15.46
12/23/2021 1:45:00 PM -0.01 31.982 0.127 7.76 9.49 15.44
12/23/2021 2:00:00 PM -0.01 31.982 0.125 7.78 7.57 15.43
12/23/2021 2:15:00 PM -0.01 31.982 0.125 7.77 8.08 15.43
12/23/2021 2:30:00 PM -0.01 31.982 0.125 7.78 9.82 15.42
12/23/2021 2:45:00 PM -0.01 31.982 0.126 7.77 10.07 15.39
12/23/2021 3:00:00 PM -0.01 31.982 0.125 7.76 10.35 15.37
12/23/2021 3:15:00 PM -0.01 31.982 0.126 7.74 10.69 15.36
12/23/2021 3:30:00 PM -0.01 31.982 0.125 7.73 7.77 15.33
12/23/2021 3:45:00 PM -0.01 31.982 0.125 7.71 10.08 15.3
12/23/2021 4:00:00 PM -0.01 31.982 0.125 7.69 9.82 15.27
12/23/2021 4:15:00 PM -0.01 31.982 0.125 7.66 7.68 15.2
12/23/2021 4:30:00 PM -0.01 31.982 0.125 7.62 3.25 15.14
12/23/2021 4:45:00 PM -0.01 31.982 0.125 7.58 10.37 15.06
12/23/2021 5:00:00 PM -0.01 31.982 0.124 7.54 3.11 14.98
12/23/2021 5:15:00 PM -0.01 31.982 0.126 7.51 10.15 14.93
12/23/2021 5:30:00 PM -0.02 31.964 0.125 7.48 7.92 14.88
12/23/2021 5:45:00 PM -0.01 31.982 0.127 7.46 9.98 14.84
12/23/2021 6:00:00 PM -0.01 31.982 0.126 7.44 9.99 14.82
12/23/2021 6:15:00 PM -0.01 31.982 0.126 7.43 9.88 14.78
12/23/2021 6:30:00 PM -0.01 31.982 0.124 7.42 10.04 14.76
12/23/2021 6:45:00 PM -0.01 31.982 0.125 7.41 3.08 14.74
12/23/2021 7:00:00 PM -0.01 31.982 0.125 7.4 9.73 14.72
12/23/2021 7:15:00 PM -0.01 31.982 0.125 7.39 9.38 14.71
12/23/2021 7:30:00 PM -0.01 31.982 0.126 7.39 10 14.69
12/23/2021 7:45:00 PM -0.01 31.982 0.126 7.38 10.18 14.68
12/23/2021 8:00:00 PM -0.01 31.982 0.125 7.38 7.38 14.66
12/23/2021 8:15:00 PM -0.01 31.982 0.124 7.37 10.05 14.66
12/23/2021 8:30:00 PM -0.01 31.982 0.126 7.37 9.88 14.65
12/23/2021 8:45:00 PM -0.01 31.982 0.126 7.36 9.8 14.64
12/23/2021 9:00:00 PM -0.01 31.982 0.124 7.36 9.61 14.64
12/23/2021 9:15:00 PM -0.01 31.982 0.125 7.36 10.02 14.63
12/23/2021 9:30:00 PM -0.01 31.982 0.125 7.35 9.83 14.6
12/23/2021 9:45:00 PM -0.01 31.982 0.125 7.35 9.39 14.59
12/23/2021 10:00:00 PM -0.01 31.982 0.125 7.34 7.51 14.61
12/23/2021 10:15:00 PM 0 32 0.124 7.33 9.59 14.6
12/23/2021 10:30:00 PM 0 32 0.125 7.33 9.55 14.6
12/23/2021 10:45:00 PM 0 32 0.125 7.32 9.12 14.6
12/23/2021 11:00:00 PM 0 32 0.125 7.32 9.46 14.59
12/23/2021 11:15:00 PM 0 32 0.124 7.32 9.21 14.58
12/23/2021 11:30:00 PM 0 32 0.124 7.32 9.16 14.58
12/23/2021 11:45:00 PM 0 32 0.125 7.32 9.06 14.58
12/24/2021 12:00:00 AM 0.01 32.018 0.125 7.32 8.39 14.58
12/24/2021 12:15:00 AM 0.01 32.018 0.124 7.32 8.76 14.57
12/24/2021 12:30:00 AM 0.01 32.018 0.124 7.32 9 14.57
12/24/2021 12:45:00 AM 0.01 32.018 0.124 7.32 6.63 14.57
12/24/2021 1:00:00 AM 0 32 0.125 7.32 9.31 14.57
12/24/2021 1:15:00 AM -0.01 31.982 0.123 7.31 8.79 14.56
12/24/2021 1:30:00 AM -0.01 31.982 0.125 7.31 6.25 14.56
12/24/2021 1:45:00 AM -0.01 31.982 0.125 7.31 10.1 14.56
12/24/2021 2:00:00 AM -0.01 31.982 0.126 7.3 9.59 14.56
12/24/2021 2:15:00 AM -0.01 31.982 0.126 7.3 2.47 14.56
12/24/2021 2:30:00 AM -0.01 31.982 0.126 7.3 9.23 14.56
12/24/2021 2:45:00 AM -0.01 31.982 0.126 7.3 8.51 14.56
12/24/2021 3:00:00 AM -0.01 31.982 0.125 7.3 9.07 14.55
12/24/2021 3:15:00 AM -0.01 31.982 0.126 7.31 9.78 14.55
12/24/2021 3:30:00 AM 0 32 0.125 7.31 8.73 14.55
12/24/2021 3:45:00 AM 0 32 0.124 7.31 9.03 14.54
12/24/2021 4:00:00 AM 0 32 0.126 7.31 9.4 14.55
12/24/2021 4:15:00 AM 0.01 32.018 0.126 7.32 9.26 14.55
12/24/2021 4:30:00 AM 0.01 32.018 0.125 7.31 9.01 14.54
12/24/2021 4:45:00 AM 0.01 32.018 0.125 7.31 9 14.54
12/24/2021 5:00:00 AM 0.01 32.018 0.126 7.31 8.9 14.54
12/24/2021 5:15:00 AM 0.02 32.036 0.126 7.31 2.57 14.54
12/24/2021 5:30:00 AM 0.02 32.036 0.126 7.31 9.56 14.54
12/24/2021 5:45:00 AM 0.02 32.036 0.125 7.31 9.31 14.54
12/24/2021 6:00:00 AM 0.02 32.036 0.124 7.31 8.81 14.53
12/24/2021 6:15:00 AM 0.03 32.054 0.125 7.31 8.83 14.53
12/24/2021 6:30:00 AM 0.03 32.054 0.124 7.32 8.92 14.54
12/24/2021 6:45:00 AM 0.03 32.054 0.126 7.31 8.4 14.54
12/24/2021 7:00:00 AM 0.04 32.072 0.125 7.32 8.84 14.53
12/24/2021 7:15:00 AM 0.04 32.072 0.125 7.32 8.71 14.54
12/24/2021 7:30:00 AM 0.04 32.072 0.125 7.31 9.01 14.54
12/24/2021 7:45:00 AM 0.05 32.09 0.124 7.32 9.05 14.54
12/24/2021 8:00:00 AM 0.05 32.09 0.124 7.32 9.2 14.56
12/24/2021 8:15:00 AM 0.06 32.108 0.126 7.33 6.43 14.59
12/24/2021 8:30:00 AM 0.06 32.108 0.126 7.33 8.62 14.61
12/24/2021 8:45:00 AM 0.07 32.126 0.124 7.35 9.18 14.66
12/24/2021 9:00:00 AM 0.08 32.144 0.126 7.37 8.8 14.72
12/24/2021 9:15:00 AM 0.09 32.162 0.126 7.38 8.99 14.77
12/24/2021 9:30:00 AM 0.1 32.18 0.126 7.4 9.02 14.83
12/24/2021 9:45:00 AM 0.11 32.198 0.126 7.41 8.8 14.88
12/24/2021 10:00:00 AM 0.12 32.216 0.124 7.44 9.21 14.93
12/24/2021 10:15:00 AM 0.14 32.252 0.125 7.46 8.66 14.99
12/24/2021 10:30:00 AM 0.16 32.288 0.124 7.48 8.9 15.05
12/24/2021 10:45:00 AM 0.18 32.324 0.125 7.51 8.92 15.08
12/24/2021 11:00:00 AM 0.21 32.378 0.124 7.53 9.4 15.12
12/24/2021 11:15:00 AM 0.22 32.396 0.125 7.56 8.76 15.15
12/24/2021 11:30:00 AM 0.25 32.45 0.124 7.58 8.7 15.18
12/24/2021 11:45:00 AM 0.28 32.504 0.124 7.61 9.24 15.21
12/24/2021 12:00:00 PM 0.32 32.576 0.123 7.64 9.22 15.23
12/24/2021 12:15:00 PM 0.36 32.648 0.123 7.66 9.24 15.25
12/24/2021 12:30:00 PM 0.4 32.72 0.123 7.69 8.94 15.24
12/24/2021 12:45:00 PM 0.43 32.774 0.124 7.71 9.17 15.24
12/24/2021 1:00:00 PM 0.46 32.828 0.123 7.73 9.47 15.24
12/24/2021 1:15:00 PM 0.5 32.9 0.123 7.75 9.19 15.24
12/24/2021 1:30:00 PM 0.53 32.954 0.123 7.76 9.04 15.22
12/24/2021 1:45:00 PM 0.57 33.026 0.123 7.77 7.88 15.17
12/24/2021 2:00:00 PM 0.62 33.116 0.124 7.79 8.7 15.18
12/24/2021 2:15:00 PM 0.65 33.17 0.122 7.8 8.94 15.17
12/24/2021 2:30:00 PM 0.68 33.224 0.122 7.8 9.22 15.12
12/24/2021 2:45:00 PM 0.71 33.278 0.122 7.81 9.12 15.1
12/24/2021 3:00:00 PM 0.73 33.314 0.121 7.8 9.11 15.07
12/24/2021 3:15:00 PM 0.75 33.35 0.123 7.78 8.99 15.01
12/24/2021 3:30:00 PM 0.75 33.35 0.121 7.77 8.9 14.97
12/24/2021 3:45:00 PM 0.77 33.386 0.122 7.75 8.77 14.93
12/24/2021 4:00:00 PM 0.78 33.404 0.121 7.72 9.06 14.88
12/24/2021 4:15:00 PM 0.79 33.422 0.121 7.69 8.57 14.81
12/24/2021 4:30:00 PM 0.79 33.422 0.122 7.64 8.7 14.72
12/24/2021 4:45:00 PM 0.79 33.422 0.124 7.6 8.81 14.63
12/24/2021 5:00:00 PM 0.77 33.386 0.122 7.56 8.58 14.56
12/24/2021 5:15:00 PM 0.76 33.368 0.122 7.52 9.02 14.49
12/24/2021 5:30:00 PM 0.75 33.35 0.123 7.49 8.57 14.44
12/24/2021 5:45:00 PM 0.74 33.332 0.124 7.47 8.43 14.4
12/24/2021 6:00:00 PM 0.73 33.314 0.124 7.45 8.48 14.37
12/24/2021 6:15:00 PM 0.73 33.314 0.124 7.43 9.14 14.34
12/24/2021 6:30:00 PM 0.73 33.314 0.123 7.43 6.95 14.33
12/24/2021 6:45:00 PM 0.73 33.314 0.124 7.41 8.74 14.31
12/24/2021 7:00:00 PM 0.74 33.332 0.124 7.4 9.43 14.3
12/24/2021 7:15:00 PM 0.75 33.35 0.125 7.4 9.1 14.28
12/24/2021 7:30:00 PM 0.76 33.368 0.125 7.39 9.4 14.27
12/24/2021 7:45:00 PM 0.77 33.386 0.124 7.39 9.1 14.26
12/24/2021 8:00:00 PM 0.78 33.404 0.124 7.38 8.75 14.24
12/24/2021 8:15:00 PM 0.79 33.422 0.124 7.38 8.99 14.23
12/24/2021 8:30:00 PM 0.8 33.44 0.125 7.37 9.11 14.22
12/24/2021 8:45:00 PM 0.8 33.44 0.125 7.36 8.76 14.22
12/24/2021 9:00:00 PM 0.81 33.458 0.124 7.36 9.05 14.2
12/24/2021 9:15:00 PM 0.81 33.458 0.125 7.36 9.74 14.19
12/24/2021 9:30:00 PM 0.82 33.476 0.124 7.35 8.81 14.19
12/24/2021 9:45:00 PM 0.83 33.494 0.123 7.35 9.29 14.19
12/24/2021 10:00:00 PM 0.82 33.476 0.123 7.35 9.44 14.18
12/24/2021 10:15:00 PM 0.82 33.476 0.124 7.35 9.02 14.17
12/24/2021 10:30:00 PM 0.82 33.476 0.124 7.34 9.22 14.17
12/24/2021 10:45:00 PM 0.83 33.494 0.125 7.34 9.07 14.17
12/24/2021 11:00:00 PM 0.84 33.512 0.124 7.34 8.65 14.16
12/24/2021 11:15:00 PM 0.86 33.548 0.124 7.34 9.11 14.15
12/24/2021 11:30:00 PM 0.88 33.584 0.124 7.34 9.21 14.14
12/24/2021 11:45:00 PM 0.91 33.638 0.124 7.33 8.93 14.13
12/25/2021 12:00:00 AM 0.93 33.674 0.122 7.34 9.11 14.12
12/25/2021 12:15:00 AM 0.96 33.728 0.123 7.34 9.31 14.11
12/25/2021 12:30:00 AM 0.98 33.764 0.123 7.34 9.06 14.1
12/25/2021 12:45:00 AM 1.01 33.818 0.123 7.33 9.01 14.08
12/25/2021 1:00:00 AM 1.02 33.836 0.122 7.33 9.64 14.08
12/25/2021 1:15:00 AM 1.04 33.872 0.122 7.33 9.03 14.06
12/25/2021 1:30:00 AM 1.05 33.89 0.123 7.33 8.97 14.06
12/25/2021 1:45:00 AM 1.06 33.908 0.122 7.33 8.83 14.05
12/25/2021 2:00:00 AM 1.07 33.926 0.123 7.33 9.43 14.04
12/25/2021 2:15:00 AM 1.08 33.944 0.123 7.33 9.67 14.03
12/25/2021 2:30:00 AM 1.09 33.962 0.122 7.33 6.94 14.02
12/25/2021 2:45:00 AM 1.1 33.98 0.123 7.33 9.23 14.01
12/25/2021 3:00:00 AM 1.12 34.016 0.123 7.32 9.52 14
12/25/2021 3:15:00 AM 1.13 34.034 0.123 7.33 9.19 13.99
12/25/2021 3:30:00 AM 1.14 34.052 0.123 7.33 9.11 13.99
12/25/2021 3:45:00 AM 1.15 34.07 0.123 7.32 9.15 13.98
12/25/2021 4:00:00 AM 1.16 34.088 0.123 7.32 9.03 13.97
12/25/2021 4:15:00 AM 1.17 34.106 0.124 7.32 8.88 13.96
12/25/2021 4:30:00 AM 1.19 34.142 0.124 7.32 9.12 13.95
12/25/2021 4:45:00 AM 1.21 34.178 0.123 7.32 9.22 13.94
12/25/2021 5:00:00 AM 1.22 34.196 0.123 7.32 8.87 13.93
12/25/2021 5:15:00 AM 1.24 34.232 0.123 7.32 9.02 13.92
12/25/2021 5:30:00 AM 1.26 34.268 0.122 7.32 9.21 13.91
12/25/2021 5:45:00 AM 1.28 34.304 0.123 7.32 9.41 13.89
12/25/2021 6:00:00 AM 1.3 34.34 0.122 7.32 9.05 13.89
12/25/2021 6:15:00 AM 1.32 34.376 0.122 7.32 9.56 13.88
12/25/2021 6:30:00 AM 1.33 34.394 0.122 7.32 9.23 13.87
12/25/2021 6:45:00 AM 1.35 34.43 0.122 7.32 9.43 13.86
12/25/2021 7:00:00 AM 1.37 34.466 0.122 7.32 9.53 13.85
12/25/2021 7:15:00 AM 1.38 34.484 0.122 7.31 9.42 13.84
12/25/2021 7:30:00 AM 1.4 34.52 0.122 7.31 10.17 13.83
12/25/2021 7:45:00 AM 1.42 34.556 0.121 7.31 9.22 13.82
12/25/2021 8:00:00 AM 1.44 34.592 0.122 7.32 9.11 13.82
12/25/2021 8:15:00 AM 1.46 34.628 0.122 7.32 9.4 13.83
12/25/2021 8:30:00 AM 1.48 34.664 0.122 7.32 9.79 13.84
12/25/2021 8:45:00 AM 1.5 34.7 0.122 7.33 7.95 13.86
12/25/2021 9:00:00 AM 1.52 34.736 0.122 7.34 10.39 13.88
12/25/2021 9:15:00 AM 1.54 34.772 0.121 7.35 9.94 13.9
12/25/2021 9:30:00 AM 1.57 34.826 0.122 7.36 7.94 13.94
12/25/2021 9:45:00 AM 1.6 34.88 0.123 7.37 9.8 13.97
12/25/2021 10:00:00 AM 1.63 34.934 0.122 7.38 9.93 13.96
12/25/2021 10:15:00 AM 1.65 34.97 0.122 7.39 10.25 13.97
12/25/2021 10:30:00 AM 1.68 35.024 0.124 7.41 10.18 14
12/25/2021 10:45:00 AM 1.71 35.078 0.123 7.42 10.45 14.02
12/25/2021 11:00:00 AM 1.75 35.15 0.125 7.44 3.72 14.06
12/25/2021 11:15:00 AM 1.8 35.24 0.124 7.46 3.71 14.11
12/25/2021 11:30:00 AM 1.87 35.366 0.124 7.49 4.6 14.15
12/25/2021 11:45:00 AM 1.92 35.456 0.125 7.51 3.99 14.14
12/25/2021 12:00:00 PM 1.96 35.528 0.126 7.52 4.42 14.13
12/25/2021 12:15:00 PM 2 35.6 0.126 7.54 4.78 14.12
12/25/2021 12:30:00 PM 2.03 35.654 0.127 7.53 4.38 14.08
12/25/2021 12:45:00 PM 2.06 35.708 0.126 7.54 4.31 14.07
12/25/2021 1:00:00 PM 2.09 35.762 0.126 7.54 4.47 14.04
12/25/2021 1:15:00 PM 2.13 35.834 0.126 7.54 4.25 14.02
12/25/2021 1:30:00 PM 2.18 35.924 0.125 7.55 4.47 14.05
12/25/2021 1:45:00 PM 2.23 36.014 0.125 7.56 5.07 14.02
12/25/2021 2:00:00 PM 2.28 36.104 0.125 7.57 4.5 14.03
12/25/2021 2:15:00 PM 2.32 36.176 0.127 7.58 4.96 14.02
12/25/2021 2:30:00 PM 2.35 36.23 0.128 7.58 5.43 14
12/25/2021 2:45:00 PM 2.37 36.266 0.128 7.58 4.79 13.96
12/25/2021 3:00:00 PM 2.4 36.32 0.128 7.57 6.82 13.92
12/25/2021 3:15:00 PM 2.42 36.356 0.128 7.56 5.87 13.91
12/25/2021 3:30:00 PM 2.43 36.374 0.129 7.56 5.63 13.88
12/25/2021 3:45:00 PM 2.44 36.392 0.128 7.54 6.49 13.82
12/25/2021 4:00:00 PM 2.44 36.392 0.127 7.52 6.51 13.77
12/25/2021 4:15:00 PM 2.45 36.41 0.127 7.49 7.03 13.71
12/25/2021 4:30:00 PM 2.45 36.41 0.126 7.47 7.62 13.66
12/25/2021 4:45:00 PM 2.46 36.428 0.127 7.45 8.71 13.62
12/25/2021 5:00:00 PM 2.46 36.428 0.127 7.43 6.75 13.58
12/25/2021 5:15:00 PM 2.46 36.428 0.125 7.41 6.84 13.55
12/25/2021 5:30:00 PM 2.46 36.428 0.126 7.4 7.7 13.53
12/25/2021 5:45:00 PM 2.47 36.446 0.125 7.39 7.39 13.51
12/25/2021 6:00:00 PM 2.48 36.464 0.125 7.38 6.51 13.5
12/25/2021 6:15:00 PM 2.49 36.482 0.125 7.37 7.32 13.49
12/25/2021 6:30:00 PM 2.49 36.482 0.123 7.36 6.81 13.48
12/25/2021 6:45:00 PM 2.5 36.5 0.124 7.36 7.83 13.47
12/25/2021 7:00:00 PM 2.51 36.518 0.124 7.35 7.14 13.46
12/25/2021 7:15:00 PM 2.52 36.536 0.123 7.35 7.43 13.45
12/25/2021 7:30:00 PM 2.52 36.536 0.122 7.34 7.78 13.46
12/25/2021 7:45:00 PM 2.53 36.554 0.123 7.34 7.43 13.45
12/25/2021 8:00:00 PM 2.54 36.572 0.124 7.33 9.95 13.45
12/25/2021 8:15:00 PM 2.54 36.572 0.123 7.33 7.73 13.44
12/25/2021 8:30:00 PM 2.55 36.59 0.125 7.33 7.35 13.44
12/25/2021 8:45:00 PM 2.55 36.59 0.125 7.33 7.96 13.44
12/25/2021 9:00:00 PM 2.56 36.608 0.126 7.32 6.56 13.44
12/25/2021 9:15:00 PM 2.56 36.608 0.126 7.32 6.59 13.44
12/25/2021 9:30:00 PM 2.56 36.608 0.126 7.32 7.39 13.44
12/25/2021 9:45:00 PM 2.57 36.626 0.126 7.32 7.63 13.44
12/25/2021 10:00:00 PM 2.57 36.626 0.125 7.32 8.19 13.44
12/25/2021 10:15:00 PM 2.58 36.644 0.124 7.32 7.57 13.44
12/25/2021 10:30:00 PM 2.6 36.68 0.125 7.32 6.88 13.43
12/25/2021 10:45:00 PM 2.6 36.68 0.125 7.32 6.8 13.43
12/25/2021 11:00:00 PM 2.62 36.716 0.125 7.32 7.73 13.43
12/25/2021 11:15:00 PM 2.63 36.734 0.125 7.32 7.47 13.43
12/25/2021 11:30:00 PM 2.64 36.752 0.125 7.32 7.11 13.43
12/25/2021 11:45:00 PM 2.66 36.788 0.125 7.32 7.53 13.42
12/26/2021 12:00:00 AM 2.67 36.806 0.125 7.32 7.53 13.42
12/26/2021 12:15:00 AM 2.69 36.842 0.124 7.32 7.05 13.42
12/26/2021 12:30:00 AM 2.72 36.896 0.124 7.32 6.92 13.42
12/26/2021 12:45:00 AM 2.74 36.932 0.123 7.32 8.18 13.41
12/26/2021 1:00:00 AM 2.74 36.932 0.123 7.32 7.28 13.41
12/26/2021 1:15:00 AM 2.75 36.95 0.123 7.31 7.23 13.41
12/26/2021 1:30:00 AM 2.75 36.95 0.122 7.31 6.77 13.41
12/26/2021 1:45:00 AM 2.75 36.95 0.123 7.31 7.15 13.41
12/26/2021 2:00:00 AM 2.75 36.95 0.121 7.31 6.72 13.41
12/26/2021 2:15:00 AM 2.74 36.932 0.121 7.31 6.25 13.42
12/26/2021 2:30:00 AM 2.74 36.932 0.121 7.3 6.95 13.42
12/26/2021 2:45:00 AM 2.73 36.914 0.121 7.3 8.11 13.43
12/26/2021 3:00:00 AM 2.72 36.896 0.121 7.3 6.57 13.43
12/26/2021 3:15:00 AM 2.72 36.896 0.122 7.3 6.71 13.43
12/26/2021 3:30:00 AM 2.72 36.896 0.122 7.29 6.58 13.43
12/26/2021 3:45:00 AM 2.72 36.896 0.121 7.29 6.74 13.43
12/26/2021 4:00:00 AM 2.72 36.896 0.123 7.29 7.71 13.44
12/26/2021 4:15:00 AM 2.72 36.896 0.122 7.29 8.18 13.44
12/26/2021 4:30:00 AM 2.72 36.896 0.123 7.29 6.99 13.44
12/26/2021 4:45:00 AM 2.72 36.896 0.123 7.29 7.76 13.44
12/26/2021 5:00:00 AM 2.71 36.878 0.122 7.29 7.33 13.45
12/26/2021 5:15:00 AM 2.7 36.86 0.123 7.29 7.36 13.45
12/26/2021 5:30:00 AM 2.69 36.842 0.122 7.29 6.96 13.46
12/26/2021 5:45:00 AM 2.69 36.842 0.123 7.29 7.07 13.47
12/26/2021 6:00:00 AM 2.68 36.824 0.122 7.29 6.92 13.47
12/26/2021 6:15:00 AM 2.67 36.806 0.121 7.28 7.91 13.47
12/26/2021 6:30:00 AM 2.67 36.806 0.121 7.28 6.66 13.48
12/26/2021 6:45:00 AM 2.67 36.806 0.121 7.28 6.39 13.48
12/26/2021 7:00:00 AM 2.66 36.788 0.122 7.28 6.53 13.49
12/26/2021 7:15:00 AM 2.66 36.788 0.122 7.28 7.4 13.49
12/26/2021 7:30:00 AM 2.66 36.788 0.122 7.28 6.23 13.49
12/26/2021 7:45:00 AM 2.65 36.77 0.122 7.28 7.01 13.5
12/26/2021 8:00:00 AM 2.65 36.77 0.123 7.28 6.22 13.53
12/26/2021 8:15:00 AM 2.65 36.77 0.123 7.3 8.29 13.56
12/26/2021 8:30:00 AM 2.65 36.77 0.123 7.31 7.05 13.61
12/26/2021 8:45:00 AM 2.67 36.806 0.124 7.32 6.28 13.66
12/26/2021 9:00:00 AM 2.68 36.824 0.124 7.34 5.66 13.69
12/26/2021 9:15:00 AM 2.7 36.86 0.124 7.35 6.04 13.74
12/26/2021 9:30:00 AM 2.72 36.896 0.124 7.37 6.49 13.77
12/26/2021 9:45:00 AM 2.75 36.95 0.124 7.38 5.53 13.82
12/26/2021 10:00:00 AM 2.79 37.022 0.124 7.41 5.11 13.86
12/26/2021 10:15:00 AM 2.83 37.094 0.124 7.43 6.08 13.9
12/26/2021 10:30:00 AM 2.86 37.148 0.124 7.44 6.34 13.93
12/26/2021 10:45:00 AM 2.89 37.202 0.122 7.46 6.11 13.95
12/26/2021 11:00:00 AM 2.93 37.274 0.123 7.48 6.44 13.98
12/26/2021 11:15:00 AM 2.97 37.346 0.123 7.51 6.2 14
12/26/2021 11:30:00 AM 3.04 37.472 0.122 7.53 6.46 14.02
12/26/2021 11:45:00 AM 3.1 37.58 0.122 7.55 5.34 14.03
12/26/2021 12:00:00 PM 3.13 37.634 0.122 7.57 6.26 14.03
12/26/2021 12:15:00 PM 3.16 37.688 0.121 7.58 5.24 14.03
12/26/2021 12:30:00 PM 3.18 37.724 0.12 7.59 5.51 14.02
12/26/2021 12:45:00 PM 3.23 37.814 0.12 7.6 4.96 14.02
12/26/2021 1:00:00 PM 3.25 37.85 0.12 7.62 5.05 14.02
12/26/2021 1:15:00 PM 3.27 37.886 0.119 7.62 6.91 14.01
12/26/2021 1:30:00 PM 3.29 37.922 0.119 7.63 5.06 13.99
12/26/2021 1:45:00 PM 3.29 37.922 0.119 7.63 5.76 13.96
12/26/2021 2:00:00 PM 3.31 37.958 0.119 7.63 4.69 13.97
12/26/2021 2:15:00 PM 3.31 37.958 0.118 7.63 5.78 13.95
12/26/2021 2:30:00 PM 3.32 37.976 0.118 7.62 5.23 13.92
12/26/2021 2:45:00 PM 3.32 37.976 0.118 7.61 4.44 13.89
12/26/2021 3:00:00 PM 3.33 37.994 0.117 7.6 5.09 13.87
12/26/2021 3:15:00 PM 3.32 37.976 0.117 7.59 5.94 13.85
12/26/2021 3:30:00 PM 3.31 37.958 0.118 7.58 6.16 13.81
12/26/2021 3:45:00 PM 3.29 37.922 0.117 7.56 4.81 13.8
12/26/2021 4:00:00 PM 3.28 37.904 0.117 7.54 4.9 13.76
12/26/2021 4:15:00 PM 3.28 37.904 0.117 7.52 4.31 13.7
12/26/2021 4:30:00 PM 3.27 37.886 0.117 7.5 5.3 13.65
12/26/2021 4:45:00 PM 3.27 37.886 0.116 7.47 4.75 13.59
12/26/2021 5:00:00 PM 3.25 37.85 0.117 7.44 5.99 13.55
12/26/2021 5:15:00 PM 3.23 37.814 0.118 7.42 4.87 13.52
12/26/2021 5:30:00 PM 3.2 37.76 0.117 7.41 4.76 13.49
12/26/2021 5:45:00 PM 3.18 37.724 0.117 7.39 4.19 13.48
12/26/2021 6:00:00 PM 3.17 37.706 0.117 7.38 4.74 13.47
12/26/2021 6:15:00 PM 3.16 37.688 0.117 7.37 5.26 13.46
12/26/2021 6:30:00 PM 3.15 37.67 0.117 7.36 4.92 13.45
12/26/2021 6:45:00 PM 3.13 37.634 0.117 7.35 5.29 13.44
12/26/2021 7:00:00 PM 3.11 37.598 0.117 7.35 4.34 13.44
12/26/2021 7:15:00 PM 3.09 37.562 0.117 7.34 4.88 13.45
12/26/2021 7:30:00 PM 3.07 37.526 0.116 7.34 4.84 13.44
12/26/2021 7:45:00 PM 3.04 37.472 0.116 7.33 4.53 13.44
12/26/2021 8:00:00 PM 3.01 37.418 0.117 7.33 4.57 13.45
12/26/2021 8:15:00 PM 2.99 37.382 0.118 7.32 6.45 13.45
12/26/2021 8:30:00 PM 2.97 37.346 0.117 7.32 5.43 13.46
12/26/2021 8:45:00 PM 2.96 37.328 0.117 7.31 5.05 13.46
12/26/2021 9:00:00 PM 2.95 37.31 0.118 7.31 5.34 13.46
12/26/2021 9:15:00 PM 2.94 37.292 0.116 7.31 5.78 13.46
12/26/2021 9:30:00 PM 2.93 37.274 0.117 7.31 5.47 13.46
12/26/2021 9:45:00 PM 2.91 37.238 0.117 7.31 4.21 13.47
12/26/2021 10:00:00 PM 2.88 37.184 0.118 7.3 4.69 13.47
12/26/2021 10:15:00 PM 2.86 37.148 0.117 7.3 5.36 13.49
12/26/2021 10:30:00 PM 2.84 37.112 0.118 7.3 4.94 13.49
12/26/2021 10:45:00 PM 2.82 37.076 0.117 7.3 4.91 13.5
12/26/2021 11:00:00 PM 2.8 37.04 0.118 7.29 4.7 13.5
12/26/2021 11:15:00 PM 2.78 37.004 0.118 7.29 4.51 13.51
12/26/2021 11:30:00 PM 2.75 36.95 0.118 7.29 4.25 13.51
12/26/2021 11:45:00 PM 2.72 36.896 0.118 7.29 4.78 13.52
12/27/2021 12:00:00 AM 2.68 36.824 0.119 7.29 4.73 13.54
12/27/2021 12:15:00 AM 2.64 36.752 0.119 7.28 4.91 13.54
12/27/2021 12:30:00 AM 2.59 36.662 0.119 7.28 5.21 13.56
12/27/2021 12:45:00 AM 2.54 36.572 0.118 7.28 6.01 13.57
12/27/2021 1:00:00 AM 2.51 36.518 0.119 7.28 5.76 13.58
12/27/2021 1:15:00 AM 2.48 36.464 0.12 7.28 4.47 13.6
12/27/2021 1:30:00 AM 2.46 36.428 0.12 7.28 5.08 13.61
12/27/2021 1:45:00 AM 2.44 36.392 0.119 7.28 4.78 13.61
12/27/2021 2:00:00 AM 2.4 36.32 0.119 7.28 5.42 13.63
12/27/2021 2:15:00 AM 2.38 36.284 0.119 7.27 4.48 13.63
12/27/2021 2:30:00 AM 2.35 36.23 0.119 7.27 5.16 13.65
12/27/2021 2:45:00 AM 2.31 36.158 0.119 7.27 4.56 13.65
12/27/2021 3:00:00 AM 2.27 36.086 0.119 7.27 4.31 13.67
12/27/2021 3:15:00 AM 2.23 36.014 0.12 7.27 4.94 13.68
12/27/2021 3:30:00 AM 2.18 35.924 0.12 7.27 4.56 13.69
12/27/2021 3:45:00 AM 2.14 35.852 0.12 7.27 4.9 13.7
12/27/2021 4:00:00 AM 2.1 35.78 0.12 7.26 4.9 13.72
12/27/2021 4:15:00 AM 2.07 35.726 0.12 7.25 5.01 13.73
12/27/2021 4:30:00 AM 2.05 35.69 0.119 7.25 4.74 13.74
12/27/2021 4:45:00 AM 2.03 35.654 0.12 7.25 4.5 13.75
12/27/2021 5:00:00 AM 2.01 35.618 0.12 7.25 4.65 13.76
12/27/2021 5:15:00 AM 1.98 35.564 0.12 7.25 4.57 13.77
12/27/2021 5:30:00 AM 1.96 35.528 0.12 7.25 6.8 13.77
12/27/2021 5:45:00 AM 1.94 35.492 0.12 7.25 5.29 13.79
12/27/2021 6:00:00 AM 1.92 35.456 0.12 7.25 4.64 13.79
12/27/2021 6:15:00 AM 1.91 35.438 0.121 7.25 4.87 13.79
12/27/2021 6:30:00 AM 1.89 35.402 0.121 7.25 5.05 13.81
12/27/2021 6:45:00 AM 1.88 35.384 0.12 7.25 4.35 13.8
12/27/2021 7:00:00 AM 1.87 35.366 0.12 7.25 4.3 13.81
12/27/2021 7:15:00 AM 1.86 35.348 0.12 7.25 4.14 13.82
12/27/2021 7:30:00 AM 1.85 35.33 0.12 7.25 5.13 13.82
12/27/2021 7:45:00 AM 1.84 35.312 0.121 7.25 5.14 13.83
12/27/2021 8:00:00 AM 1.83 35.294 0.121 7.25 5.11 13.84
12/27/2021 8:15:00 AM 1.83 35.294 0.121 7.26 5.71 13.86
12/27/2021 8:30:00 AM 1.82 35.276 0.121 7.26 5.55 13.88
12/27/2021 8:45:00 AM 1.81 35.258 0.12 7.27 4.35 13.91
12/27/2021 9:00:00 AM 1.81 35.258 0.12 7.28 5.17 13.93
12/27/2021 9:15:00 AM 1.8 35.24 0.12 7.28 5.39 13.95
12/27/2021 9:30:00 AM 1.8 35.24 0.12 7.29 5.53 13.95
12/27/2021 9:45:00 AM 1.8 35.24 0.12 7.29 4.7 13.98
12/27/2021 10:00:00 AM 1.8 35.24 0.12 7.3 5.3 14.01
12/27/2021 10:15:00 AM 1.82 35.276 0.12 7.32 4.59 14.08
12/27/2021 10:30:00 AM 1.84 35.312 0.12 7.34 4.43 14.15
12/27/2021 10:45:00 AM 1.86 35.348 0.12 7.37 4.52 14.19
12/27/2021 11:00:00 AM 1.88 35.384 0.12 7.39 4.74 14.24
12/27/2021 11:15:00 AM 1.89 35.402 0.12 7.42 5.09 14.27
12/27/2021 11:30:00 AM 1.92 35.456 0.12 7.44 4.81 14.33
12/27/2021 11:45:00 AM 1.98 35.564 0.119 7.47 4.51 14.37
12/27/2021 12:00:00 PM 2.01 35.618 0.12 7.49 4.14 14.37
12/27/2021 12:15:00 PM 2.01 35.618 0.12 7.5 4.37 14.35
12/27/2021 12:30:00 PM 2.02 35.636 0.119 7.5 4.21 14.33
12/27/2021 12:45:00 PM 2.03 35.654 0.119 7.51 5.18 14.33
12/27/2021 1:00:00 PM 2.02 35.636 0.12 7.5 5.38 14.29
12/27/2021 1:15:00 PM 2.02 35.636 0.119 7.5 4.53 14.27
12/27/2021 1:30:00 PM 2.02 35.636 0.12 7.49 4.18 14.23
12/27/2021 1:45:00 PM 2.03 35.654 0.119 7.49 4.79 14.23
12/27/2021 2:00:00 PM 2.04 35.672 0.119 7.49 4.62 14.23
12/27/2021 2:15:00 PM 2.05 35.69 0.12 7.49 4.95 14.22
12/27/2021 2:30:00 PM 2.06 35.708 0.119 7.49 4.09 14.2
12/27/2021 2:45:00 PM 2.06 35.708 0.12 7.48 4.74 14.17
12/27/2021 3:00:00 PM 2.06 35.708 0.12 7.47 3.85 14.13
12/27/2021 3:15:00 PM 2.06 35.708 0.12 7.46 4.59 14.09
12/27/2021 3:30:00 PM 2.06 35.708 0.12 7.45 4.53 14.07
12/27/2021 3:45:00 PM 2.06 35.708 0.12 7.44 4.38 14.03
12/27/2021 4:00:00 PM 2.06 35.708 0.119 7.43 4.41 13.99
12/27/2021 4:15:00 PM 2.05 35.69 0.119 7.41 3.63 13.96
12/27/2021 4:30:00 PM 2.03 35.654 0.12 7.4 3.95 13.93
12/27/2021 4:45:00 PM 2.02 35.636 0.12 7.39 3.58 13.88
12/27/2021 5:00:00 PM 2.02 35.636 0.12 7.37 3.98 13.85
12/27/2021 5:15:00 PM 2.02 35.636 0.12 7.36 3.83 13.83
12/27/2021 5:30:00 PM 2.02 35.636 0.12 7.35 4.13 13.81
12/27/2021 5:45:00 PM 2.02 35.636 0.119 7.34 3.93 13.79
12/27/2021 6:00:00 PM 2.02 35.636 0.121 7.34 3.75 13.77
12/27/2021 6:15:00 PM 2.02 35.636 0.12 7.33 4.36 13.76
12/27/2021 6:30:00 PM 2.02 35.636 0.12 7.32 3.9 13.75
12/27/2021 6:45:00 PM 2.02 35.636 0.12 7.32 3.96 13.74
12/27/2021 7:00:00 PM 2.02 35.636 0.119 7.32 4.08 13.73
12/27/2021 7:15:00 PM 2.02 35.636 0.119 7.31 3.71 13.73
12/27/2021 7:30:00 PM 2.02 35.636 0.119 7.31 3.67 13.72
12/27/2021 7:45:00 PM 2.01 35.618 0.119 7.31 4 13.72
12/27/2021 8:00:00 PM 2.02 35.636 0.119 7.3 4.45 13.71
12/27/2021 8:15:00 PM 2.02 35.636 0.119 7.3 3.71 13.71
12/27/2021 8:30:00 PM 2.02 35.636 0.119 7.3 4.05 13.7
12/27/2021 8:45:00 PM 2.03 35.654 0.119 7.3 4.12 13.69
12/27/2021 9:00:00 PM 2.03 35.654 0.119 7.3 3.9 13.69
12/27/2021 9:15:00 PM 2.04 35.672 0.119 7.3 3.88 13.68
12/27/2021 9:30:00 PM 2.04 35.672 0.118 7.29 3.74 13.68
12/27/2021 9:45:00 PM 2.04 35.672 0.119 7.29 4.36 13.67
12/27/2021 10:00:00 PM 2.05 35.69 0.118 7.29 3.87 13.67
12/27/2021 10:15:00 PM 2.05 35.69 0.119 7.29 3.79 13.66
12/27/2021 10:30:00 PM 2.06 35.708 0.119 7.29 3.67 13.67
12/27/2021 10:45:00 PM 2.06 35.708 0.119 7.29 4.04 13.66
12/27/2021 11:00:00 PM 2.06 35.708 0.119 7.29 3.72 13.65
12/27/2021 11:15:00 PM 2.07 35.726 0.119 7.29 3.61 13.65
12/27/2021 11:30:00 PM 2.07 35.726 0.119 7.29 3.41 13.64
12/27/2021 11:45:00 PM 2.08 35.744 0.119 7.29 3.9 13.64
12/28/2021 12:00:00 AM 2.08 35.744 0.119 7.29 3.83 13.63
12/28/2021 12:15:00 AM 2.09 35.762 0.119 7.29 4.07 13.63
12/28/2021 12:30:00 AM 2.1 35.78 0.12 7.29 3.58 13.62
12/28/2021 12:45:00 AM 2.11 35.798 0.121 7.29 3.51 13.62
12/28/2021 1:00:00 AM 2.12 35.816 0.12 7.29 3.75 13.62
12/28/2021 1:15:00 AM 2.13 35.834 0.12 7.29 3.32 13.61
12/28/2021 1:30:00 AM 2.13 35.834 0.12 7.29 3.88 13.61
12/28/2021 1:45:00 AM 2.14 35.852 0.12 7.29 4.08 13.61
12/28/2021 2:00:00 AM 2.14 35.852 0.12 7.29 3.88 13.61
12/28/2021 2:15:00 AM 2.15 35.87 0.12 7.29 3.21 13.6
12/28/2021 2:30:00 AM 2.15 35.87 0.12 7.29 4.13 13.6
12/28/2021 2:45:00 AM 2.15 35.87 0.121 7.28 3.51 13.6
12/28/2021 3:00:00 AM 2.16 35.888 0.12 7.28 3.29 13.61
12/28/2021 3:15:00 AM 2.16 35.888 0.12 7.28 4.12 13.6
12/28/2021 3:30:00 AM 2.16 35.888 0.121 7.28 3.51 13.6
12/28/2021 3:45:00 AM 2.17 35.906 0.12 7.28 3.66 13.6
12/28/2021 4:00:00 AM 2.17 35.906 0.12 7.28 3.26 13.6
12/28/2021 4:15:00 AM 2.18 35.924 0.121 7.28 3.57 13.6
12/28/2021 4:30:00 AM 2.18 35.924 0.121 7.28 3.41 13.6
12/28/2021 4:45:00 AM 2.17 35.906 0.12 7.28 3.3 13.6
12/28/2021 5:00:00 AM 2.14 35.852 0.12 7.28 3.71 13.61
12/28/2021 5:15:00 AM 2.12 35.816 0.12 7.28 3.53 13.62
12/28/2021 5:30:00 AM 2.09 35.762 0.12 7.28 3.07 13.62
12/28/2021 5:45:00 AM 2.05 35.69 0.12 7.28 3.46 13.63
12/28/2021 6:00:00 AM 2.02 35.636 0.12 7.27 3.68 13.65
12/28/2021 6:15:00 AM 1.99 35.582 0.119 7.28 3.39 13.66
12/28/2021 6:30:00 AM 1.95 35.51 0.119 7.28 3.33 13.67
12/28/2021 6:45:00 AM 1.92 35.456 0.12 7.27 4.24 13.68
12/28/2021 7:00:00 AM 1.89 35.402 0.119 7.27 2.97 13.7
12/28/2021 7:15:00 AM 1.86 35.348 0.12 7.27 3.31 13.71
12/28/2021 7:30:00 AM 1.84 35.312 0.12 7.27 3.25 13.72
12/28/2021 7:45:00 AM 1.83 35.294 0.12 7.27 3.33 13.75
12/28/2021 8:00:00 AM 1.82 35.276 0.12 7.28 3.17 13.78
12/28/2021 8:15:00 AM 1.81 35.258 0.119 7.29 3.6 13.84
12/28/2021 8:30:00 AM 1.81 35.258 0.12 7.31 3.64 13.91
12/28/2021 8:45:00 AM 1.8 35.24 0.119 7.32 3.5 13.96
12/28/2021 9:00:00 AM 1.78 35.204 0.119 7.34 3.43 14.01
12/28/2021 9:15:00 AM 1.78 35.204 0.119 7.35 3.59 14.06
12/28/2021 9:30:00 AM 1.8 35.24 0.118 7.38 3.49 14.11
12/28/2021 9:45:00 AM 1.82 35.276 0.119 7.4 3.28 14.16
12/28/2021 10:00:00 AM 1.86 35.348 0.119 7.42 3.72 14.2
12/28/2021 10:15:00 AM 1.9 35.42 0.119 7.44 3.27 14.23
12/28/2021 10:30:00 AM 1.96 35.528 0.118 7.46 3.39 14.24
12/28/2021 10:45:00 AM 2.02 35.636 0.119 7.48 3.44 14.27
12/28/2021 11:00:00 AM 2.1 35.78 0.118 7.5 3.56 14.28
12/28/2021 11:15:00 AM 2.16 35.888 0.118 7.52 3.26 14.27
12/28/2021 11:30:00 AM 2.21 35.978 0.118 7.53 3.48 14.29
12/28/2021 11:45:00 AM 2.29 36.122 0.118 7.56 3.29 14.32
12/28/2021 12:00:00 PM 2.37 36.266 0.119 7.58 3.34 14.32
12/28/2021 12:15:00 PM 2.43 36.374 0.117 7.61 3.35 14.34
12/28/2021 12:30:00 PM 2.51 36.518 0.119 7.64 3.45 14.33
12/28/2021 12:45:00 PM 2.59 36.662 0.118 7.66 3.4 14.32
12/28/2021 1:00:00 PM 2.65 36.77 0.119 7.67 3.12 14.28
12/28/2021 1:15:00 PM 2.68 36.824 0.117 7.66 3.21 14.22
12/28/2021 1:30:00 PM 2.69 36.842 0.117 7.65 2.93 14.16
12/28/2021 1:45:00 PM 2.7 36.86 0.117 7.64 3.38 14.11
12/28/2021 2:00:00 PM 2.69 36.842 0.119 7.61 3.26 14.06
12/28/2021 2:15:00 PM 2.69 36.842 0.118 7.59 3.43 14.02
12/28/2021 2:30:00 PM 2.69 36.842 0.117 7.57 3.54 13.97
12/28/2021 2:45:00 PM 2.71 36.878 0.117 7.57 3.39 13.98
12/28/2021 3:00:00 PM 2.74 36.932 0.118 7.57 3.03 13.97
12/28/2021 3:15:00 PM 2.76 36.968 0.118 7.57 3.11 13.94
12/28/2021 3:30:00 PM 2.77 36.986 0.119 7.56 3.3 13.91
12/28/2021 3:45:00 PM 2.78 37.004 0.118 7.54 3.2 13.84
12/28/2021 4:00:00 PM 2.78 37.004 0.118 7.51 3.6 13.79
12/28/2021 4:15:00 PM 2.79 37.022 0.119 7.49 3.16 13.74
12/28/2021 4:30:00 PM 2.79 37.022 0.119 7.46 2.88 13.68
12/28/2021 4:45:00 PM 2.8 37.04 0.119 7.44 3.33 13.64
12/28/2021 5:00:00 PM 2.8 37.04 0.118 7.42 3.5 13.6
12/28/2021 5:15:00 PM 2.81 37.058 0.118 7.41 3.36 13.57
12/28/2021 5:30:00 PM 2.82 37.076 0.119 7.39 3.04 13.53
12/28/2021 5:45:00 PM 2.83 37.094 0.118 7.38 3.3 13.5
12/28/2021 6:00:00 PM 2.84 37.112 0.118 7.37 3.1 13.49
12/28/2021 6:15:00 PM 2.85 37.13 0.119 7.36 2.97 13.48
12/28/2021 6:30:00 PM 2.85 37.13 0.119 7.35 3.13 13.47
12/28/2021 6:45:00 PM 2.86 37.148 0.119 7.35 3.42 13.45
12/28/2021 7:00:00 PM 2.87 37.166 0.118 7.34 3.47 13.43
12/28/2021 7:15:00 PM 2.88 37.184 0.118 7.33 3.1 13.42
12/28/2021 7:30:00 PM 2.88 37.184 0.118 7.33 3.55 13.42
12/28/2021 7:45:00 PM 2.89 37.202 0.117 7.33 2.97 13.4
12/28/2021 8:00:00 PM 2.88 37.184 0.117 7.33 3.29 13.4
12/28/2021 8:15:00 PM 2.87 37.166 0.117 7.33 3.05 13.4
12/28/2021 8:30:00 PM 2.86 37.148 0.117 7.32 3.58 13.39
12/28/2021 8:45:00 PM 2.84 37.112 0.117 7.32 3.04 13.41
12/28/2021 9:00:00 PM 2.83 37.094 0.117 7.32 3.47 13.4
12/28/2021 9:15:00 PM 2.76 36.968 0.118 7.31 3.05 13.39
12/28/2021 9:30:00 PM 2.72 36.896 0.118 7.31 3.98 13.41
12/28/2021 9:45:00 PM 2.7 36.86 0.117 7.31 3.43 13.42
12/28/2021 10:00:00 PM 2.68 36.824 0.117 7.31 3.21 13.43
12/28/2021 10:15:00 PM 2.66 36.788 0.118 7.31 3.38 13.43
12/28/2021 10:30:00 PM 2.66 36.788 0.117 7.3 3.11 13.43
12/28/2021 10:45:00 PM 2.66 36.788 0.118 7.3 3.44 13.42
12/28/2021 11:00:00 PM 2.66 36.788 0.117 7.3 2.94 13.42
12/28/2021 11:15:00 PM 2.66 36.788 0.118 7.3 3.47 13.42
12/28/2021 11:30:00 PM 2.65 36.77 0.117 7.3 3.33 13.43
12/28/2021 11:45:00 PM 2.65 36.77 0.118 7.3 3.19 13.43
12/29/2021 12:00:00 AM 2.66 36.788 0.118 7.3 3.16 13.42
12/29/2021 12:15:00 AM 2.66 36.788 0.118 7.3 3.36 13.42
12/29/2021 12:30:00 AM 2.66 36.788 0.12 7.3 3.08 13.42
12/29/2021 12:45:00 AM 2.67 36.806 0.12 7.29 3.58 13.41
12/29/2021 1:00:00 AM 2.67 36.806 0.12 7.29 3.42 13.41
12/29/2021 1:15:00 AM 2.67 36.806 0.121 7.3 3.35 13.41
12/29/2021 1:30:00 AM 2.68 36.824 0.121 7.29 3.37 13.4
12/29/2021 1:45:00 AM 2.68 36.824 0.122 7.29 3.42 13.4
12/29/2021 2:00:00 AM 2.68 36.824 0.122 7.3 3.53 13.39
12/29/2021 2:15:00 AM 2.68 36.824 0.124 7.29 3.3 13.39
12/29/2021 2:30:00 AM 2.69 36.842 0.126 7.29 3.31 13.39
12/29/2021 2:45:00 AM 2.68 36.824 0.126 7.29 3.32 13.39
12/29/2021 3:00:00 AM 2.68 36.824 0.124 7.3 2.91 13.39
12/29/2021 3:15:00 AM 2.68 36.824 0.124 7.3 3.12 13.39
12/29/2021 3:30:00 AM 2.68 36.824 0.123 7.29 3.35 13.4
12/29/2021 3:45:00 AM 2.68 36.824 0.125 7.29 3.29 13.39
12/29/2021 4:00:00 AM 2.68 36.824 0.125 7.29 10.57 13.4
12/29/2021 4:15:00 AM 2.68 36.824 0.125 7.29 3.08 13.4
12/29/2021 4:30:00 AM 2.67 36.806 0.124 7.29 3.24 13.4
12/29/2021 4:45:00 AM 2.67 36.806 0.125 7.29 3.97 13.4
12/29/2021 5:00:00 AM 2.67 36.806 0.124 7.29 3.29 13.4
12/29/2021 5:15:00 AM 2.67 36.806 0.124 7.29 3.36 13.41
12/29/2021 5:30:00 AM 2.66 36.788 0.125 7.29 3.16 13.41
12/29/2021 5:45:00 AM 2.66 36.788 0.124 7.29 3.08 13.41
12/29/2021 6:00:00 AM 2.66 36.788 0.123 7.29 3.44 13.42
12/29/2021 6:15:00 AM 2.65 36.77 0.123 7.29 3.52 13.42
12/29/2021 6:30:00 AM 2.65 36.77 0.123 7.29 3.55 13.42
12/29/2021 6:45:00 AM 2.65 36.77 0.123 7.29 3.6 13.42
12/29/2021 7:00:00 AM 2.64 36.752 0.123 7.29 3.34 13.43
12/29/2021 7:15:00 AM 2.64 36.752 0.123 7.29 3.22 13.43
12/29/2021 7:30:00 AM 2.64 36.752 0.122 7.29 3.35 13.44
12/29/2021 7:45:00 AM 2.64 36.752 0.123 7.29 3.81 13.44
12/29/2021 8:00:00 AM 2.64 36.752 0.122 7.29 3.14 13.45
12/29/2021 8:15:00 AM 2.64 36.752 0.124 7.29 3.15 13.47
12/29/2021 8:30:00 AM 2.65 36.77 0.124 7.3 3.07 13.49
12/29/2021 8:45:00 AM 2.66 36.788 0.124 7.31 3.26 13.53
12/29/2021 9:00:00 AM 2.67 36.806 0.125 7.32 3.03 13.56
12/29/2021 9:15:00 AM 2.69 36.842 0.124 7.34 3.39 13.6
12/29/2021 9:30:00 AM 2.71 36.878 0.126 7.35 3.24 13.65
12/29/2021 9:45:00 AM 2.74 36.932 0.126 7.37 3.47 13.7
12/29/2021 10:00:00 AM 2.78 37.004 0.126 7.39 3.3 13.75
12/29/2021 10:15:00 AM 2.82 37.076 0.126 7.41 8.38 13.8
12/29/2021 10:30:00 AM 2.86 37.148 0.126 7.44 3.69 13.85
12/29/2021 10:45:00 AM 2.92 37.256 0.126 7.46 3.16 13.9
12/29/2021 11:00:00 AM 2.97 37.346 0.126 7.49 3.31 13.93
12/29/2021 11:15:00 AM 3.04 37.472 0.125 7.52 3.35 13.96
12/29/2021 11:30:00 AM 3.12 37.616 0.125 7.55 3.71 14
12/29/2021 11:45:00 AM 3.2 37.76 0.123 7.59 3.52 14.01
12/29/2021 12:00:00 PM 3.27 37.886 0.123 7.61 3.43 14.03
12/29/2021 12:15:00 PM 3.33 37.994 0.124 7.64 3.48 14.03
12/29/2021 12:30:00 PM 3.38 38.084 0.123 7.66 3.25 14.02
12/29/2021 12:45:00 PM 3.43 38.174 0.122 7.67 3.3 14
12/29/2021 1:00:00 PM 3.46 38.228 0.122 7.68 3.74 13.98
12/29/2021 1:15:00 PM 3.49 38.282 0.122 7.68 3.56 13.95
12/29/2021 1:30:00 PM 3.51 38.318 0.122 7.68 3.61 13.92
12/29/2021 1:45:00 PM 3.55 38.39 0.121 7.68 3.51 13.89
12/29/2021 2:00:00 PM 3.59 38.462 0.122 7.69 3.59 13.88
12/29/2021 2:15:00 PM 3.64 38.552 0.121 7.69 3.71 13.87
12/29/2021 2:30:00 PM 3.7 38.66 0.121 7.7 3.48 13.85
12/29/2021 2:45:00 PM 3.74 38.732 0.121 7.7 3.32 13.83
12/29/2021 3:00:00 PM 3.77 38.786 0.12 7.7 3.31 13.8
12/29/2021 3:15:00 PM 3.8 38.84 0.121 7.69 3.46 13.76
12/29/2021 3:30:00 PM 3.82 38.876 0.121 7.68 3.21 13.74
12/29/2021 3:45:00 PM 3.83 38.894 0.122 7.66 3.37 13.67
12/29/2021 4:00:00 PM 3.84 38.912 0.121 7.63 3.86 13.6
12/29/2021 4:15:00 PM 3.84 38.912 0.121 7.6 3.39 13.52
12/29/2021 4:30:00 PM 3.84 38.912 0.121 7.56 4.07 13.45
12/29/2021 4:45:00 PM 3.84 38.912 0.121 7.52 3.1 13.38
12/29/2021 5:00:00 PM 3.84 38.912 0.121 7.49 3.2 13.31
12/29/2021 5:15:00 PM 3.84 38.912 0.122 7.46 3.3 13.27
12/29/2021 5:30:00 PM 3.84 38.912 0.121 7.44 3.53 13.23
12/29/2021 5:45:00 PM 3.84 38.912 0.121 7.42 3.53 13.2
12/29/2021 6:00:00 PM 3.84 38.912 0.121 7.4 3.22 13.18
12/29/2021 6:15:00 PM 3.84 38.912 0.12 7.39 3.16 13.15
12/29/2021 6:30:00 PM 3.85 38.93 0.12 7.37 3.14 13.13
12/29/2021 6:45:00 PM 3.86 38.948 0.121 7.37 3.3 13.12
12/29/2021 7:00:00 PM 3.86 38.948 0.12 7.36 4.39 13.11
12/29/2021 7:15:00 PM 3.87 38.966 0.12 7.35 3.04 13.09
12/29/2021 7:30:00 PM 3.88 38.984 0.12 7.34 2.99 13.08
12/29/2021 7:45:00 PM 3.89 39.002 0.12 7.33 3.35 13.07
12/29/2021 8:00:00 PM 3.9 39.02 0.12 7.33 3.26 13.07
12/29/2021 8:15:00 PM 3.91 39.038 0.12 7.32 3.3 13.07
12/29/2021 8:30:00 PM 3.92 39.056 0.121 7.32 3.17 13.06
12/29/2021 8:45:00 PM 3.93 39.074 0.119 7.31 3.05 13.06
12/29/2021 9:00:00 PM 3.93 39.074 0.12 7.31 3.44 13.05
12/29/2021 9:15:00 PM 3.94 39.092 0.12 7.31 2.97 13.03
12/29/2021 9:30:00 PM 3.95 39.11 0.119 7.31 3.11 13.03
12/29/2021 9:45:00 PM 3.95 39.11 0.12 7.3 3.13 13.02
12/29/2021 10:00:00 PM 3.96 39.128 0.119 7.3 3.18 13.02
12/29/2021 10:15:00 PM 3.96 39.128 0.12 7.3 3.03 13.02
12/29/2021 10:30:00 PM 3.97 39.146 0.12 7.3 2.98 13.02
12/29/2021 10:45:00 PM 3.98 39.164 0.119 7.29 3.44 13.01
12/29/2021 11:00:00 PM 3.98 39.164 0.12 7.29 3 13
12/29/2021 11:15:00 PM 3.99 39.182 0.12 7.29 2.97 13
12/29/2021 11:30:00 PM 3.99 39.182 0.119 7.29 3.41 13
12/29/2021 11:45:00 PM 3.99 39.182 0.12 7.29 3.52 13
12/30/2021 12:00:00 AM 4 39.2 0.12 7.29 3.26 12.99
12/30/2021 12:15:00 AM 4 39.2 0.119 7.28 4.4 12.99
12/30/2021 12:30:00 AM 4 39.2 0.12 7.28 3.26 12.98
12/30/2021 12:45:00 AM 3.99 39.182 0.12 7.28 3.01 12.99
12/30/2021 1:00:00 AM 3.99 39.182 0.12 7.28 3.3 12.98
12/30/2021 1:15:00 AM 3.99 39.182 0.12 7.28 3.28 12.98
12/30/2021 1:30:00 AM 3.99 39.182 0.12 7.28 3.4 12.98
12/30/2021 1:45:00 AM 3.99 39.182 0.122 7.28 3.13 12.98
12/30/2021 2:00:00 AM 3.98 39.164 0.12 7.28 2.86 12.98
12/30/2021 2:15:00 AM 3.98 39.164 0.121 7.27 3.55 12.97
12/30/2021 2:30:00 AM 3.98 39.164 0.122 7.27 3.5 12.98
12/30/2021 2:45:00 AM 3.97 39.146 0.122 7.27 3.17 12.98
12/30/2021 3:00:00 AM 3.97 39.146 0.122 7.28 3.46 12.98
12/30/2021 3:15:00 AM 3.97 39.146 0.123 7.27 4.83 12.98
12/30/2021 3:30:00 AM 3.96 39.128 0.123 7.27 3.3 12.98
12/30/2021 3:45:00 AM 3.96 39.128 0.123 7.27 3.13 12.98
12/30/2021 4:00:00 AM 3.95 39.11 0.125 7.27 3.25 12.98
12/30/2021 4:15:00 AM 3.95 39.11 0.124 7.27 3.19 12.98
12/30/2021 4:30:00 AM 3.94 39.092 0.125 7.27 3.64 12.98
12/30/2021 4:45:00 AM 3.94 39.092 0.126 7.26 2.83 12.99
12/30/2021 5:00:00 AM 3.93 39.074 0.125 7.27 3.57 12.99
12/30/2021 5:15:00 AM 3.93 39.074 0.126 7.26 2.77 12.99
12/30/2021 5:30:00 AM 3.93 39.074 0.126 7.26 3.24 12.99
12/30/2021 5:45:00 AM 3.92 39.056 0.126 7.26 3.23 13
12/30/2021 6:00:00 AM 3.92 39.056 0.127 7.26 3.74 12.99
12/30/2021 6:15:00 AM 3.92 39.056 0.126 7.26 3.68 12.99
12/30/2021 6:30:00 AM 3.91 39.038 0.126 7.26 3.24 13
12/30/2021 6:45:00 AM 3.91 39.038 0.126 7.26 3.17 13
12/30/2021 7:00:00 AM 3.91 39.038 0.127 7.26 3.11 13
12/30/2021 7:15:00 AM 3.9 39.02 0.126 7.26 3.11 13.01
12/30/2021 7:30:00 AM 3.9 39.02 0.126 7.26 3.39 13.01
12/30/2021 7:45:00 AM 3.9 39.02 0.125 7.26 3.21 13.01
12/30/2021 8:00:00 AM 3.9 39.02 0.125 7.26 3.27 13.02
12/30/2021 8:15:00 AM 3.91 39.038 0.127 7.26 3.3 13.03
12/30/2021 8:30:00 AM 3.91 39.038 0.125 7.27 3.4 13.05
12/30/2021 8:45:00 AM 3.91 39.038 0.125 7.27 3.21 13.07
12/30/2021 9:00:00 AM 3.92 39.056 0.125 7.28 3.37 13.11
12/30/2021 9:15:00 AM 3.94 39.092 0.124 7.3 3.42 13.16
12/30/2021 9:30:00 AM 3.95 39.11 0.124 7.31 3.75 13.19
12/30/2021 9:45:00 AM 3.97 39.146 0.125 7.32 3.24 13.21
12/30/2021 10:00:00 AM 3.98 39.164 0.123 7.33 3.36 13.25
12/30/2021 10:15:00 AM 4.01 39.218 0.123 7.35 3.06 13.28
12/30/2021 10:30:00 AM 4.04 39.272 0.123 7.37 2.89 13.34
12/30/2021 10:45:00 AM 4.09 39.362 0.123 7.4 4.13 13.41
12/30/2021 11:00:00 AM 4.13 39.434 0.123 7.42 3.51 13.45
12/30/2021 11:15:00 AM 4.18 39.524 0.124 7.45 3.09 13.48
12/30/2021 11:30:00 AM 4.22 39.596 0.123 7.47 3.17 13.5
12/30/2021 11:45:00 AM 4.26 39.668 0.122 7.49 3.62 13.52
12/30/2021 12:00:00 PM 4.3 39.74 0.123 7.51 3.07 13.53
12/30/2021 12:15:00 PM 4.33 39.794 0.122 7.52 3.13 13.51
12/30/2021 12:30:00 PM 4.34 39.812 0.122 7.52 3.23 13.47
12/30/2021 12:45:00 PM 4.35 39.83 0.122 7.52 3.14 13.44
12/30/2021 1:00:00 PM 4.37 39.866 0.122 7.52 3.14 13.44
12/30/2021 1:15:00 PM 4.39 39.902 0.122 7.52 3.19 13.42
12/30/2021 1:30:00 PM 4.43 39.974 0.122 7.52 3.58 13.43
12/30/2021 1:45:00 PM 4.46 40.028 0.12 7.54 2.98 13.42
12/30/2021 2:00:00 PM 4.49 40.082 0.122 7.54 3.38 13.38
12/30/2021 2:15:00 PM 4.51 40.118 0.122 7.53 3.26 13.34
12/30/2021 2:30:00 PM 4.53 40.154 0.122 7.53 3.01 13.32
12/30/2021 2:45:00 PM 4.56 40.208 0.121 7.53 3.07 13.32
12/30/2021 3:00:00 PM 4.57 40.226 0.12 7.52 2.69 13.27
12/30/2021 3:15:00 PM 4.6 40.28 0.12 7.51 3.06 13.23
12/30/2021 3:30:00 PM 4.61 40.298 0.121 7.5 3.02 13.17
12/30/2021 3:45:00 PM 4.64 40.352 0.12 7.48 3.08 13.13
12/30/2021 4:00:00 PM 4.65 40.37 0.121 7.46 3.12 13.09
12/30/2021 4:15:00 PM 4.66 40.388 0.12 7.45 3.55 13.03
12/30/2021 4:30:00 PM 4.67 40.406 0.12 7.43 3.18 12.98
12/30/2021 4:45:00 PM 4.68 40.424 0.12 7.41 3.65 12.94
12/30/2021 5:00:00 PM 4.68 40.424 0.121 7.39 3.61 12.9
12/30/2021 5:15:00 PM 4.69 40.442 0.12 7.37 3.41 12.87
12/30/2021 5:30:00 PM 4.7 40.46 0.12 7.36 3.41 12.84
12/30/2021 5:45:00 PM 4.7 40.46 0.12 7.35 3.3 12.82
12/30/2021 6:00:00 PM 4.7 40.46 0.12 7.34 3.2 12.8
12/30/2021 6:15:00 PM 4.71 40.478 0.121 7.33 3.25 12.79
12/30/2021 6:30:00 PM 4.71 40.478 0.12 7.32 3.62 12.78
12/30/2021 6:45:00 PM 4.71 40.478 0.12 7.31 3.09 12.77
12/30/2021 7:00:00 PM 4.71 40.478 0.12 7.31 3.37 12.76
12/30/2021 7:15:00 PM 4.71 40.478 0.12 7.3 3.21 12.76
12/30/2021 7:30:00 PM 4.71 40.478 0.121 7.3 3.53 12.75
12/30/2021 7:45:00 PM 4.71 40.478 0.12 7.29 3.36 12.75
12/30/2021 8:00:00 PM 4.71 40.478 0.12 7.28 3.28 12.74
12/30/2021 8:15:00 PM 4.71 40.478 0.12 7.28 3.32 12.74
12/30/2021 8:30:00 PM 4.72 40.496 0.12 7.28 3.6 12.74
12/30/2021 8:45:00 PM 4.7 40.46 0.12 7.28 3.08 12.73
12/30/2021 9:00:00 PM 4.68 40.424 0.119 7.28 3.37 12.73
12/30/2021 9:15:00 PM 4.68 40.424 0.12 7.27 3.08 12.73
12/30/2021 9:30:00 PM 4.69 40.442 0.121 7.27 3.02 12.73
12/30/2021 9:45:00 PM 4.7 40.46 0.12 7.27 3 12.73
12/30/2021 10:00:00 PM 4.7 40.46 0.12 7.27 2.94 12.73
12/30/2021 10:15:00 PM 4.71 40.478 0.119 7.27 3.12 12.73
12/30/2021 10:30:00 PM 4.69 40.442 0.12 7.27 4.34 12.72
12/30/2021 10:45:00 PM 4.68 40.424 0.12 7.27 3.25 12.73
12/30/2021 11:00:00 PM 4.66 40.388 0.12 7.26 3.13 12.73
12/30/2021 11:15:00 PM 4.64 40.352 0.12 7.26 3.32 12.73
12/30/2021 11:30:00 PM 4.63 40.334 0.121 7.26 3.25 12.74
12/30/2021 11:45:00 PM 4.62 40.316 0.12 7.26 3.26 12.74
12/31/2021 12:00:00 AM 4.62 40.316 0.121 7.26 3.35 12.74
12/31/2021 12:15:00 AM 4.61 40.298 0.12 7.26 3.41 12.74
12/31/2021 12:30:00 AM 4.6 40.28 0.121 7.26 3.22 12.74
12/31/2021 12:45:00 AM 4.59 40.262 0.12 7.26 3.25 12.75
12/31/2021 1:00:00 AM 4.58 40.244 0.121 7.25 3.6 12.75
12/31/2021 1:15:00 AM 4.57 40.226 0.12 7.26 3.56 12.76
12/31/2021 1:30:00 AM 4.56 40.208 0.12 7.26 3.1 12.77
12/31/2021 1:45:00 AM 4.55 40.19 0.121 7.26 3.5 12.76
12/31/2021 2:00:00 AM 4.55 40.19 0.122 7.26 3.14 12.77
12/31/2021 2:15:00 AM 4.53 40.154 0.121 7.26 3.38 12.78
12/31/2021 2:30:00 AM 4.52 40.136 0.12 7.26 3.56 12.78
12/31/2021 2:45:00 AM 4.51 40.118 0.121 7.26 3.25 12.78
12/31/2021 3:00:00 AM 4.49 40.082 0.121 7.25 3.11 12.79
12/31/2021 3:15:00 AM 4.48 40.064 0.121 7.25 3.31 12.79
12/31/2021 3:30:00 AM 4.47 40.046 0.12 7.25 3.38 12.79
12/31/2021 3:45:00 AM 4.46 40.028 0.121 7.25 3.13 12.79
12/31/2021 4:00:00 AM 4.44 39.992 0.121 7.25 3.28 12.8
12/31/2021 4:15:00 AM 4.43 39.974 0.121 7.25 3.16 12.8
12/31/2021 4:30:00 AM 4.42 39.956 0.121 7.25 3.18 12.8
12/31/2021 4:45:00 AM 4.41 39.938 0.121 7.25 3.63 12.81
12/31/2021 5:00:00 AM 4.41 39.938 0.122 7.25 3.05 12.81
12/31/2021 5:15:00 AM 4.41 39.938 0.121 7.25 3.17 12.81
12/31/2021 5:30:00 AM 4.41 39.938 0.121 7.25 3.88 12.82
12/31/2021 5:45:00 AM 4.41 39.938 0.121 7.25 3.07 12.81
12/31/2021 6:00:00 AM 4.4 39.92 0.12 7.25 3.34 12.81
12/31/2021 6:15:00 AM 4.4 39.92 0.121 7.25 3.01 12.82
12/31/2021 6:30:00 AM 4.39 39.902 0.121 7.25 3.39 12.82
12/31/2021 6:45:00 AM 4.39 39.902 0.12 7.25 3.12 12.82
12/31/2021 7:00:00 AM 4.39 39.902 0.121 7.25 3.02 12.83
12/31/2021 7:15:00 AM 4.39 39.902 0.121 7.25 3.44 12.83
12/31/2021 7:30:00 AM 4.39 39.902 0.119 7.25 3.32 12.83
12/31/2021 7:45:00 AM 4.38 39.884 0.12 7.25 3.04 12.83
12/31/2021 8:00:00 AM 4.38 39.884 0.121 7.26 3.26 12.86
12/31/2021 8:15:00 AM 4.38 39.884 0.12 7.26 3.28 12.88
12/31/2021 8:30:00 AM 4.4 39.92 0.12 7.27 3.24 12.94
12/31/2021 8:45:00 AM 4.41 39.938 0.121 7.29 3.39 12.98
12/31/2021 9:00:00 AM 4.44 39.992 0.12 7.3 3.15 13.03
12/31/2021 9:15:00 AM 4.48 40.064 0.121 7.34 3.39 13.11
12/31/2021 9:30:00 AM 4.53 40.154 0.12 7.36 3.21 13.17
12/31/2021 9:45:00 AM 4.56 40.208 0.119 7.39 3.22 13.21
12/31/2021 10:00:00 AM 4.63 40.334 0.12 7.42 3.18 13.27
12/31/2021 10:15:00 AM 4.67 40.406 0.12 7.45 3.2 13.27
12/31/2021 10:30:00 AM 4.73 40.514 0.12 7.47 3.2 13.33
12/31/2021 10:45:00 AM 4.77 40.586 0.12 7.49 3.25 13.31
12/31/2021 11:00:00 AM 4.8 40.64 0.12 7.51 3.12 13.32
12/31/2021 11:15:00 AM 4.87 40.766 0.12 7.52 3.24 13.31
12/31/2021 11:30:00 AM 4.96 40.928 0.12 7.55 3.63 13.37
12/31/2021 11:45:00 AM 5.05 41.09 0.12 7.58 3.41 13.38
12/31/2021 12:00:00 PM 5.13 41.234 0.119 7.61 2.79 13.39
12/31/2021 12:15:00 PM 5.27 41.486 0.119 7.65 3.19 13.39
12/31/2021 12:30:00 PM 5.38 41.684 0.118 7.68 3.14 13.39
12/31/2021 12:45:00 PM 5.49 41.882 0.119 7.7 3.15 13.34
12/31/2021 1:00:00 PM 5.53 41.954 0.118 7.71 3.32 13.29
12/31/2021 1:15:00 PM 5.57 42.026 0.119 7.71 3.21 13.26
12/31/2021 1:30:00 PM 5.6 42.08 0.12 7.71 3.24 13.25
12/31/2021 1:45:00 PM 5.63 42.134 0.118 7.72 2.93 13.23
12/31/2021 2:00:00 PM 5.66 42.188 0.119 7.71 3.2 13.18
12/31/2021 2:15:00 PM 5.69 42.242 0.119 7.71 3.18 13.15
12/31/2021 2:30:00 PM 5.72 42.296 0.119 7.72 3.18 13.13
12/31/2021 2:45:00 PM 5.73 42.314 0.119 7.71 3.03 13.12
12/31/2021 3:00:00 PM 5.75 42.35 0.119 7.72 3.38 13.12
12/31/2021 3:15:00 PM 5.76 42.368 0.118 7.72 2.99 13.09
12/31/2021 3:30:00 PM 5.78 42.404 0.119 7.7 3.1 13.03
12/31/2021 3:45:00 PM 5.77 42.386 0.118 7.67 3.27 12.97
12/31/2021 4:00:00 PM 5.78 42.404 0.119 7.64 3.2 12.92
12/31/2021 4:15:00 PM 5.78 42.404 0.118 7.6 2.89 12.84
12/31/2021 4:30:00 PM 5.79 42.422 0.119 7.57 3.12 12.76
12/31/2021 4:45:00 PM 5.79 42.422 0.12 7.53 3.28 12.68
12/31/2021 5:00:00 PM 5.78 42.404 0.12 7.49 3.46 12.62
12/31/2021 5:15:00 PM 5.78 42.404 0.119 7.46 3.15 12.57
12/31/2021 5:30:00 PM 5.78 42.404 0.12 7.43 3.39 12.52
12/31/2021 5:45:00 PM 5.78 42.404 0.12 7.41 3.4 12.48
12/31/2021 6:00:00 PM 5.78 42.404 0.12 7.4 3.31 12.47
12/31/2021 6:15:00 PM 5.77 42.386 0.119 7.38 3.17 12.44
12/31/2021 6:30:00 PM 5.77 42.386 0.119 7.37 3.68 12.43
12/31/2021 6:45:00 PM 5.76 42.368 0.12 7.35 3.24 12.41
12/31/2021 7:00:00 PM 5.76 42.368 0.12 7.34 2.91 12.41
12/31/2021 7:15:00 PM 5.76 42.368 0.119 7.34 3.01 12.4
12/31/2021 7:30:00 PM 5.75 42.35 0.12 7.33 3.1 12.39
12/31/2021 7:45:00 PM 5.75 42.35 0.12 7.32 3.2 12.38
12/31/2021 8:00:00 PM 5.74 42.332 0.12 7.32 3.28 12.38
12/31/2021 8:15:00 PM 5.73 42.314 0.12 7.31 3.15 12.39
12/31/2021 8:30:00 PM 5.72 42.296 0.12 7.31 2.87 12.37
12/31/2021 8:45:00 PM 5.71 42.278 0.12 7.3 3.34 12.38
12/31/2021 9:00:00 PM 5.71 42.278 0.119 7.3 3.22 12.37
12/31/2021 9:15:00 PM 5.72 42.296 0.121 7.3 3.25 12.37
12/31/2021 9:30:00 PM 5.72 42.296 0.12 7.3 3.07 12.37
12/31/2021 9:45:00 PM 5.73 42.314 0.12 7.3 3.31 12.37
12/31/2021 10:00:00 PM 5.74 42.332 0.121 7.3 3.62 12.36
12/31/2021 10:15:00 PM 5.74 42.332 0.121 7.3 3 12.36
12/31/2021 10:30:00 PM 5.75 42.35 0.119 7.3 3.27 12.37
12/31/2021 10:45:00 PM 5.75 42.35 0.12 7.3 3.24 12.35
12/31/2021 11:00:00 PM 5.76 42.368 0.12 7.3 3.21 12.36
12/31/2021 11:15:00 PM 5.76 42.368 0.121 7.29 3.24 12.34
12/31/2021 11:30:00 PM 5.76 42.368 0.121 7.29 2.81 12.34
12/31/2021 11:45:00 PM 5.76 42.368 0.12 7.29 2.85 12.35
1/1/2022 12:00:00 AM 5.76 42.368 0.12 7.28 2.85 12.35
1/1/2022 12:15:00 AM 5.77 42.386 0.12 7.28 3.06 12.33
1/1/2022 12:30:00 AM 5.77 42.386 0.122 7.28 3.11 12.34
1/1/2022 12:45:00 AM 5.77 42.386 0.121 7.28 2.79 12.32
1/1/2022 1:00:00 AM 5.77 42.386 0.12 7.28 2.92 12.32
1/1/2022 1:15:00 AM 5.77 42.386 0.121 7.28 3.14 12.32
1/1/2022 1:30:00 AM 5.77 42.386 0.12 7.28 3.19 12.32
1/1/2022 1:45:00 AM 5.77 42.386 0.123 7.28 3.65 12.33
1/1/2022 2:00:00 AM 5.77 42.386 0.121 7.28 2.95 12.31
1/1/2022 2:15:00 AM 5.77 42.386 0.122 7.28 2.86 12.32
1/1/2022 2:30:00 AM 5.77 42.386 0.123 7.29 2.87 12.32
1/1/2022 2:45:00 AM 5.77 42.386 0.122 7.29 3.21 12.31
1/1/2022 3:00:00 AM 5.77 42.386 0.122 7.29 3.41 12.32
1/1/2022 3:15:00 AM 5.78 42.404 0.122 7.29 3.46 12.32
1/1/2022 3:30:00 AM 5.78 42.404 0.122 7.29 2.9 12.32
1/1/2022 3:45:00 AM 5.78 42.404 0.122 7.29 3 12.31
1/1/2022 4:00:00 AM 5.79 42.422 0.122 7.29 3.28 12.3
1/1/2022 4:15:00 AM 5.8 42.44 0.122 7.29 3.66 12.3
1/1/2022 4:30:00 AM 5.8 42.44 0.122 7.29 3.18 12.31
1/1/2022 4:45:00 AM 5.8 42.44 0.123 7.29 3.2 12.3
1/1/2022 5:00:00 AM 5.82 42.476 0.122 7.29 3.45 12.3
1/1/2022 5:15:00 AM 5.82 42.476 0.121 7.29 2.96 12.29
1/1/2022 5:30:00 AM 5.83 42.494 0.122 7.29 3.79 12.29
1/1/2022 5:45:00 AM 5.83 42.494 0.122 7.29 4.05 12.28
1/1/2022 6:00:00 AM 5.83 42.494 0.123 7.29 3.07 12.29
1/1/2022 6:15:00 AM 5.82 42.476 0.122 7.29 3.07 12.29
1/1/2022 6:30:00 AM 5.82 42.476 0.122 7.29 3.32 12.29
1/1/2022 6:45:00 AM 5.82 42.476 0.123 7.29 3.15 12.28
1/1/2022 7:00:00 AM 5.82 42.476 0.123 7.29 3.21 12.28
1/1/2022 7:15:00 AM 5.82 42.476 0.122 7.29 2.98 12.29
1/1/2022 7:30:00 AM 5.82 42.476 0.121 7.29 3.5 12.29
1/1/2022 7:45:00 AM 5.83 42.494 0.122 7.29 3.48 12.3
1/1/2022 8:00:00 AM 5.83 42.494 0.122 7.29 3.7 12.3
1/1/2022 8:15:00 AM 5.83 42.494 0.123 7.3 3.57 12.34
1/1/2022 8:30:00 AM 5.85 42.53 0.122 7.31 3.02 12.36
1/1/2022 8:45:00 AM 5.86 42.548 0.122 7.32 3.06 12.4
1/1/2022 9:00:00 AM 5.88 42.584 0.123 7.33 2.93 12.42
1/1/2022 9:15:00 AM 5.9 42.62 0.121 7.35 2.85 12.46
1/1/2022 9:30:00 AM 5.93 42.674 0.121 7.36 3 12.48
1/1/2022 9:45:00 AM 5.95 42.71 0.122 7.37 3.01 12.52
1/1/2022 10:00:00 AM 5.98 42.764 0.121 7.39 3.03 12.56
1/1/2022 10:15:00 AM 6.01 42.818 0.122 7.42 2.95 12.61
1/1/2022 10:30:00 AM 6.06 42.908 0.121 7.44 3.16 12.67
1/1/2022 10:45:00 AM 6.1 42.98 0.12 7.47 2.96 12.71
1/1/2022 11:00:00 AM 6.14 43.052 0.121 7.49 3.03 12.73
1/1/2022 11:15:00 AM 6.18 43.124 0.121 7.51 2.77 12.72
1/1/2022 11:30:00 AM 6.21 43.178 0.122 7.52 3.33 12.74
1/1/2022 11:45:00 AM 6.24 43.232 0.121 7.54 2.97 12.74
1/1/2022 12:00:00 PM 6.28 43.304 0.12 7.56 10.68 12.76
1/1/2022 12:15:00 PM 6.31 43.358 0.121 7.57 7.88 12.77
1/1/2022 12:30:00 PM 6.35 43.43 0.121 7.59 2.77 12.76
1/1/2022 12:45:00 PM 6.37 43.466 0.121 7.59 2.82 12.74
1/1/2022 1:00:00 PM 6.4 43.52 0.12 7.6 3.38 12.73
1/1/2022 1:15:00 PM 6.44 43.592 0.121 7.62 3.18 12.75
1/1/2022 1:30:00 PM 6.48 43.664 0.119 7.63 2.93 12.76
1/1/2022 1:45:00 PM 6.53 43.754 0.119 7.65 3.11 12.77
1/1/2022 2:00:00 PM 6.58 43.844 0.12 7.67 8.17 12.77
1/1/2022 2:15:00 PM 6.63 43.934 0.12 7.69 3.29 12.76
1/1/2022 2:30:00 PM 6.66 43.988 0.119 7.69 7.76 12.72
1/1/2022 2:45:00 PM 6.68 44.024 0.12 7.68 3.48 12.69
1/1/2022 3:00:00 PM 6.7 44.06 0.119 7.66 3.05 12.62
1/1/2022 3:15:00 PM 6.69 44.042 0.119 7.63 7.55 12.54
1/1/2022 3:30:00 PM 6.69 44.042 0.119 7.59 2.86 12.48
1/1/2022 3:45:00 PM 6.69 44.042 0.118 7.56 4.48 12.42
1/1/2022 4:00:00 PM 6.7 44.06 0.119 7.53 7.68 12.35
1/1/2022 4:15:00 PM 6.71 44.078 0.12 7.5 10.26 12.29
1/1/2022 4:30:00 PM 6.71 44.078 0.12 7.47 2.95 12.24
1/1/2022 4:45:00 PM 6.71 44.078 0.12 7.44 3.04 12.19
1/1/2022 5:00:00 PM 6.71 44.078 0.119 7.41 3.71 12.15
1/1/2022 5:15:00 PM 6.71 44.078 0.12 7.4 8.01 12.11
1/1/2022 5:30:00 PM 6.71 44.078 0.12 7.37 3.3 12.08
1/1/2022 5:45:00 PM 6.7 44.06 0.12 7.36 2.93 12.06
1/1/2022 6:00:00 PM 6.7 44.06 0.121 7.35 2.99 12.04
1/1/2022 6:15:00 PM 6.7 44.06 0.119 7.34 3.08 12.03
1/1/2022 6:30:00 PM 6.7 44.06 0.119 7.33 3.31 12.01
1/1/2022 6:45:00 PM 6.7 44.06 0.12 7.32 3.42 12.01
1/1/2022 7:00:00 PM 6.7 44.06 0.12 7.31 8.49 12
1/1/2022 7:15:00 PM 6.7 44.06 0.119 7.3 8.04 11.99
1/1/2022 7:30:00 PM 6.71 44.078 0.12 7.29 3.5 11.99
1/1/2022 7:45:00 PM 6.71 44.078 0.12 7.28 3.09 11.99
1/1/2022 8:00:00 PM 6.71 44.078 0.119 7.28 2.98 11.98
1/1/2022 8:15:00 PM 6.71 44.078 0.119 7.27 3.44 11.98
1/1/2022 8:30:00 PM 6.72 44.096 0.119 7.27 3.27 11.97
1/1/2022 8:45:00 PM 6.72 44.096 0.118 7.26 7.88 11.96
1/1/2022 9:00:00 PM 6.72 44.096 0.118 7.26 4.08 11.96
1/1/2022 9:15:00 PM 6.73 44.114 0.118 7.25 3.35 11.95
1/1/2022 9:30:00 PM 6.73 44.114 0.119 7.25 3.4 11.95
1/1/2022 9:45:00 PM 6.74 44.132 0.119 7.24 3.3 11.94
1/1/2022 10:00:00 PM 6.74 44.132 0.119 7.24 3.42 11.92
1/1/2022 10:15:00 PM 6.74 44.132 0.118 7.25 3.19 11.91
1/1/2022 10:30:00 PM 6.76 44.168 0.119 7.26 3.11 11.91
1/1/2022 10:45:00 PM 6.79 44.222 0.12 7.27 3.02 11.9
1/1/2022 11:00:00 PM 6.8 44.24 0.119 7.27 2.97 11.9
1/1/2022 11:15:00 PM 6.81 44.258 0.12 7.28 3.42 11.9
1/1/2022 11:30:00 PM 6.81 44.258 0.119 7.28 3.49 11.88
1/1/2022 11:45:00 PM 6.82 44.276 0.12 7.28 3.78 11.88
1/2/2022 12:00:00 AM 6.82 44.276 0.12 7.28 3.63 11.88
1/2/2022 12:15:00 AM 6.83 44.294 0.12 7.28 3.16 11.89
1/2/2022 12:30:00 AM 6.84 44.312 0.119 7.29 4.04 11.88
1/2/2022 12:45:00 AM 6.84 44.312 0.121 7.29 3.22 11.88
1/2/2022 1:00:00 AM 6.85 44.33 0.12 7.29 3.19 11.87
1/2/2022 1:15:00 AM 6.85 44.33 0.121 7.29 3.6 11.88
1/2/2022 1:30:00 AM 6.86 44.348 0.121 7.29 3.09 11.88
1/2/2022 1:45:00 AM 6.85 44.33 0.12 7.29 3.5 11.88
1/2/2022 2:00:00 AM 6.84 44.312 0.121 7.29 3.46 11.88
1/2/2022 2:15:00 AM 6.82 44.276 0.122 7.29 3.09 11.89
1/2/2022 2:30:00 AM 6.81 44.258 0.121 7.29 3.32 11.88
1/2/2022 2:45:00 AM 6.79 44.222 0.121 7.3 3.3 11.88
1/2/2022 3:00:00 AM 6.77 44.186 0.121 7.3 3.84 11.89
1/2/2022 3:15:00 AM 6.75 44.15 0.121 7.3 3.7 11.9
1/2/2022 3:30:00 AM 6.73 44.114 0.121 7.3 3.26 11.9
1/2/2022 3:45:00 AM 6.71 44.078 0.121 7.3 4.2 11.91
1/2/2022 4:00:00 AM 6.69 44.042 0.121 7.29 3.78 11.92
1/2/2022 4:15:00 AM 6.67 44.006 0.122 7.3 3.95 11.93
1/2/2022 4:30:00 AM 6.64 43.952 0.121 7.3 3.46 11.93
1/2/2022 4:45:00 AM 6.62 43.916 0.122 7.29 3.74 11.93
1/2/2022 5:00:00 AM 6.6 43.88 0.121 7.29 3.52 11.94
1/2/2022 5:15:00 AM 6.57 43.826 0.121 7.29 3.47 11.95
1/2/2022 5:30:00 AM 6.54 43.772 0.121 7.3 3.19 11.96
1/2/2022 5:45:00 AM 6.51 43.718 0.122 7.3 3.25 11.97
1/2/2022 6:00:00 AM 6.48 43.664 0.123 7.29 3.57 11.98
1/2/2022 6:15:00 AM 6.45 43.61 0.122 7.29 3.64 11.99
1/2/2022 6:30:00 AM 6.42 43.556 0.122 7.29 3.23 11.99
1/2/2022 6:45:00 AM 6.39 43.502 0.122 7.29 3.85 12
1/2/2022 7:00:00 AM 6.36 43.448 0.123 7.29 3.72 12.02
1/2/2022 7:15:00 AM 6.33 43.394 0.122 7.29 3.48 12.03
1/2/2022 7:30:00 AM 6.31 43.358 0.123 7.29 4 12.04
1/2/2022 7:45:00 AM 6.28 43.304 0.122 7.3 3.26 12.06
1/2/2022 8:00:00 AM 6.25 43.25 0.122 7.3 3.75 12.07
1/2/2022 8:15:00 AM 6.22 43.196 0.122 7.3 3.61 12.1
1/2/2022 8:30:00 AM 6.2 43.16 0.122 7.31 4.2 12.13
1/2/2022 8:45:00 AM 6.18 43.124 0.123 7.32 3.62 12.17
1/2/2022 9:00:00 AM 6.15 43.07 0.122 7.33 3.67 12.22
1/2/2022 9:15:00 AM 6.13 43.034 0.122 7.34 3.94 12.27
1/2/2022 9:30:00 AM 6.11 42.998 0.122 7.35 3.76 12.3
1/2/2022 9:45:00 AM 6.09 42.962 0.122 7.36 3.47 12.32
1/2/2022 10:00:00 AM 6.08 42.944 0.122 7.37 3.59 12.37
1/2/2022 10:15:00 AM 6.08 42.944 0.122 7.39 8.86 12.43
1/2/2022 10:30:00 AM 6.09 42.962 0.122 7.41 3.83 12.5
1/2/2022 10:45:00 AM 6.09 42.962 0.121 7.43 4.32 12.55
1/2/2022 11:00:00 AM 6.08 42.944 0.121 7.45 3.63 12.58
1/2/2022 11:15:00 AM 6.08 42.944 0.121 7.46 3.45 12.6
1/2/2022 11:30:00 AM 6.05 42.89 0.122 7.47 4.11 12.59
1/2/2022 11:45:00 AM 6.02 42.836 0.121 7.46 3.78 12.57
1/2/2022 12:00:00 PM 6 42.8 0.121 7.47 4.01 12.6
1/2/2022 12:15:00 PM 5.98 42.764 0.121 7.47 3.81 12.61
1/2/2022 12:30:00 PM 5.98 42.764 0.122 7.48 3.68 12.65
1/2/2022 12:45:00 PM 5.97 42.746 0.121 7.5 4.02 12.67
1/2/2022 1:00:00 PM 5.94 42.692 0.121 7.5 3.79 12.67
1/2/2022 1:15:00 PM 5.92 42.656 0.121 7.5 3.91 12.68
1/2/2022 1:30:00 PM 5.9 42.62 0.121 7.51 3.84 12.69
1/2/2022 1:45:00 PM 5.88 42.584 0.121 7.51 3.81 12.71
1/2/2022 2:00:00 PM 5.86 42.548 0.121 7.51 3.3 12.7
1/2/2022 2:15:00 PM 5.84 42.512 0.122 7.51 3.69 12.71
1/2/2022 2:30:00 PM 5.81 42.458 0.122 7.51 3.44 12.7
1/2/2022 2:45:00 PM 5.78 42.404 0.121 7.5 3.86 12.69
1/2/2022 3:00:00 PM 5.75 42.35 0.121 7.5 4.05 12.68
1/2/2022 3:15:00 PM 5.72 42.296 0.122 7.48 4.24 12.68
1/2/2022 3:30:00 PM 5.68 42.224 0.122 7.47 3.83 12.65
1/2/2022 3:45:00 PM 5.64 42.152 0.122 7.45 3.69 12.62
1/2/2022 4:00:00 PM 5.59 42.062 0.122 7.44 4.17 12.61
1/2/2022 4:15:00 PM 5.54 41.972 0.121 7.43 3.51 12.6
1/2/2022 4:30:00 PM 5.5 41.9 0.122 7.42 3.7 12.59
1/2/2022 4:45:00 PM 5.44 41.792 0.122 7.4 3.17 12.59
1/2/2022 5:00:00 PM 5.39 41.702 0.122 7.38 3.93 12.58
1/2/2022 5:15:00 PM 5.33 41.594 0.122 7.37 3.91 12.58
1/2/2022 5:30:00 PM 5.26 41.468 0.122 7.36 4.28 12.59
1/2/2022 5:45:00 PM 5.21 41.378 0.122 7.34 3.73 12.59
1/2/2022 6:00:00 PM 5.15 41.27 0.121 7.33 3.45 12.6
1/2/2022 6:15:00 PM 5.1 41.18 0.121 7.32 3.6 12.62
1/2/2022 6:30:00 PM 5.05 41.09 0.121 7.31 3.92 12.63
1/2/2022 6:45:00 PM 4.99 40.982 0.121 7.31 3.4 12.64
1/2/2022 7:00:00 PM 4.96 40.928 0.121 7.3 4.06 12.65
1/2/2022 7:15:00 PM 4.92 40.856 0.121 7.3 5.65 12.67
1/2/2022 7:30:00 PM 4.88 40.784 0.121 7.3 3.48 12.68
1/2/2022 7:45:00 PM 4.84 40.712 0.121 7.29 4.53 12.69
1/2/2022 8:00:00 PM 4.81 40.658 0.121 7.29 3.45 12.71
1/2/2022 8:15:00 PM 4.77 40.586 0.121 7.29 3.24 12.72
1/2/2022 8:30:00 PM 4.73 40.514 0.121 7.29 8.61 12.74
1/2/2022 8:45:00 PM 4.7 40.46 0.121 7.29 3.92 12.74
1/2/2022 9:00:00 PM 4.65 40.37 0.121 7.29 4.13 12.76
1/2/2022 9:15:00 PM 4.61 40.298 0.121 7.29 3.94 12.78
1/2/2022 9:30:00 PM 4.57 40.226 0.121 7.28 3.77 12.79
1/2/2022 9:45:00 PM 4.53 40.154 0.121 7.28 3.7 12.81
1/2/2022 10:00:00 PM 4.49 40.082 0.121 7.28 3.67 12.82
1/2/2022 10:15:00 PM 4.45 40.01 0.122 7.28 3.6 12.84
1/2/2022 10:30:00 PM 4.41 39.938 0.121 7.28 3.67 12.85
1/2/2022 10:45:00 PM 4.36 39.848 0.121 7.28 3.84 12.86
1/2/2022 11:00:00 PM 4.3 39.74 0.121 7.28 3.8 12.89
1/2/2022 11:15:00 PM 4.24 39.632 0.121 7.28 3.73 12.89
1/2/2022 11:30:00 PM 4.19 39.542 0.121 7.27 3.63 12.92
1/2/2022 11:45:00 PM 4.14 39.452 0.121 7.27 3.35 12.94
1/3/2022 12:00:00 AM 4.08 39.344 0.122 7.27 3.72 12.95
1/3/2022 12:15:00 AM 4.03 39.254 0.122 7.27 3.75 12.98
1/3/2022 12:30:00 AM 3.97 39.146 0.122 7.27 8.04 13
1/3/2022 12:45:00 AM 3.92 39.056 0.122 7.26 3.66 13.02
1/3/2022 1:00:00 AM 3.87 38.966 0.121 7.26 3.81 13.04
1/3/2022 1:15:00 AM 3.84 38.912 0.122 7.26 4.46 13.05
1/3/2022 1:30:00 AM 3.78 38.804 0.122 7.26 3.38 13.08
1/3/2022 1:45:00 AM 3.74 38.732 0.122 7.26 3.66 13.09
1/3/2022 2:00:00 AM 3.67 38.606 0.122 7.26 7.82 13.12
1/3/2022 2:15:00 AM 3.61 38.498 0.122 7.26 3.84 13.14
1/3/2022 2:30:00 AM 3.56 38.408 0.122 7.26 3.53 13.17
1/3/2022 2:45:00 AM 3.5 38.3 0.122 7.26 3.49 13.19
1/3/2022 3:00:00 AM 3.45 38.21 0.122 7.26 4.11 13.21
1/3/2022 3:15:00 AM 3.41 38.138 0.124 7.25 3.48 13.22
1/3/2022 3:30:00 AM 3.36 38.048 0.122 7.26 4.07 13.24
1/3/2022 3:45:00 AM 3.31 37.958 0.123 7.26 3.56 13.26
1/3/2022 4:00:00 AM 3.26 37.868 0.123 7.25 3.29 13.28
1/3/2022 4:15:00 AM 3.2 37.76 0.122 7.26 3.73 13.31
1/3/2022 4:30:00 AM 3.16 37.688 0.123 7.25 4.62 13.31
1/3/2022 4:45:00 AM 3.12 37.616 0.123 7.26 3.38 13.33
1/3/2022 5:00:00 AM 3.06 37.508 0.123 7.26 4.1 13.35
1/3/2022 5:15:00 AM 3.02 37.436 0.123 7.26 3.6 13.37
1/3/2022 5:30:00 AM 2.98 37.364 0.123 7.26 3.7 13.39
1/3/2022 5:45:00 AM 2.94 37.292 0.123 7.26 3.71 13.41
1/3/2022 6:00:00 AM 2.89 37.202 0.123 7.26 3.08 13.42
1/3/2022 6:15:00 AM 2.85 37.13 0.122 7.26 3.53 13.44
1/3/2022 6:30:00 AM 2.8 37.04 0.123 7.26 3.79 13.45
1/3/2022 6:45:00 AM 2.76 36.968 0.123 7.26 3.45 13.48
1/3/2022 7:00:00 AM 2.71 36.878 0.123 7.26 3.62 13.49
1/3/2022 7:15:00 AM 2.66 36.788 0.123 7.26 3.3 13.5
1/3/2022 7:30:00 AM 2.63 36.734 0.123 7.26 3.73 13.52
1/3/2022 7:45:00 AM 2.6 36.68 0.123 7.26 4.02 13.54
1/3/2022 8:00:00 AM 2.56 36.608 0.123 7.27 3.49 13.56
1/3/2022 8:15:00 AM 2.53 36.554 0.123 7.27 3.12 13.6
1/3/2022 8:30:00 AM 2.5 36.5 0.124 7.28 3.63 13.63
1/3/2022 8:45:00 AM 2.46 36.428 0.123 7.29 3.14 13.68
1/3/2022 9:00:00 AM 2.43 36.374 0.123 7.3 3.57 13.73
1/3/2022 9:15:00 AM 2.41 36.338 0.123 7.31 3.27 13.77
1/3/2022 9:30:00 AM 2.38 36.284 0.123 7.32 3.17 13.82
1/3/2022 9:45:00 AM 2.37 36.266 0.123 7.33 3.43 13.86
1/3/2022 10:00:00 AM 2.35 36.23 0.123 7.35 3.96 13.91
1/3/2022 10:15:00 AM 2.33 36.194 0.124 7.36 3.61 13.95
1/3/2022 10:30:00 AM 2.23 36.014 0.136 7.52 3.89 13.73
1/3/2022 10:45:00 AM 2.22 35.996 0.132 7.55 3.83 13.75
1/3/2022 11:00:00 AM 2.21 35.978 0.062 7.55 3.97 13.79
1/3/2022 11:15:00 AM 2.21 35.978 0.065 7.56 3.88 13.84
1/3/2022 11:30:00 AM 2.2 35.96 0.063 7.58 3.81 13.87
1/3/2022 11:45:00 AM 2.19 35.942 0.068 7.59 4.14 13.9
1/3/2022 12:00:00 PM 2.18 35.924 0.061 7.61 3.79 13.93
1/3/2022 12:15:00 PM 2.18 35.924 0.129 7.63 3.79 13.95
1/3/2022 12:30:00 PM 2.19 35.942 0.13 7.65 3.78 13.97
1/3/2022 12:45:00 PM 2.2 35.96 0.063 7.66 3.89 13.99
1/3/2022 1:00:00 PM 2.2 35.96 0.062 7.68 3.91 14
1/3/2022 1:15:00 PM 2.2 35.96 0.069 7.68 3.77 14.01
1/3/2022 1:30:00 PM 2.19 35.942 0.13 7.69 3.77 14.01
1/3/2022 1:45:00 PM 2.19 35.942 0.061 7.7 3.88 14.02
1/3/2022 2:00:00 PM 2.17 35.906 0.062 7.71 3.83 14.03
1/3/2022 2:15:00 PM 2.15 35.87 0.073 7.72 3.95 14.03
1/3/2022 2:30:00 PM 2.14 35.852 0.061 7.72 3.85 14.04
1/3/2022 2:45:00 PM 2.12 35.816 0.065 7.73 3.82 14.03
1/3/2022 3:00:00 PM 2.1 35.78 0.065 7.73 3.72 14.04
1/3/2022 3:15:00 PM 2.07 35.726 0.064 7.73 3.93 14.04
1/3/2022 3:30:00 PM 2.03 35.654 0.06 7.73 3.96 14.03
1/3/2022 3:45:00 PM 1.99 35.582 0.063 7.72 3.87 14.02
1/3/2022 4:00:00 PM 1.94 35.492 0.061 7.71 3.76 14.01
1/3/2022 4:15:00 PM 1.9 35.42 0.064 7.64 3.89 13.98
1/3/2022 4:30:00 PM 1.84 35.312 0.062 7.6 3.9 13.94
1/3/2022 4:45:00 PM 1.78 35.204 0.064 7.59 3.89 13.9
1/3/2022 5:00:00 PM 1.72 35.096 0.061 7.57 3.84 13.86
1/3/2022 5:15:00 PM 1.65 34.97 0.062 7.56 3.79 13.83
1/3/2022 5:30:00 PM 1.57 34.826 0.13 7.55 3.78 13.82
1/3/2022 5:45:00 PM 1.5 34.7 0.066 7.54 3.89 13.82
1/3/2022 6:00:00 PM 1.44 34.592 0.074 7.53 4.11 13.81
1/3/2022 6:15:00 PM 1.37 34.466 0.08 7.52 3.89 13.83
1/3/2022 6:30:00 PM 1.3 34.34 0.069 7.51 3.94 13.84
1/3/2022 6:45:00 PM 1.23 34.214 0.066 7.51 3.83 13.86
1/3/2022 7:00:00 PM 1.16 34.088 0.063 7.5 3.98 13.88
1/3/2022 7:15:00 PM 1.09 33.962 0.067 7.49 3.89 13.9
1/3/2022 7:30:00 PM 1.03 33.854 0.07 7.49 3.87 13.92
1/3/2022 7:45:00 PM 0.98 33.764 0.079 7.49 4 13.94
1/3/2022 8:00:00 PM 0.93 33.674 0.076 7.49 3.93 13.97
1/3/2022 8:15:00 PM 0.87 33.566 0.062 7.48 3.83 13.98
1/3/2022 8:30:00 PM 0.82 33.476 0.063 7.48 3.9 14.01
1/3/2022 8:45:00 PM 0.76 33.368 0.068 7.47 3.87 14.03
1/3/2022 9:00:00 PM 0.7 33.26 0.062 7.47 3.94 14.05
1/3/2022 9:15:00 PM 0.65 33.17 0.062 7.46 3.97 14.07
1/3/2022 9:30:00 PM 0.61 33.098 0.06 7.46 3.92 14.09
1/3/2022 9:45:00 PM 0.57 33.026 0.066 7.46 3.79 14.11
1/3/2022 10:00:00 PM 0.53 32.954 0.063 7.46 3.78 14.13
1/3/2022 10:15:00 PM 0.49 32.882 0.062 7.45 3.9 14.15
1/3/2022 10:30:00 PM 0.45 32.81 0.132 7.45 3.92 14.17
1/3/2022 10:45:00 PM 0.4 32.72 0.131 7.45 3.99 14.19
1/3/2022 11:00:00 PM 0.37 32.666 0.064 7.45 3.82 14.21
1/3/2022 11:15:00 PM 0.33 32.594 0.067 7.45 3.95 14.22
1/3/2022 11:30:00 PM 0.3 32.54 0.132 7.45 4.01 14.24
1/3/2022 11:45:00 PM 0.26 32.468 0.131 7.45 3.89 14.25
1/4/2022 12:00:00 AM 0.21 32.378 0.066 7.45 3.9 14.27
1/4/2022 12:15:00 AM 0.16 32.288 0.063 7.45 3.9 14.3
1/4/2022 12:30:00 AM 0.11 32.198 0.062 7.45 3.89 14.31
1/4/2022 12:45:00 AM 0.07 32.126 0.131 7.44 3.87 14.33
1/4/2022 1:00:00 AM 0.02 32.036 0.062 7.44 3.74 14.36
1/4/2022 1:15:00 AM -0.02 31.964 0.062 7.44 3.97 14.38
1/4/2022 1:30:00 AM -0.06 31.892 0.133 7.44 3.94 14.39
1/4/2022 1:45:00 AM -0.1 31.82 0.131 7.44 3.9 14.41
1/4/2022 2:00:00 AM -0.11 31.802 0.129 7.44 3.84 14.44
1/4/2022 2:15:00 AM -0.09 31.838 0.129 7.45 4.5 14.46
1/4/2022 2:30:00 AM -0.09 31.838 0.133 7.45 4.37 14.46
1/4/2022 2:45:00 AM -0.09 31.838 0.132 7.45 3.93 14.47
1/4/2022 3:00:00 AM -0.09 31.838 0.133 7.46 3.96 14.49
1/4/2022 3:15:00 AM -0.08 31.856 0.062 7.46 4.06 14.49
1/4/2022 3:30:00 AM -0.08 31.856 0.064 7.46 3.8 14.48
1/4/2022 3:45:00 AM -0.08 31.856 0.133 7.47 3.97 14.49
1/4/2022 4:00:00 AM -0.08 31.856 0.133 7.47 3.92 14.5
1/4/2022 4:15:00 AM -0.08 31.856 0.133 7.46 3.97 14.49
1/4/2022 4:30:00 AM -0.08 31.856 0.061 7.47 4.03 14.5
1/4/2022 4:45:00 AM -0.08 31.856 0.065 7.46 4.05 14.49
1/4/2022 5:00:00 AM -0.08 31.856 0.067 7.46 3.98 14.49
1/4/2022 5:15:00 AM -0.08 31.856 0.063 7.45 3.92 14.46
1/4/2022 5:30:00 AM -0.08 31.856 0.07 7.45 3.93 14.46
1/4/2022 5:45:00 AM -0.08 31.856 0.064 7.45 4 14.47
1/4/2022 6:00:00 AM -0.08 31.856 0.134 7.45 3.89 14.46
1/4/2022 6:15:00 AM -0.08 31.856 0.134 7.45 4.06 14.47
1/4/2022 6:30:00 AM -0.08 31.856 0.062 7.44 3.88 14.46
1/4/2022 6:45:00 AM -0.08 31.856 0.131 7.45 3.8 14.47
1/4/2022 7:00:00 AM -0.08 31.856 0.135 7.44 3.9 14.46
1/4/2022 7:15:00 AM -0.08 31.856 0.135 7.44 3.94 14.47
1/4/2022 7:30:00 AM -0.08 31.856 0.062 7.44 3.96 14.47
1/4/2022 7:45:00 AM -0.08 31.856 0.066 7.45 3.96 14.5
1/4/2022 8:00:00 AM -0.08 31.856 0.064 7.46 3.86 14.54
1/4/2022 8:15:00 AM -0.08 31.856 0.062 7.47 3.81 14.57
1/4/2022 8:30:00 AM -0.08 31.856 0.135 7.48 3.77 14.6
1/4/2022 8:45:00 AM -0.08 31.856 0.134 7.48 3.7 14.64
1/4/2022 9:00:00 AM -0.08 31.856 0.063 7.49 3.86 14.68
1/4/2022 9:15:00 AM -0.08 31.856 0.136 7.51 3.73 14.72
1/4/2022 9:30:00 AM -0.08 31.856 0.135 7.52 3.75 14.75
1/4/2022 9:45:00 AM -0.08 31.856 0.135 7.52 3.98 14.78
1/4/2022 10:00:00 AM -0.08 31.856 0.065 7.53 3.74 14.81
1/4/2022 10:15:00 AM -0.08 31.856 0.134 7.54 3.79 14.84
1/4/2022 10:30:00 AM -0.08 31.856 0.135 7.55 3.84 14.85
1/4/2022 10:45:00 AM -0.08 31.856 0.062 7.56 3.88 14.86
1/4/2022 11:00:00 AM -0.08 31.856 0.135 7.57 3.81 14.87
1/4/2022 11:15:00 AM -0.08 31.856 0.131 7.58 3.81 14.87
1/4/2022 11:30:00 AM -0.08 31.856 0.134 7.59 3.96 14.88
1/4/2022 11:45:00 AM -0.08 31.856 0.064 7.6 3.81 14.89
1/4/2022 12:00:00 PM -0.08 31.856 0.135 7.6 4.01 14.89
1/4/2022 12:15:00 PM -0.08 31.856 0.062 7.61 4.16 14.88
1/4/2022 12:30:00 PM -0.08 31.856 0.133 7.61 4.1 14.87
1/4/2022 12:45:00 PM -0.08 31.856 0.133 7.61 4.2 14.86
1/4/2022 1:00:00 PM -0.07 31.874 0.134 7.62 4.23 14.84
1/4/2022 1:15:00 PM -0.05 31.91 0.132 7.63 4.49 14.83
1/4/2022 1:30:00 PM -0.02 31.964 0.062 7.63 4.24 14.82
1/4/2022 1:45:00 PM -0.01 31.982 0.065 7.63 4.27 14.81
1/4/2022 2:00:00 PM 0 32 0.062 7.63 4.08 14.81
1/4/2022 2:15:00 PM 0 32 0.132 7.64 4.15 14.8
1/4/2022 2:30:00 PM 0 32 0.133 7.62 4.11 14.8
1/4/2022 2:45:00 PM 0 32 0.134 7.62 4.21 14.79
1/4/2022 3:00:00 PM -0.01 31.982 0.062 7.63 4.2 14.78
1/4/2022 3:15:00 PM -0.01 31.982 0.132 7.62 4.17 14.77
1/4/2022 3:30:00 PM -0.01 31.982 0.132 7.62 3.93 14.75
1/4/2022 3:45:00 PM -0.02 31.964 0.132 7.61 4 14.74
1/4/2022 4:00:00 PM -0.03 31.946 0.133 7.6 3.95 14.72
1/4/2022 4:15:00 PM -0.04 31.928 0.133 7.59 4.09 14.7
1/4/2022 4:30:00 PM -0.05 31.91 0.06 7.58 3.91 14.66
1/4/2022 4:45:00 PM -0.06 31.892 0.06 7.56 4.21 14.62
1/4/2022 5:00:00 PM -0.08 31.856 0.062 7.55 4.06 14.59
1/4/2022 5:15:00 PM -0.09 31.838 0.132 7.54 3.78 14.56
1/4/2022 5:30:00 PM -0.1 31.82 0.133 7.53 3.94 14.54
1/4/2022 5:45:00 PM -0.1 31.82 0.063 7.51 3.86 14.52
1/4/2022 6:00:00 PM -0.1 31.82 0.079 7.51 3.97 14.51
1/4/2022 6:15:00 PM -0.1 31.82 0.133 7.51 4.18 14.51
1/4/2022 6:30:00 PM -0.1 31.82 0.069 7.5 4.22 14.49
1/4/2022 6:45:00 PM -0.1 31.82 0.079 7.5 4.41 14.49
1/4/2022 7:00:00 PM -0.1 31.82 0.064 7.5 4.59 14.48
1/4/2022 7:15:00 PM -0.1 31.82 0.062 7.49 4.62 14.47
1/4/2022 7:30:00 PM -0.09 31.838 0.065 7.49 4.66 14.46
1/4/2022 7:45:00 PM -0.09 31.838 0.073 7.48 4.72 14.45
1/4/2022 8:00:00 PM -0.09 31.838 0.068 7.49 4.61 14.44
1/4/2022 8:15:00 PM -0.09 31.838 0.065 7.48 4.72 14.43
1/4/2022 8:30:00 PM -0.09 31.838 0.063 7.48 4.84 14.43
1/4/2022 8:45:00 PM -0.09 31.838 0.063 7.47 4.92 14.43
1/4/2022 9:00:00 PM -0.09 31.838 0.064 7.47 4.9 14.42
1/4/2022 9:15:00 PM -0.09 31.838 0.133 7.47 5.23 14.42
1/4/2022 9:30:00 PM -0.09 31.838 0.064 7.47 5.34 14.42
1/4/2022 9:45:00 PM -0.09 31.838 0.069 7.47 5.19 14.41
1/4/2022 10:00:00 PM -0.09 31.838 0.135 7.47 5.13 14.42
1/4/2022 10:15:00 PM -0.09 31.838 0.134 7.46 5.35 14.41
1/4/2022 10:30:00 PM -0.09 31.838 0.134 7.47 5.24 14.4
1/4/2022 10:45:00 PM -0.09 31.838 0.134 7.46 5.31 14.4
1/4/2022 11:00:00 PM -0.09 31.838 0.134 7.47 5.65 14.4
1/4/2022 11:15:00 PM -0.09 31.838 0.133 7.46 5.28 14.4
1/4/2022 11:30:00 PM -0.09 31.838 0.135 7.45 5.41 14.38
1/4/2022 11:45:00 PM -0.09 31.838 0.134 7.46 5.55 14.38
1/5/2022 12:00:00 AM -0.09 31.838 0.066 7.46 5.54 14.37
1/5/2022 12:15:00 AM -0.09 31.838 0.066 7.46 5.8 14.37
1/5/2022 12:30:00 AM -0.09 31.838 0.133 7.46 5.54 14.37
1/5/2022 12:45:00 AM -0.09 31.838 0.065 7.46 5.74 14.36
1/5/2022 1:00:00 AM -0.09 31.838 0.134 7.46 5.75 14.37
1/5/2022 1:15:00 AM -0.09 31.838 0.067 7.46 5.69 14.37
1/5/2022 1:30:00 AM -0.09 31.838 0.063 7.46 6.08 14.37
1/5/2022 1:45:00 AM -0.09 31.838 0.134 7.46 5.87 14.36
1/5/2022 2:00:00 AM -0.09 31.838 0.131 7.46 5.9 14.36
1/5/2022 2:15:00 AM -0.09 31.838 0.067 7.46 5.89 14.36
1/5/2022 2:30:00 AM -0.09 31.838 0.135 7.46 6.02 14.35
1/5/2022 2:45:00 AM -0.09 31.838 0.065 7.46 5.71 14.35
1/5/2022 3:00:00 AM -0.09 31.838 0.065 7.46 5.71 14.34
1/5/2022 3:15:00 AM -0.09 31.838 0.134 7.47 5.72 14.35
1/5/2022 3:30:00 AM -0.09 31.838 0.064 7.46 5.79 14.35
1/5/2022 3:45:00 AM -0.09 31.838 0.135 7.46 5.67 14.35
1/5/2022 4:00:00 AM -0.09 31.838 0.067 7.46 5.62 14.33
1/5/2022 4:15:00 AM -0.09 31.838 0.062 7.46 5.87 14.33
1/5/2022 4:30:00 AM -0.09 31.838 0.135 7.46 5.85 14.32
1/5/2022 4:45:00 AM -0.09 31.838 0.136 7.46 5.73 14.32
1/5/2022 5:00:00 AM -0.09 31.838 0.135 7.47 6.03 14.32
1/5/2022 5:15:00 AM -0.09 31.838 0.135 7.47 5.81 14.31
1/5/2022 5:30:00 AM -0.09 31.838 0.132 7.47 5.89 14.31
1/5/2022 5:45:00 AM -0.09 31.838 0.064 7.47 5.93 14.31
1/5/2022 6:00:00 AM -0.09 31.838 0.137 7.47 5.77 14.31
1/5/2022 6:15:00 AM -0.09 31.838 0.136 7.47 5.89 14.31
1/5/2022 6:30:00 AM -0.09 31.838 0.063 7.47 5.81 14.3
1/5/2022 6:45:00 AM -0.09 31.838 0.135 7.47 5.72 14.29
1/5/2022 7:00:00 AM -0.09 31.838 0.063 7.47 5.78 14.3
1/5/2022 7:15:00 AM -0.09 31.838 0.063 7.47 5.95 14.29
1/5/2022 7:30:00 AM -0.08 31.856 0.066 7.47 5.88 14.3
1/5/2022 7:45:00 AM -0.09 31.838 0.056 7.48 5.98 14.3
1/5/2022 8:00:00 AM -0.08 31.856 0.064 7.48 5.63 14.31
1/5/2022 8:15:00 AM -0.08 31.856 0.075 7.48 5.78 14.33
1/5/2022 8:30:00 AM -0.08 31.856 0.136 7.49 6.24 14.37
1/5/2022 8:45:00 AM -0.08 31.856 0.067 7.5 5.73 14.39
1/5/2022 9:00:00 AM -0.08 31.856 0.064 7.52 5.69 14.43
1/5/2022 9:15:00 AM -0.08 31.856 0.136 7.53 5.8 14.47
1/5/2022 9:30:00 AM -0.08 31.856 0.063 7.54 5.74 14.5
1/5/2022 9:45:00 AM -0.08 31.856 0.076 7.55 5.73 14.53
1/5/2022 10:00:00 AM -0.08 31.856 0.068 7.57 5.76 14.55
1/5/2022 10:15:00 AM -0.08 31.856 0.072 7.58 5.71 14.57
1/5/2022 10:30:00 AM -0.08 31.856 0.067 7.59 5.92 14.58
1/5/2022 10:45:00 AM -0.06 31.892 0.063 7.6 5.92 14.6
1/5/2022 11:00:00 AM -0.05 31.91 0.067 7.61 5.81 14.61
1/5/2022 11:15:00 AM -0.02 31.964 0.071 7.62 5.87 14.61
1/5/2022 11:30:00 AM 0 32 0.065 7.63 4.04 14.63
1/5/2022 11:45:00 AM 0.02 32.036 0.063 7.64 4.26 14.64
1/5/2022 12:00:00 PM 0.04 32.072 0.074 7.65 4.46 14.63
1/5/2022 12:15:00 PM 0.08 32.144 0.073 7.66 4.37 14.63
1/5/2022 12:30:00 PM 0.11 32.198 0.065 7.66 4.37 14.61
1/5/2022 12:45:00 PM 0.13 32.234 0.061 7.67 4.42 14.6
1/5/2022 1:00:00 PM 0.15 32.27 0.067 7.67 4.45 14.59
1/5/2022 1:15:00 PM 0.18 32.324 0.077 7.69 4.35 14.58
1/5/2022 1:30:00 PM 0.21 32.378 0.066 7.69 4.45 14.56
1/5/2022 1:45:00 PM 0.23 32.414 0.066 7.69 4.52 14.55
1/5/2022 2:00:00 PM 0.26 32.468 0.07 7.69 4.43 14.53
1/5/2022 2:15:00 PM 0.27 32.486 0.071 7.69 4.37 14.51
1/5/2022 2:30:00 PM 0.28 32.504 0.052 7.69 4.35 14.5
1/5/2022 2:45:00 PM 0.28 32.504 0.061 7.69 4.46 14.47
1/5/2022 3:00:00 PM 0.3 32.54 0.06 7.68 4.42 14.44
1/5/2022 3:15:00 PM 0.32 32.576 0.131 7.68 4.38 14.4
1/5/2022 3:30:00 PM 0.35 32.63 0.064 7.67 4.34 14.37
1/5/2022 3:45:00 PM 0.39 32.702 0.064 7.67 4.31 14.32
1/5/2022 4:00:00 PM 0.42 32.756 0.062 7.65 4.23 14.28
1/5/2022 4:15:00 PM 0.46 32.828 0.064 7.65 4.27 14.25
1/5/2022 4:30:00 PM 0.48 32.864 0.068 7.64 4.2 14.2
1/5/2022 4:45:00 PM 0.5 32.9 0.07 7.62 4.15 14.15
1/5/2022 5:00:00 PM 0.5 32.9 0.062 7.6 4.2 14.11
1/5/2022 5:15:00 PM 0.5 32.9 0.066 7.59 4.33 14.06
1/5/2022 5:30:00 PM 0.49 32.882 0.061 7.57 4.35 14.02
1/5/2022 5:45:00 PM 0.5 32.9 0.064 7.56 4.27 14
1/5/2022 6:00:00 PM 0.5 32.9 0.131 7.54 4.13 13.98
1/5/2022 6:15:00 PM 0.5 32.9 0.062 7.54 4.05 13.96
1/5/2022 6:30:00 PM 0.5 32.9 0.07 7.53 4.09 13.96
1/5/2022 6:45:00 PM 0.49 32.882 0.071 7.52 4.07 13.95
1/5/2022 7:00:00 PM 0.48 32.864 0.061 7.51 4.05 13.94
1/5/2022 7:15:00 PM 0.48 32.864 0.064 7.51 3.97 13.93
1/5/2022 7:30:00 PM 0.47 32.846 0.075 7.5 4.04 13.93
1/5/2022 7:45:00 PM 0.47 32.846 0.069 7.51 3.87 13.94
1/5/2022 8:00:00 PM 0.46 32.828 0.067 7.5 3.98 13.93
1/5/2022 8:15:00 PM 0.46 32.828 0.074 7.5 3.92 13.93
1/5/2022 8:30:00 PM 0.46 32.828 0.062 7.49 3.88 13.92
1/5/2022 8:45:00 PM 0.46 32.828 0.07 7.49 3.89 13.92
1/5/2022 9:00:00 PM 0.47 32.846 0.084 7.49 3.81 13.92
1/5/2022 9:15:00 PM 0.48 32.864 0.078 7.49 3.86 13.92
1/5/2022 9:30:00 PM 0.5 32.9 0.132 7.48 3.82 13.91
1/5/2022 9:45:00 PM 0.51 32.918 0.068 7.49 3.78 13.91
1/5/2022 10:00:00 PM 0.51 32.918 0.129 7.48 3.76 13.89
1/5/2022 10:15:00 PM 0.52 32.936 0.061 7.49 3.8 13.89
1/5/2022 10:30:00 PM 0.53 32.954 0.062 7.48 3.91 13.89
1/5/2022 10:45:00 PM 0.54 32.972 0.065 7.48 3.77 13.89
1/5/2022 11:00:00 PM 0.55 32.99 0.129 7.48 3.74 13.89
1/5/2022 11:15:00 PM 0.55 32.99 0.064 7.48 3.88 13.89
1/5/2022 11:30:00 PM 0.56 33.008 0.131 7.48 3.8 13.89
1/5/2022 11:45:00 PM 0.57 33.026 0.061 7.48 3.9 13.89
1/6/2022 12:00:00 AM 0.56 33.008 0.066 7.48 3.87 13.89
1/6/2022 12:15:00 AM 0.55 32.99 0.07 7.48 3.82 13.89
1/6/2022 12:30:00 AM 0.53 32.954 0.067 7.48 3.82 13.89
1/6/2022 12:45:00 AM 0.51 32.918 0.132 7.48 3.83 13.89
1/6/2022 1:00:00 AM 0.49 32.882 0.127 7.48 3.86 13.9
1/6/2022 1:15:00 AM 0.48 32.864 0.131 7.48 3.84 13.91
1/6/2022 1:30:00 AM 0.46 32.828 0.062 7.48 3.86 13.91
1/6/2022 1:45:00 AM 0.45 32.81 0.074 7.48 3.72 13.92
1/6/2022 2:00:00 AM 0.44 32.792 0.064 7.48 3.83 13.92
1/6/2022 2:15:00 AM 0.44 32.792 0.067 7.48 3.78 13.93
1/6/2022 2:30:00 AM 0.43 32.774 0.129 7.48 3.74 13.93
1/6/2022 2:45:00 AM 0.42 32.756 0.061 7.48 3.8 13.94
1/6/2022 3:00:00 AM 0.4 32.72 0.062 7.48 3.84 13.95
1/6/2022 3:15:00 AM 0.37 32.666 0.069 7.48 3.8 13.96
1/6/2022 3:30:00 AM 0.35 32.63 0.066 7.48 3.74 13.97
1/6/2022 3:45:00 AM 0.33 32.594 0.062 7.48 3.93 13.98
1/6/2022 4:00:00 AM 0.3 32.54 0.063 7.48 3.76 13.99
1/6/2022 4:15:00 AM 0.28 32.504 0.13 7.49 3.67 14.01
1/6/2022 4:30:00 AM 0.26 32.468 0.07 7.48 3.88 14.02
1/6/2022 4:45:00 AM 0.25 32.45 0.067 7.49 3.78 14.03
1/6/2022 5:00:00 AM 0.24 32.432 0.133 7.48 3.77 14.03
1/6/2022 5:15:00 AM 0.25 32.45 0.132 7.48 3.79 14.04
1/6/2022 5:30:00 AM 0.26 32.468 0.064 7.48 3.73 14.04
1/6/2022 5:45:00 AM 0.26 32.468 0.063 7.49 3.71 14.04
1/6/2022 6:00:00 AM 0.25 32.45 0.132 7.49 3.81 14.05
1/6/2022 6:15:00 AM 0.23 32.414 0.071 7.49 3.88 14.06
1/6/2022 6:30:00 AM 0.21 32.378 0.133 7.49 3.78 14.07
1/6/2022 6:45:00 AM 0.18 32.324 0.064 7.49 3.76 14.08
1/6/2022 7:00:00 AM 0.14 32.252 0.066 7.49 3.7 14.1
1/6/2022 7:15:00 AM 0.12 32.216 0.132 7.48 3.78 14.1
1/6/2022 7:30:00 AM 0.09 32.162 0.064 7.48 3.93 14.12
1/6/2022 7:45:00 AM 0.07 32.126 0.062 7.49 3.76 14.15
1/6/2022 8:00:00 AM 0.04 32.072 0.065 7.49 3.69 14.18
1/6/2022 8:15:00 AM 0.02 32.036 0.132 7.49 3.63 14.23
1/6/2022 8:30:00 AM 0 32 0.064 7.51 3.79 14.27
1/6/2022 8:45:00 AM -0.01 31.982 0.133 7.52 3.64 14.31
1/6/2022 9:00:00 AM -0.02 31.964 0.132 7.53 3.76 14.36
1/6/2022 9:15:00 AM -0.01 31.982 0.065 7.54 3.68 14.42
1/6/2022 9:30:00 AM 0.01 32.018 0.132 7.55 3.71 14.45
1/6/2022 9:45:00 AM 0.02 32.036 0.065 7.56 3.73 14.48
1/6/2022 10:00:00 AM 0.06 32.108 0.132 7.57 3.75 14.52
1/6/2022 10:15:00 AM 0.1 32.18 0.132 7.59 3.69 14.54
1/6/2022 10:30:00 AM 0.16 32.288 0.065 7.59 3.68 14.56
1/6/2022 10:45:00 AM 0.19 32.342 0.074 7.61 3.68 14.58
1/6/2022 11:00:00 AM 0.21 32.378 0.067 7.61 3.66 14.58
1/6/2022 11:15:00 AM 0.22 32.396 0.075 7.62 3.67 14.58
1/6/2022 11:30:00 AM 0.25 32.45 0.064 7.62 3.68 14.57
1/6/2022 11:45:00 AM 0.31 32.558 0.072 7.63 3.83 14.55
1/6/2022 12:00:00 PM 0.37 32.666 0.064 7.64 3.72 14.55
1/6/2022 12:15:00 PM 0.44 32.792 0.065 7.65 3.74 14.55
1/6/2022 12:30:00 PM 0.5 32.9 0.067 7.65 3.73 14.53
1/6/2022 12:45:00 PM 0.52 32.936 0.061 7.66 3.75 14.51
1/6/2022 1:00:00 PM 0.56 33.008 0.061 7.66 3.65 14.49
1/6/2022 1:15:00 PM 0.61 33.098 0.063 7.67 3.63 14.48
1/6/2022 1:30:00 PM 0.62 33.116 0.074 7.67 3.65 14.48
1/6/2022 1:45:00 PM 0.66 33.188 0.074 7.67 3.64 14.46
1/6/2022 2:00:00 PM 0.7 33.26 0.064 7.68 3.68 14.44
1/6/2022 2:15:00 PM 0.72 33.296 0.065 7.68 3.84 14.43
1/6/2022 2:30:00 PM 0.74 33.332 0.066 7.68 3.79 14.42
1/6/2022 2:45:00 PM 0.74 33.332 0.131 7.68 3.67 14.41
1/6/2022 3:00:00 PM 0.74 33.332 0.069 7.69 3.66 14.4
1/6/2022 3:15:00 PM 0.73 33.314 0.066 7.68 3.8 14.38
1/6/2022 3:30:00 PM 0.72 33.296 0.131 7.68 3.67 14.36
1/6/2022 3:45:00 PM 0.7 33.26 0.076 7.68 3.73 14.34
1/6/2022 4:00:00 PM 0.68 33.224 0.065 7.67 3.84 14.33
1/6/2022 4:15:00 PM 0.67 33.206 0.062 7.65 3.67 14.29
1/6/2022 4:30:00 PM 0.65 33.17 0.069 7.64 3.76 14.26
1/6/2022 4:45:00 PM 0.63 33.134 0.132 7.63 3.73 14.2
1/6/2022 5:00:00 PM 0.62 33.116 0.073 7.61 3.76 14.18
1/6/2022 5:15:00 PM 0.6 33.08 0.061 7.6 3.79 14.13
1/6/2022 5:30:00 PM 0.6 33.08 0.063 7.58 3.65 14.1
1/6/2022 5:45:00 PM 0.59 33.062 0.13 7.57 3.75 14.08
1/6/2022 6:00:00 PM 0.58 33.044 0.062 7.55 3.92 14.07
1/6/2022 6:15:00 PM 0.58 33.044 0.062 7.55 3.79 14.05
1/6/2022 6:30:00 PM 0.58 33.044 0.133 7.54 3.84 14.04
1/6/2022 6:45:00 PM 0.57 33.026 0.062 7.53 4.06 14.03
1/6/2022 7:00:00 PM 0.55 32.99 0.062 7.53 3.83 14.02
1/6/2022 7:15:00 PM 0.54 32.972 0.061 7.52 3.92 14.02
1/6/2022 7:30:00 PM 0.53 32.954 0.061 7.52 3.74 14.02
1/6/2022 7:45:00 PM 0.52 32.936 0.133 7.51 3.82 14.02
1/6/2022 8:00:00 PM 0.52 32.936 0.131 7.51 3.83 14.01
1/6/2022 8:15:00 PM 0.51 32.918 0.06 7.51 3.88 14.02
1/6/2022 8:30:00 PM 0.5 32.9 0.062 7.5 3.67 14.02
1/6/2022 8:45:00 PM 0.5 32.9 0.132 7.5 3.73 14.02
1/6/2022 9:00:00 PM 0.5 32.9 0.131 7.5 3.84 14.02
1/6/2022 9:15:00 PM 0.49 32.882 0.062 7.5 3.62 14.01
1/6/2022 9:30:00 PM 0.48 32.864 0.069 7.5 3.73 14.02
1/6/2022 9:45:00 PM 0.47 32.846 0.062 7.5 3.6 14.03
1/6/2022 10:00:00 PM 0.45 32.81 0.13 7.49 3.83 14.02
1/6/2022 10:15:00 PM 0.43 32.774 0.062 7.49 3.7 14.03
1/6/2022 10:30:00 PM 0.38 32.684 0.131 7.5 3.79 14.05
1/6/2022 10:45:00 PM 0.33 32.594 0.131 7.49 3.75 14.07
1/6/2022 11:00:00 PM 0.28 32.504 0.062 7.49 3.82 14.11
1/6/2022 11:15:00 PM 0.21 32.378 0.131 7.49 3.71 14.1
1/6/2022 11:30:00 PM 0.14 32.252 0.064 7.49 3.89 14.11
1/6/2022 11:45:00 PM 0.1 32.18 0.13 7.49 3.76 14.14
1/7/2022 12:00:00 AM 0.06 32.108 0.132 7.49 3.68 14.15
1/7/2022 12:15:00 AM 0.04 32.072 0.13 7.49 3.67 14.16
1/7/2022 12:30:00 AM 0 32 0.062 7.48 3.78 14.18
1/7/2022 12:45:00 AM -0.04 31.928 0.13 7.49 4.03 14.19
1/7/2022 1:00:00 AM -0.06 31.892 0.13 7.49 3.92 14.19
1/7/2022 1:15:00 AM -0.08 31.856 0.13 7.48 4 14.2
1/7/2022 1:30:00 AM -0.08 31.856 0.13 7.48 4.14 14.21
1/7/2022 1:45:00 AM -0.09 31.838 0.062 7.47 4.31 14.21
1/7/2022 2:00:00 AM -0.09 31.838 0.13 7.48 4.96 14.21
1/7/2022 2:15:00 AM -0.09 31.838 0.13 7.47 4.59 14.22
1/7/2022 2:30:00 AM -0.09 31.838 0.13 7.47 4.63 14.22
1/7/2022 2:45:00 AM -0.09 31.838 0.131 7.48 4.77 14.22
1/7/2022 3:00:00 AM -0.08 31.856 0.131 7.48 4.88 14.22
1/7/2022 3:15:00 AM -0.08 31.856 0.062 7.48 5.02 14.22
1/7/2022 3:30:00 AM -0.08 31.856 0.132 7.48 5.06 14.22
1/7/2022 3:45:00 AM -0.08 31.856 0.131 7.48 5.05 14.22
1/7/2022 4:00:00 AM -0.08 31.856 0.131 7.48 4.97 14.22
1/7/2022 4:15:00 AM -0.08 31.856 0.131 7.48 9.51 14.21
1/7/2022 4:30:00 AM -0.08 31.856 0.131 7.48 4.96 14.21
1/7/2022 4:45:00 AM -0.08 31.856 0.13 7.48 4.92 14.2
1/7/2022 5:00:00 AM -0.08 31.856 0.061 7.48 4.94 14.2
1/7/2022 5:15:00 AM -0.08 31.856 0.131 7.48 4.73 14.2
1/7/2022 5:30:00 AM -0.08 31.856 0.13 7.47 4.82 14.19
1/7/2022 5:45:00 AM -0.08 31.856 0.062 7.47 4.92 14.2
1/7/2022 6:00:00 AM -0.08 31.856 0.063 7.47 4.75 14.2
1/7/2022 6:15:00 AM -0.08 31.856 0.133 7.47 4.76 14.2
1/7/2022 6:30:00 AM -0.08 31.856 0.131 7.47 4.65 14.2
1/7/2022 6:45:00 AM -0.08 31.856 0.128 7.47 4.8 14.21
1/7/2022 7:00:00 AM -0.08 31.856 0.131 7.47 4.72 14.2
1/7/2022 7:15:00 AM -0.08 31.856 0.131 7.47 4.73 14.21
1/7/2022 7:30:00 AM -0.08 31.856 0.063 7.47 4.77 14.21
1/7/2022 7:45:00 AM -0.08 31.856 0.064 7.47 4.68 14.22
1/7/2022 8:00:00 AM -0.08 31.856 0.131 7.48 4.69 14.24
1/7/2022 8:15:00 AM -0.08 31.856 0.131 7.48 4.79 14.28
1/7/2022 8:30:00 AM -0.08 31.856 0.13 7.49 4.72 14.32
1/7/2022 8:45:00 AM -0.08 31.856 0.063 7.5 4.66 14.34
1/7/2022 9:00:00 AM -0.08 31.856 0.064 7.51 4.71 14.38
1/7/2022 9:15:00 AM -0.08 31.856 0.061 7.52 4.74 14.42
1/7/2022 9:30:00 AM -0.08 31.856 0.062 7.53 4.99 14.45
1/7/2022 9:45:00 AM -0.08 31.856 0.13 7.54 4.92 14.49
1/7/2022 10:00:00 AM -0.08 31.856 0.061 7.56 4.95 14.51
1/7/2022 10:15:00 AM -0.07 31.874 0.063 7.56 5.42 14.55
1/7/2022 10:30:00 AM -0.06 31.892 0.062 7.57 4.82 14.56
1/7/2022 10:45:00 AM -0.05 31.91 0.129 7.59 4.58 14.59
1/7/2022 11:00:00 AM -0.03 31.946 0.132 7.59 4.13 14.6
1/7/2022 11:15:00 AM -0.02 31.964 0.062 7.6 4.01 14.62
1/7/2022 11:30:00 AM 0 32 0.13 7.61 4.08 14.63
1/7/2022 11:45:00 AM 0.01 32.018 0.129 7.62 4.16 14.63
1/7/2022 12:00:00 PM 0.03 32.054 0.129 7.62 3.93 14.64
1/7/2022 12:15:00 PM 0.07 32.126 0.063 7.63 4.26 14.64
1/7/2022 12:30:00 PM 0.1 32.18 0.129 7.64 3.99 14.64
1/7/2022 12:45:00 PM 0.13 32.234 0.129 7.64 3.99 14.61
1/7/2022 1:00:00 PM 0.15 32.27 0.128 7.64 4.03 14.6
1/7/2022 1:15:00 PM 0.12 32.216 0.129 7.64 4.01 14.58
1/7/2022 1:30:00 PM 0.07 32.126 0.126 7.64 4.07 14.58
1/7/2022 1:45:00 PM 0.07 32.126 0.128 7.64 4.13 14.59
1/7/2022 2:00:00 PM 0.07 32.126 0.131 7.64 3.77 14.58
1/7/2022 2:15:00 PM 0.1 32.18 0.129 7.64 3.93 14.58
1/7/2022 2:30:00 PM 0.13 32.234 0.13 7.64 3.86 14.56
1/7/2022 2:45:00 PM 0.1 32.18 0.129 7.63 3.95 14.53
1/7/2022 3:00:00 PM 0.07 32.126 0.13 7.63 3.8 14.51
1/7/2022 3:15:00 PM 0.06 32.108 0.131 7.63 3.82 14.53
1/7/2022 3:30:00 PM 0.07 32.126 0.13 7.63 3.81 14.54
1/7/2022 3:45:00 PM 0.09 32.162 0.129 7.63 3.8 14.54
1/7/2022 4:00:00 PM 0.08 32.144 0.127 7.63 3.75 14.55
1/7/2022 4:15:00 PM 0.07 32.126 0.129 7.62 3.87 14.52
1/7/2022 4:30:00 PM 0.04 32.072 0.061 7.61 3.84 14.48
1/7/2022 4:45:00 PM 0 32 0.128 7.6 3.88 14.46
1/7/2022 5:00:00 PM -0.03 31.946 0.13 7.59 4.07 14.44
1/7/2022 5:15:00 PM -0.07 31.874 0.131 7.57 3.77 14.42
1/7/2022 5:30:00 PM -0.1 31.82 0.132 7.56 4.22 14.42
1/7/2022 5:45:00 PM -0.09 31.838 0.131 7.55 4.6 14.41
1/7/2022 6:00:00 PM -0.09 31.838 0.12 7.54 5.71 14.4
1/7/2022 6:15:00 PM -0.09 31.838 0.13 7.54 4.19 14.4
1/7/2022 6:30:00 PM -0.09 31.838 0.131 7.53 4.21 14.39
1/7/2022 6:45:00 PM -0.09 31.838 0.13 7.53 4.07 14.39
1/7/2022 7:00:00 PM -0.08 31.856 0.132 7.52 3.99 14.39
1/7/2022 7:15:00 PM -0.08 31.856 0.134 7.51 4.02 14.38
1/7/2022 7:30:00 PM -0.08 31.856 0.132 7.51 3.98 14.39
1/7/2022 7:45:00 PM -0.08 31.856 0.131 7.51 3.95 14.38
1/7/2022 8:00:00 PM -0.08 31.856 0.132 7.5 3.98 14.38
1/7/2022 8:15:00 PM -0.08 31.856 0.131 7.5 3.84 14.38
1/7/2022 8:30:00 PM -0.08 31.856 0.062 7.49 3.84 14.38
1/7/2022 8:45:00 PM -0.08 31.856 0.131 7.49 3.8 14.38
1/7/2022 9:00:00 PM -0.08 31.856 0.132 7.49 3.73 14.38
1/7/2022 9:15:00 PM -0.08 31.856 0.132 7.49 3.8 14.39
1/7/2022 9:30:00 PM -0.08 31.856 0.133 7.49 3.89 14.39
1/7/2022 9:45:00 PM -0.08 31.856 0.062 7.48 3.93 14.4
1/7/2022 10:00:00 PM -0.08 31.856 0.066 7.48 3.8 14.41
1/7/2022 10:15:00 PM -0.08 31.856 0.133 7.49 3.74 14.42
1/7/2022 10:30:00 PM -0.08 31.856 0.061 7.48 3.96 14.42
1/7/2022 10:45:00 PM -0.08 31.856 0.132 7.48 3.73 14.44
1/7/2022 11:00:00 PM -0.08 31.856 0.133 7.48 3.87 14.44
1/7/2022 11:15:00 PM -0.08 31.856 0.061 7.48 3.74 14.45
1/7/2022 11:30:00 PM -0.08 31.856 0.066 7.48 3.79 14.45
1/7/2022 11:45:00 PM -0.08 31.856 0.061 7.48 3.78 14.45
1/8/2022 12:00:00 AM -0.08 31.856 0.061 7.48 3.8 14.44
1/8/2022 12:15:00 AM -0.08 31.856 0.063 7.47 3.65 14.45
1/8/2022 12:30:00 AM -0.08 31.856 0.134 7.47 3.81 14.46
1/8/2022 12:45:00 AM -0.08 31.856 0.135 7.47 3.78 14.46
1/8/2022 1:00:00 AM -0.08 31.856 0.134 7.47 3.76 14.46
1/8/2022 1:15:00 AM -0.08 31.856 0.063 7.47 3.8 14.46
1/8/2022 1:30:00 AM -0.08 31.856 0.134 7.47 3.72 14.47
1/8/2022 1:45:00 AM -0.08 31.856 0.066 7.47 3.83 14.46
1/8/2022 2:00:00 AM -0.08 31.856 0.134 7.47 3.7 14.47
1/8/2022 2:15:00 AM -0.08 31.856 0.136 7.47 3.78 14.47
1/8/2022 2:30:00 AM -0.08 31.856 0.062 7.47 3.81 14.48
1/8/2022 2:45:00 AM -0.08 31.856 0.061 7.46 3.82 14.48
1/8/2022 3:00:00 AM -0.08 31.856 0.064 7.47 3.77 14.48
1/8/2022 3:15:00 AM -0.08 31.856 0.064 7.47 3.91 14.48
1/8/2022 3:30:00 AM -0.08 31.856 0.063 7.47 3.86 14.48
1/8/2022 3:45:00 AM -0.08 31.856 0.136 7.46 3.8 14.48
1/8/2022 4:00:00 AM -0.08 31.856 0.136 7.46 3.77 14.49
1/8/2022 4:15:00 AM -0.08 31.856 0.137 7.47 3.75 14.5
1/8/2022 4:30:00 AM -0.08 31.856 0.137 7.47 3.71 14.5
1/8/2022 4:45:00 AM -0.08 31.856 0.137 7.47 3.84 14.51
1/8/2022 5:00:00 AM -0.08 31.856 0.062 7.47 3.88 14.51
1/8/2022 5:15:00 AM -0.08 31.856 0.063 7.47 3.81 14.52
1/8/2022 5:30:00 AM -0.08 31.856 0.063 7.47 3.89 14.53
1/8/2022 5:45:00 AM -0.08 31.856 0.14 7.47 3.87 14.52
1/8/2022 6:00:00 AM -0.08 31.856 0.138 7.46 3.8 14.53
1/8/2022 6:15:00 AM -0.08 31.856 0.063 7.46 3.83 14.54
1/8/2022 6:30:00 AM -0.08 31.856 0.138 7.46 3.66 14.54
1/8/2022 6:45:00 AM -0.08 31.856 0.138 7.46 3.69 14.54
1/8/2022 7:00:00 AM -0.08 31.856 0.139 7.46 3.77 14.54
1/8/2022 7:15:00 AM -0.08 31.856 0.063 7.46 3.67 14.55
1/8/2022 7:30:00 AM -0.08 31.856 0.066 7.46 3.78 14.55
1/8/2022 7:45:00 AM -0.08 31.856 0.065 7.4 3.65 14.57
1/8/2022 8:00:00 AM -0.08 31.856 0.064 7.43 3.77 14.59
1/8/2022 8:15:00 AM -0.08 31.856 0.064 7.44 3.77 14.63
1/8/2022 8:30:00 AM -0.08 31.856 0.138 7.45 3.57 14.67
1/8/2022 8:45:00 AM -0.08 31.856 0.067 7.46 3.76 14.7
1/8/2022 9:00:00 AM -0.08 31.856 0.065 7.47 3.84 14.73
1/8/2022 9:15:00 AM -0.08 31.856 0.14 7.48 3.92 14.75
1/8/2022 9:30:00 AM -0.08 31.856 0.066 7.5 3.86 14.78
1/8/2022 9:45:00 AM -0.08 31.856 0.141 7.5 3.82 14.8
1/8/2022 10:00:00 AM -0.08 31.856 0.14 7.51 3.74 14.82
1/8/2022 10:15:00 AM -0.08 31.856 0.066 7.52 3.84 14.85
1/8/2022 10:30:00 AM -0.08 31.856 0.067 7.53 3.9 14.87
1/8/2022 10:45:00 AM -0.08 31.856 0.065 7.53 3.88 14.89
1/8/2022 11:00:00 AM -0.08 31.856 0.064 7.54 3.84 14.91
1/8/2022 11:15:00 AM -0.08 31.856 0.14 7.54 3.84 14.9
1/8/2022 11:30:00 AM -0.08 31.856 0.14 7.55 4.03 14.91
1/8/2022 11:45:00 AM -0.08 31.856 0.063 7.56 3.89 14.92
1/8/2022 12:00:00 PM -0.08 31.856 0.063 7.56 3.86 14.92
1/8/2022 12:15:00 PM -0.08 31.856 0.139 7.56 3.94 14.91
1/8/2022 12:30:00 PM -0.08 31.856 0.065 7.56 3.88 14.91
1/8/2022 12:45:00 PM -0.08 31.856 0.064 7.57 3.97 14.91
1/8/2022 1:00:00 PM -0.08 31.856 0.064 7.57 3.94 14.9
1/8/2022 1:15:00 PM -0.08 31.856 0.138 7.58 3.98 14.89
1/8/2022 1:30:00 PM -0.08 31.856 0.138 7.58 3.88 14.9
1/8/2022 1:45:00 PM -0.08 31.856 0.063 7.59 3.83 14.92
1/8/2022 2:00:00 PM -0.08 31.856 0.138 7.6 3.86 14.93
1/8/2022 2:15:00 PM -0.08 31.856 0.138 7.6 3.81 14.9
1/8/2022 2:30:00 PM -0.08 31.856 0.138 7.6 3.89 14.87
1/8/2022 2:45:00 PM -0.08 31.856 0.139 7.61 3.9 14.87
1/8/2022 3:00:00 PM -0.08 31.856 0.139 7.61 3.84 14.87
1/8/2022 3:15:00 PM -0.08 31.856 0.139 7.59 3.82 14.86
1/8/2022 3:30:00 PM -0.08 31.856 0.064 7.56 3.78 14.84
1/8/2022 3:45:00 PM -0.08 31.856 0.064 7.56 3.8 14.83
1/8/2022 4:00:00 PM -0.08 31.856 0.139 7.54 3.89 14.8
1/8/2022 4:15:00 PM -0.08 31.856 0.065 7.56 3.88 14.79
1/8/2022 4:30:00 PM -0.08 31.856 0.065 7.57 3.82 14.78
1/8/2022 4:45:00 PM -0.08 31.856 0.064 7.57 3.86 14.75
1/8/2022 5:00:00 PM -0.08 31.856 0.142 7.56 3.78 14.72
1/8/2022 5:15:00 PM -0.08 31.856 0.064 7.54 3.88 14.69
1/8/2022 5:30:00 PM -0.08 31.856 0.064 7.52 3.86 14.65
1/8/2022 5:45:00 PM -0.08 31.856 0.141 7.51 3.82 14.63
1/8/2022 6:00:00 PM -0.08 31.856 0.064 7.5 3.8 14.62
1/8/2022 6:15:00 PM -0.08 31.856 0.141 7.52 3.9 14.6
1/8/2022 6:30:00 PM -0.08 31.856 0.141 7.51 4.06 14.59
1/8/2022 6:45:00 PM -0.08 31.856 0.141 7.49 3.94 14.58
1/8/2022 7:00:00 PM -0.08 31.856 0.064 7.48 3.88 14.57
1/8/2022 7:15:00 PM -0.08 31.856 0.067 7.47 3.82 14.55
1/8/2022 7:30:00 PM -0.08 31.856 0.136 7.49 3.98 14.56
1/8/2022 7:45:00 PM -0.08 31.856 0.141 7.5 3.95 14.54
1/8/2022 8:00:00 PM -0.08 31.856 0.064 7.5 3.98 14.54
1/8/2022 8:15:00 PM -0.08 31.856 0.141 7.5 3.77 14.53
1/8/2022 8:30:00 PM -0.08 31.856 0.141 7.5 3.91 14.53
1/8/2022 8:45:00 PM -0.08 31.856 0.064 7.5 3.79 14.52
1/8/2022 9:00:00 PM -0.08 31.856 0.068 7.5 3.92 14.51
1/8/2022 9:15:00 PM -0.08 31.856 0.065 7.49 3.81 14.51
1/8/2022 9:30:00 PM -0.08 31.856 0.064 7.49 3.9 14.51
1/8/2022 9:45:00 PM -0.08 31.856 0.14 7.49 4.03 14.5
1/8/2022 10:00:00 PM -0.08 31.856 0.14 7.49 4.02 14.49
1/8/2022 10:15:00 PM -0.08 31.856 0.064 7.49 3.93 14.49
1/8/2022 10:30:00 PM -0.08 31.856 0.064 7.49 3.85 14.49
1/8/2022 10:45:00 PM -0.08 31.856 0.064 7.49 3.95 14.49
1/8/2022 11:00:00 PM -0.08 31.856 0.064 7.48 3.87 14.48
1/8/2022 11:15:00 PM -0.08 31.856 0.139 7.48 4 14.48
1/8/2022 11:30:00 PM -0.08 31.856 0.064 7.48 3.89 14.47
1/8/2022 11:45:00 PM -0.08 31.856 0.063 7.48 3.86 14.47
1/9/2022 12:00:00 AM -0.08 31.856 0.138 7.48 3.82 14.46
1/9/2022 12:15:00 AM -0.08 31.856 0.139 7.47 4.03 14.46
1/9/2022 12:30:00 AM -0.08 31.856 0.137 7.47 3.96 14.45
1/9/2022 12:45:00 AM -0.08 31.856 0.137 7.47 4.05 14.45
1/9/2022 1:00:00 AM -0.08 31.856 0.066 7.47 3.93 14.44
1/9/2022 1:15:00 AM -0.08 31.856 0.063 7.47 3.88 14.44
1/9/2022 1:30:00 AM -0.08 31.856 0.136 7.46 5.86 14.43
1/9/2022 1:45:00 AM -0.08 31.856 0.136 7.46 3.82 14.43
1/9/2022 2:00:00 AM -0.08 31.856 0.063 7.46 3.91 14.43
1/9/2022 2:15:00 AM -0.08 31.856 0.062 7.46 3.8 14.43
1/9/2022 2:30:00 AM -0.08 31.856 0.064 7.46 3.86 14.42
1/9/2022 2:45:00 AM -0.08 31.856 0.064 7.45 3.82 14.41
1/9/2022 3:00:00 AM -0.08 31.856 0.062 7.45 3.83 14.41
1/9/2022 3:15:00 AM -0.08 31.856 0.131 7.45 3.78 14.41
1/9/2022 3:30:00 AM -0.08 31.856 0.062 7.45 3.87 14.39
1/9/2022 3:45:00 AM -0.08 31.856 0.137 7.45 3.82 14.39
1/9/2022 4:00:00 AM -0.08 31.856 0.137 7.45 3.78 14.38
1/9/2022 4:15:00 AM -0.08 31.856 0.138 7.45 3.78 14.38
1/9/2022 4:30:00 AM -0.08 31.856 0.136 7.45 3.76 14.37
1/9/2022 4:45:00 AM -0.08 31.856 0.136 7.45 3.76 14.36
1/9/2022 5:00:00 AM -0.08 31.856 0.136 7.45 3.81 14.36
1/9/2022 5:15:00 AM -0.08 31.856 0.137 7.45 3.85 14.35
1/9/2022 5:30:00 AM -0.08 31.856 0.136 7.44 3.86 14.34
1/9/2022 5:45:00 AM -0.08 31.856 0.136 7.44 3.74 14.33
1/9/2022 6:00:00 AM -0.08 31.856 0.135 7.44 3.82 14.34
1/9/2022 6:15:00 AM -0.08 31.856 0.136 7.44 3.83 14.32
1/9/2022 6:30:00 AM -0.08 31.856 0.135 7.45 3.7 14.32
1/9/2022 6:45:00 AM -0.08 31.856 0.136 7.44 4.06 14.32
1/9/2022 7:00:00 AM -0.08 31.856 0.135 7.44 3.73 14.31
1/9/2022 7:15:00 AM -0.08 31.856 0.134 7.44 3.96 14.3
1/9/2022 7:30:00 AM -0.08 31.856 0.136 7.44 3.79 14.3
1/9/2022 7:45:00 AM -0.08 31.856 0.135 7.44 3.8 14.3
1/9/2022 8:00:00 AM -0.08 31.856 0.136 7.44 3.85 14.3
1/9/2022 8:15:00 AM -0.08 31.856 0.136 7.44 3.8 14.3
1/9/2022 8:30:00 AM -0.08 31.856 0.135 7.45 3.78 14.32
1/9/2022 8:45:00 AM -0.08 31.856 0.063 7.45 3.76 14.34
1/9/2022 9:00:00 AM -0.08 31.856 0.064 7.46 3.79 14.37
1/9/2022 9:15:00 AM -0.08 31.856 0.062 7.47 3.89 14.39
1/9/2022 9:30:00 AM -0.08 31.856 0.063 7.47 3.82 14.41
1/9/2022 9:45:00 AM -0.08 31.856 0.13 7.48 3.8 14.43
1/9/2022 10:00:00 AM -0.08 31.856 0.134 7.49 3.85 14.45
1/9/2022 10:15:00 AM -0.08 31.856 0.062 7.5 3.84 14.39
1/9/2022 10:30:00 AM -0.08 31.856 0.065 7.5 3.91 14.5
1/9/2022 10:45:00 AM -0.08 31.856 0.135 7.51 4.01 14.52
1/9/2022 11:00:00 AM -0.08 31.856 0.126 7.52 3.81 14.54
1/9/2022 11:15:00 AM -0.08 31.856 0.129 7.53 4.05 14.54
1/9/2022 11:30:00 AM -0.08 31.856 0.134 7.53 5.72 14.55
1/9/2022 11:45:00 AM -0.08 31.856 0.133 7.54 4.27 14.55
1/9/2022 12:00:00 PM -0.08 31.856 0.133 7.54 4.06 14.55
1/9/2022 12:15:00 PM -0.08 31.856 0.061 7.55 4.06 14.55
1/9/2022 12:30:00 PM -0.08 31.856 0.133 7.55 5.41 14.54
1/9/2022 12:45:00 PM -0.08 31.856 0.133 7.55 4.18 14.52
1/9/2022 1:00:00 PM -0.08 31.856 0.061 7.55 4.57 14.51
1/9/2022 1:15:00 PM -0.08 31.856 0.133 7.55 4.21 14.51
1/9/2022 1:30:00 PM -0.08 31.856 0.133 7.55 4.18 14.5
1/9/2022 1:45:00 PM -0.08 31.856 0.063 7.55 4.29 14.49
1/9/2022 2:00:00 PM -0.08 31.856 0.064 7.55 5.23 14.48
1/9/2022 2:15:00 PM -0.08 31.856 0.134 7.55 4.83 14.46
1/9/2022 2:30:00 PM -0.08 31.856 0.135 7.55 4.21 14.45
1/9/2022 2:45:00 PM -0.08 31.856 0.134 7.54 4.33 14.44
1/9/2022 3:00:00 PM -0.08 31.856 0.062 7.54 4.38 14.43
1/9/2022 3:15:00 PM -0.08 31.856 0.134 7.54 4.18 14.41
1/9/2022 3:30:00 PM -0.08 31.856 0.135 7.54 4.6 14.39
1/9/2022 3:45:00 PM -0.08 31.856 0.135 7.53 4.43 14.37
1/9/2022 4:00:00 PM -0.08 31.856 0.135 7.53 4.47 14.35
1/9/2022 4:15:00 PM -0.08 31.856 0.134 7.52 9.15 14.33
1/9/2022 4:30:00 PM -0.08 31.856 0.135 7.51 4.21 14.32
1/9/2022 4:45:00 PM -0.08 31.856 0.135 7.51 3.97 14.3
1/9/2022 5:00:00 PM -0.08 31.856 0.134 7.5 6.38 14.28
1/9/2022 5:15:00 PM -0.08 31.856 0.062 7.5 4.12 14.26
1/9/2022 5:30:00 PM -0.08 31.856 0.136 7.49 4.14 14.25
1/9/2022 5:45:00 PM -0.08 31.856 0.135 7.49 4.31 14.24
1/9/2022 6:00:00 PM -0.08 31.856 0.135 7.48 4.24 14.23
1/9/2022 6:15:00 PM -0.08 31.856 0.134 7.47 4.21 14.22
1/9/2022 6:30:00 PM -0.08 31.856 0.135 7.47 4.19 14.22
1/9/2022 6:45:00 PM -0.07 31.874 0.061 7.46 4.23 14.21
1/9/2022 7:00:00 PM -0.07 31.874 0.135 7.46 4.17 14.21
1/9/2022 7:15:00 PM -0.07 31.874 0.132 7.46 4.23 14.21
1/9/2022 7:30:00 PM -0.07 31.874 0.064 7.45 4.27 14.2
1/9/2022 7:45:00 PM -0.07 31.874 0.063 7.45 4.16 14.2
1/9/2022 8:00:00 PM -0.07 31.874 0.135 7.45 4.27 14.2
1/9/2022 8:15:00 PM -0.07 31.874 0.062 7.45 4.28 14.21
1/9/2022 8:30:00 PM -0.07 31.874 0.063 7.45 4.28 14.21
1/9/2022 8:45:00 PM -0.07 31.874 0.134 7.44 4.15 14.2
1/9/2022 9:00:00 PM -0.07 31.874 0.134 7.44 4.03 14.21
1/9/2022 9:15:00 PM -0.07 31.874 0.134 7.44 4.18 14.21
1/9/2022 9:30:00 PM -0.07 31.874 0.135 7.44 4.13 14.21
1/9/2022 9:45:00 PM -0.07 31.874 0.133 7.44 4.17 14.21
1/9/2022 10:00:00 PM -0.06 31.892 0.133 7.44 4.11 14.21
1/9/2022 10:15:00 PM -0.06 31.892 0.133 7.45 4.17 14.21
1/9/2022 10:30:00 PM -0.06 31.892 0.135 7.44 4.15 14.21
1/9/2022 10:45:00 PM -0.06 31.892 0.134 7.44 4.03 14.21
1/9/2022 11:00:00 PM -0.07 31.874 0.062 7.44 4.15 14.21
1/9/2022 11:15:00 PM -0.07 31.874 0.132 7.44 4.05 14.22
1/9/2022 11:30:00 PM -0.07 31.874 0.061 7.44 4.01 14.23
1/9/2022 11:45:00 PM -0.07 31.874 0.132 7.44 4.13 14.23
1/10/2022 12:00:00 AM -0.07 31.874 0.133 7.44 4 14.23
1/10/2022 12:15:00 AM -0.08 31.856 0.132 7.44 4.09 14.24
1/10/2022 12:30:00 AM -0.08 31.856 0.133 7.44 4.12 14.24
1/10/2022 12:45:00 AM -0.09 31.838 0.133 7.44 4 14.25
1/10/2022 1:00:00 AM -0.09 31.838 0.132 7.44 3.96 14.26
1/10/2022 1:15:00 AM -0.09 31.838 0.061 7.44 4.06 14.26
1/10/2022 1:30:00 AM -0.1 31.82 0.062 7.44 4.21 14.27
1/10/2022 1:45:00 AM -0.1 31.82 0.061 7.45 3.89 14.27
1/10/2022 2:00:00 AM -0.1 31.82 0.133 7.45 4.11 14.29
1/10/2022 2:15:00 AM -0.1 31.82 0.134 7.45 4.02 14.29
1/10/2022 2:30:00 AM -0.1 31.82 0.132 7.45 3.81 14.3
1/10/2022 2:45:00 AM -0.09 31.838 0.134 7.44 3.7 14.29
1/10/2022 3:00:00 AM -0.09 31.838 0.133 7.44 3.64 14.29
1/10/2022 3:15:00 AM -0.09 31.838 0.132 7.45 3.63 14.3
1/10/2022 3:30:00 AM -0.09 31.838 0.133 7.44 3.69 14.3
1/10/2022 3:45:00 AM -0.09 31.838 0.069 7.45 3.56 14.31
1/10/2022 4:00:00 AM -0.09 31.838 0.068 7.45 3.68 14.31
1/10/2022 4:15:00 AM -0.09 31.838 0.061 7.45 3.84 14.31
1/10/2022 4:30:00 AM -0.09 31.838 0.132 7.44 3.78 14.32
1/10/2022 4:45:00 AM -0.09 31.838 0.134 7.45 3.78 14.33
1/10/2022 5:00:00 AM -0.09 31.838 0.133 7.45 3.93 14.32
1/10/2022 5:15:00 AM -0.09 31.838 0.132 7.45 4.13 14.33
1/10/2022 5:30:00 AM -0.09 31.838 0.061 7.44 4.03 14.33
1/10/2022 5:45:00 AM -0.09 31.838 0.134 7.45 4.18 14.33
1/10/2022 6:00:00 AM -0.09 31.838 0.135 7.45 4.14 14.34
1/10/2022 6:15:00 AM -0.09 31.838 0.136 7.45 4.45 14.34
1/10/2022 6:30:00 AM -0.09 31.838 0.136 7.45 4.12 14.34
1/10/2022 6:45:00 AM -0.09 31.838 0.128 7.45 4.07 14.34
1/10/2022 7:00:00 AM -0.09 31.838 0.137 7.45 4.21 14.34
1/10/2022 7:15:00 AM -0.09 31.838 0.138 7.45 4.2 14.34
1/10/2022 7:30:00 AM -0.09 31.838 0.137 7.44 4.25 14.35
1/10/2022 7:45:00 AM -0.09 31.838 0.137 7.44 4.69 14.36
1/10/2022 8:00:00 AM -0.09 31.838 0.137 7.44 4.21 14.37
1/10/2022 8:15:00 AM -0.09 31.838 0.128 7.45 4.32 14.4
1/10/2022 8:30:00 AM -0.09 31.838 0.137 7.46 4.33 14.43
1/10/2022 8:45:00 AM -0.09 31.838 0.137 7.46 4.21 14.45
1/10/2022 9:00:00 AM -0.09 31.838 0.138 7.47 4.21 14.49
1/10/2022 9:15:00 AM -0.09 31.838 0.133 7.48 4.2 14.52
1/10/2022 9:30:00 AM -0.09 31.838 0.062 7.48 4.48 14.55
1/10/2022 9:45:00 AM -0.09 31.838 0.136 7.49 4.5 14.58
1/10/2022 10:00:00 AM -0.08 31.856 0.136 7.5 4.67 14.61
1/10/2022 10:15:00 AM -0.08 31.856 0.136 7.51 4.6 14.62
1/10/2022 10:30:00 AM -0.08 31.856 0.062 7.51 4.57 14.65
1/10/2022 10:45:00 AM -0.08 31.856 0.062 7.52 4.56 14.66
1/10/2022 11:00:00 AM -0.08 31.856 0.061 7.53 4.94 14.68
1/10/2022 11:15:00 AM -0.08 31.856 0.132 7.54 4.98 14.7
1/10/2022 11:30:00 AM -0.08 31.856 0.134 7.55 4.63 14.7
1/10/2022 11:45:00 AM -0.08 31.856 0.061 7.55 5.12 14.72
1/10/2022 12:00:00 PM -0.08 31.856 0.134 7.56 4.48 14.72
1/10/2022 12:15:00 PM -0.08 31.856 0.064 7.57 4.59 14.72
1/10/2022 12:30:00 PM -0.08 31.856 0.062 7.58 4.25 14.72
1/10/2022 12:45:00 PM -0.08 31.856 0.133 7.59 4.29 14.73
1/10/2022 1:00:00 PM -0.08 31.856 0.064 7.59 4.26 14.71
1/10/2022 1:15:00 PM -0.08 31.856 0.064 7.59 4.3 14.7
1/10/2022 1:30:00 PM -0.08 31.856 0.133 7.59 4.23 14.7
1/10/2022 1:45:00 PM -0.08 31.856 0.061 7.59 4.45 14.69
1/10/2022 2:00:00 PM -0.08 31.856 0.064 7.6 4.73 14.7
1/10/2022 2:15:00 PM -0.08 31.856 0.063 7.6 4.72 14.7
1/10/2022 2:30:00 PM -0.08 31.856 0.134 7.6 4.69 14.69
1/10/2022 2:45:00 PM -0.08 31.856 0.13 7.6 4.32 14.69
1/10/2022 3:00:00 PM -0.08 31.856 0.063 7.6 4.37 14.68
1/10/2022 3:15:00 PM -0.08 31.856 0.134 7.6 4.12 14.68
1/10/2022 3:30:00 PM -0.09 31.838 0.133 7.59 4.29 14.66
1/10/2022 3:45:00 PM -0.09 31.838 0.063 7.59 4.29 14.64
1/10/2022 4:00:00 PM -0.09 31.838 0.067 7.59 4.09 14.64
1/10/2022 4:15:00 PM -0.09 31.838 0.065 7.58 4.18 14.61
1/10/2022 4:30:00 PM -0.09 31.838 0.063 7.57 4.05 14.59
1/10/2022 4:45:00 PM -0.09 31.838 0.135 7.57 4.15 14.56
1/10/2022 5:00:00 PM -0.09 31.838 0.136 7.56 4.01 14.53
1/10/2022 5:15:00 PM -0.09 31.838 0.131 7.54 4.1 14.5
1/10/2022 5:30:00 PM -0.09 31.838 0.062 7.54 4.05 14.47
1/10/2022 5:45:00 PM -0.09 31.838 0.066 7.53 4.32 14.45
1/10/2022 6:00:00 PM -0.09 31.838 0.135 7.52 4.32 14.43
1/10/2022 6:15:00 PM -0.09 31.838 0.136 7.51 4.64 14.42
1/10/2022 6:30:00 PM -0.09 31.838 0.135 7.5 4.73 14.41
1/10/2022 6:45:00 PM -0.09 31.838 0.062 7.5 4.41 14.4
1/10/2022 7:00:00 PM -0.09 31.838 0.064 7.49 4.54 14.39
1/10/2022 7:15:00 PM -0.09 31.838 0.136 7.49 4.44 14.38
1/10/2022 7:30:00 PM -0.09 31.838 0.136 7.48 4.42 14.37
1/10/2022 7:45:00 PM -0.09 31.838 0.063 7.49 4.35 14.36
1/10/2022 8:00:00 PM -0.09 31.838 0.064 7.48 4.3 14.36
1/10/2022 8:15:00 PM -0.09 31.838 0.136 7.48 4.24 14.35
1/10/2022 8:30:00 PM -0.09 31.838 0.136 7.48 4.25 14.35
1/10/2022 8:45:00 PM -0.09 31.838 0.062 7.48 4.37 14.35
1/10/2022 9:00:00 PM -0.09 31.838 0.137 7.47 4.14 14.34
1/10/2022 9:15:00 PM -0.09 31.838 0.136 7.47 4.29 14.35
1/10/2022 9:30:00 PM -0.09 31.838 0.062 7.47 4.2 14.35
1/10/2022 9:45:00 PM -0.09 31.838 0.129 7.47 4.33 14.36
1/10/2022 10:00:00 PM -0.09 31.838 0.135 7.47 4.31 14.36
1/10/2022 10:15:00 PM -0.09 31.838 0.064 7.47 4.34 14.36
1/10/2022 10:30:00 PM -0.09 31.838 0.137 7.47 4.25 14.37
1/10/2022 10:45:00 PM -0.09 31.838 0.136 7.47 4.45 14.37
1/10/2022 11:00:00 PM -0.08 31.856 0.137 7.47 4.31 14.38
1/10/2022 11:15:00 PM -0.09 31.838 0.138 7.47 4.34 14.38
1/10/2022 11:30:00 PM -0.08 31.856 0.134 7.47 4.24 14.39
1/10/2022 11:45:00 PM -0.09 31.838 0.062 7.47 4.22 14.39
1/11/2022 12:00:00 AM -0.09 31.838 0.063 7.46 4.35 14.4
1/11/2022 12:15:00 AM -0.09 31.838 0.063 7.46 4.32 14.4
1/11/2022 12:30:00 AM -0.09 31.838 0.062 7.46 4.33 14.39
1/11/2022 12:45:00 AM -0.08 31.856 0.062 7.46 4.19 14.4
1/11/2022 1:00:00 AM -0.09 31.838 0.137 7.45 4.22 14.4
1/11/2022 1:15:00 AM -0.08 31.856 0.138 7.45 4.32 14.4
1/11/2022 1:30:00 AM -0.08 31.856 0.136 7.45 4.28 14.4
1/11/2022 1:45:00 AM -0.09 31.838 0.136 7.45 4.12 14.4
1/11/2022 2:00:00 AM -0.08 31.856 0.063 7.45 4.22 14.41
1/11/2022 2:15:00 AM -0.09 31.838 0.063 7.45 4.26 14.41
1/11/2022 2:30:00 AM -0.09 31.838 0.138 7.45 4.43 14.41
1/11/2022 2:45:00 AM -0.09 31.838 0.137 7.45 4.32 14.41
1/11/2022 3:00:00 AM -0.08 31.856 0.063 7.45 4.32 14.41
1/11/2022 3:15:00 AM -0.08 31.856 0.137 7.45 4.28 14.41
1/11/2022 3:30:00 AM -0.08 31.856 0.138 7.45 4.25 14.42
1/11/2022 3:45:00 AM -0.08 31.856 0.139 7.45 4.17 14.42
1/11/2022 4:00:00 AM -0.08 31.856 0.065 7.45 4.29 14.42
1/11/2022 4:15:00 AM -0.08 31.856 0.065 7.45 4.25 14.42
1/11/2022 4:30:00 AM -0.08 31.856 0.063 7.45 4.36 14.43
1/11/2022 4:45:00 AM -0.08 31.856 0.139 7.45 4.38 14.42
1/11/2022 5:00:00 AM -0.09 31.838 0.136 7.45 4.35 14.43
1/11/2022 5:15:00 AM -0.08 31.856 0.063 7.44 4.63 14.43
1/11/2022 5:30:00 AM -0.08 31.856 0.063 7.44 4.53 14.43
1/11/2022 5:45:00 AM -0.09 31.838 0.064 7.44 4.35 14.43
1/11/2022 6:00:00 AM -0.09 31.838 0.063 7.44 4.22 14.44
1/11/2022 6:15:00 AM -0.08 31.856 0.14 7.44 4.31 14.44
1/11/2022 6:30:00 AM -0.08 31.856 0.14 7.44 4.23 14.44
1/11/2022 6:45:00 AM -0.09 31.838 0.14 7.44 4.33 14.45
1/11/2022 7:00:00 AM -0.08 31.856 0.064 7.44 4.22 14.45
1/11/2022 7:15:00 AM -0.08 31.856 0.065 7.44 4.29 14.46
1/11/2022 7:30:00 AM -0.09 31.838 0.141 7.44 4.36 14.46
1/11/2022 7:45:00 AM -0.08 31.856 0.067 7.44 4.3 14.48
1/11/2022 8:00:00 AM -0.08 31.856 0.143 7.44 4.22 14.5
1/11/2022 8:15:00 AM -0.08 31.856 0.142 7.44 4.27 14.52
1/11/2022 8:30:00 AM -0.08 31.856 0.065 7.45 4.17 14.54
1/11/2022 8:45:00 AM -0.09 31.838 0.067 7.45 4.24 14.57
1/11/2022 9:00:00 AM -0.08 31.856 0.142 7.46 4.17 14.6
1/11/2022 9:15:00 AM -0.08 31.856 0.142 7.46 4.55 14.63
1/11/2022 9:30:00 AM -0.08 31.856 0.142 7.47 4.52 14.65
1/11/2022 9:45:00 AM -0.08 31.856 0.066 7.47 4.41 14.68
1/11/2022 10:00:00 AM -0.08 31.856 0.143 7.47 4.27 14.7
1/11/2022 10:15:00 AM -0.08 31.856 0.066 7.48 4.32 14.73
1/11/2022 10:30:00 AM -0.08 31.856 0.066 7.48 4.68 14.75
1/11/2022 10:45:00 AM -0.08 31.856 0.066 7.49 4.42 14.76
1/11/2022 11:00:00 AM -0.08 31.856 0.068 7.5 4.6 14.78
1/11/2022 11:15:00 AM -0.09 31.838 0.143 7.5 5.14 14.79
1/11/2022 11:30:00 AM -0.08 31.856 0.143 7.51 4.33 14.79
1/11/2022 11:45:00 AM -0.08 31.856 0.066 7.51 4.27 14.81
1/11/2022 12:00:00 PM -0.08 31.856 0.068 7.52 4.39 14.81
1/11/2022 12:15:00 PM -0.08 31.856 0.066 7.52 4.47 14.82
1/11/2022 12:30:00 PM -0.08 31.856 0.066 7.52 4.44 14.81
1/11/2022 12:45:00 PM -0.08 31.856 0.143 7.52 4.47 14.82
1/11/2022 1:00:00 PM -0.08 31.856 0.065 7.53 4.42 14.82
1/11/2022 1:15:00 PM -0.08 31.856 0.139 7.53 4.43 14.82
1/11/2022 1:30:00 PM -0.08 31.856 0.066 7.53 4.48 14.82
1/11/2022 1:45:00 PM -0.08 31.856 0.144 7.53 4.48 14.83
1/11/2022 2:00:00 PM -0.08 31.856 0.065 7.54 4.59 14.83
1/11/2022 2:15:00 PM -0.09 31.838 0.066 7.54 4.48 14.83
1/11/2022 2:30:00 PM -0.08 31.856 0.068 7.54 4.46 14.82
1/11/2022 2:45:00 PM -0.08 31.856 0.065 7.54 4.4 14.81
1/11/2022 3:00:00 PM -0.09 31.838 0.065 7.54 4.5 14.81
1/11/2022 3:15:00 PM -0.09 31.838 0.143 7.54 4.45 14.8
1/11/2022 3:30:00 PM -0.08 31.856 0.135 7.54 4.51 14.8
1/11/2022 3:45:00 PM -0.08 31.856 0.144 7.54 4.54 14.79
1/11/2022 4:00:00 PM -0.08 31.856 0.143 7.54 4.51 14.78
1/11/2022 4:15:00 PM -0.09 31.838 0.066 7.53 4.42 14.76
1/11/2022 4:30:00 PM -0.09 31.838 0.066 7.53 4.36 14.74
1/11/2022 4:45:00 PM -0.09 31.838 0.065 7.52 4.52 14.72
1/11/2022 5:00:00 PM -0.08 31.856 0.144 7.52 4.43 14.69
1/11/2022 5:15:00 PM -0.08 31.856 0.145 7.51 4.48 14.66
1/11/2022 5:30:00 PM -0.09 31.838 0.145 7.5 4.41 14.63
1/11/2022 5:45:00 PM -0.08 31.856 0.145 7.49 4.37 14.61
1/11/2022 6:00:00 PM -0.09 31.838 0.14 7.48 4.4 14.59
1/11/2022 6:15:00 PM -0.08 31.856 0.146 7.48 4.41 14.57
1/11/2022 6:30:00 PM -0.09 31.838 0.146 7.47 4.34 14.55
1/11/2022 6:45:00 PM -0.08 31.856 0.146 7.47 4.41 14.54
1/11/2022 7:00:00 PM -0.09 31.838 0.068 7.46 4.45 14.52
1/11/2022 7:15:00 PM -0.09 31.838 0.065 7.46 4.46 14.5
1/11/2022 7:30:00 PM -0.09 31.838 0.066 7.45 4.94 14.49
1/11/2022 7:45:00 PM -0.09 31.838 0.146 7.45 5.17 14.48
1/11/2022 8:00:00 PM -0.09 31.838 0.146 7.45 4.89 14.47
1/11/2022 8:15:00 PM -0.09 31.838 0.067 7.44 4.63 14.46
1/11/2022 8:30:00 PM -0.09 31.838 0.066 7.44 4.52 14.45
1/11/2022 8:45:00 PM -0.09 31.838 0.147 7.44 4.68 14.44
1/11/2022 9:00:00 PM -0.08 31.856 0.147 7.44 4.56 14.44
1/11/2022 9:15:00 PM -0.08 31.856 0.068 7.42 4.36 14.43
1/11/2022 9:30:00 PM -0.08 31.856 0.148 7.43 4.39 14.42
1/11/2022 9:45:00 PM -0.08 31.856 0.147 7.43 4.46 14.42
1/11/2022 10:00:00 PM -0.09 31.838 0.147 7.43 4.37 14.4
1/11/2022 10:15:00 PM -0.09 31.838 0.067 7.43 4.37 14.4
1/11/2022 10:30:00 PM -0.09 31.838 0.147 7.42 4.42 14.39
1/11/2022 10:45:00 PM -0.08 31.856 0.148 7.42 4.54 14.39
1/11/2022 11:00:00 PM -0.08 31.856 0.142 7.42 4.38 14.38
1/11/2022 11:15:00 PM -0.09 31.838 0.067 7.42 4.58 14.38
1/11/2022 11:30:00 PM -0.08 31.856 0.148 7.42 4.79 14.37
1/11/2022 11:45:00 PM -0.08 31.856 0.067 7.42 4.54 14.36
1/12/2022 12:00:00 AM -0.08 31.856 0.067 7.41 4.62 14.36
1/12/2022 12:15:00 AM -0.08 31.856 0.067 7.41 4.55 14.35
1/12/2022 12:30:00 AM -0.09 31.838 0.068 7.41 4.48 14.34
1/12/2022 12:45:00 AM -0.08 31.856 0.068 7.41 4.41 14.33
1/12/2022 1:00:00 AM -0.08 31.856 0.068 7.41 4.47 14.32
1/12/2022 1:15:00 AM -0.08 31.856 0.15 7.41 4.4 14.31
1/12/2022 1:30:00 AM -0.08 31.856 0.148 7.41 4.4 14.3
1/12/2022 1:45:00 AM -0.09 31.838 0.068 7.41 4.43 14.3
1/12/2022 2:00:00 AM -0.08 31.856 0.068 7.41 4.47 14.29
1/12/2022 2:15:00 AM -0.09 31.838 0.148 7.41 4.45 14.28
1/12/2022 2:30:00 AM -0.09 31.838 0.067 7.4 4.44 14.28
1/12/2022 2:45:00 AM -0.09 31.838 0.148 7.4 4.37 14.27
1/12/2022 3:00:00 AM -0.09 31.838 0.069 7.4 4.38 14.26
1/12/2022 3:15:00 AM -0.09 31.838 0.144 7.4 4.38 14.26
1/12/2022 3:30:00 AM -0.08 31.856 0.068 7.4 4.36 14.25
1/12/2022 3:45:00 AM -0.09 31.838 0.149 7.4 4.41 14.25
1/12/2022 4:00:00 AM -0.09 31.838 0.148 7.4 4.43 14.24
1/12/2022 4:15:00 AM -0.08 31.856 0.142 7.4 4.32 14.24
1/12/2022 4:30:00 AM -0.08 31.856 0.067 7.4 4.43 14.23
1/12/2022 4:45:00 AM -0.08 31.856 0.067 7.4 4.44 14.22
1/12/2022 5:00:00 AM -0.09 31.838 0.149 7.4 4.61 14.22
1/12/2022 5:15:00 AM -0.08 31.856 0.149 7.39 4.54 14.21
1/12/2022 5:30:00 AM -0.08 31.856 0.148 7.39 4.55 14.2
1/12/2022 5:45:00 AM -0.08 31.856 0.067 7.39 4.48 14.19
1/12/2022 6:00:00 AM -0.08 31.856 0.143 7.39 4.44 14.2
1/12/2022 6:15:00 AM -0.09 31.838 0.067 7.39 4.43 14.19
1/12/2022 6:30:00 AM -0.08 31.856 0.068 7.39 4.4 14.19
1/12/2022 6:45:00 AM -0.09 31.838 0.068 7.39 4.45 14.18
1/12/2022 7:00:00 AM -0.08 31.856 0.149 7.39 4.53 14.17
1/12/2022 7:15:00 AM -0.09 31.838 0.067 7.39 4.55 14.18
1/12/2022 7:30:00 AM -0.09 31.838 0.068 7.39 4.53 14.17
1/12/2022 7:45:00 AM -0.08 31.856 0.149 7.39 4.53 14.18
1/12/2022 8:00:00 AM -0.09 31.838 0.067 7.39 4.46 14.18
1/12/2022 8:15:00 AM -0.08 31.856 0.068 7.39 4.52 14.21
1/12/2022 8:30:00 AM -0.08 31.856 0.148 7.39 4.55 14.23
1/12/2022 8:45:00 AM -0.08 31.856 0.141 7.39 4.53 14.25
1/12/2022 9:00:00 AM -0.09 31.838 0.067 7.4 4.49 14.28
1/12/2022 9:15:00 AM -0.08 31.856 0.068 7.4 4.7 14.31
1/12/2022 9:30:00 AM -0.08 31.856 0.072 7.41 4.54 14.32
1/12/2022 9:45:00 AM -0.08 31.856 0.07 7.41 4.54 14.35
1/12/2022 10:00:00 AM -0.08 31.856 0.067 7.42 4.67 14.38
1/12/2022 10:15:00 AM -0.08 31.856 0.068 7.42 4.57 14.41
1/12/2022 10:30:00 AM -0.08 31.856 0.066 7.43 4.62 14.43
1/12/2022 10:45:00 AM -0.08 31.856 0.067 7.43 4.75 14.45
1/12/2022 11:00:00 AM -0.08 31.856 0.067 7.44 4.71 14.46
1/12/2022 11:15:00 AM -0.08 31.856 0.067 7.44 4.69 14.48
1/12/2022 11:30:00 AM -0.08 31.856 0.067 7.45 4.62 14.47
1/12/2022 11:45:00 AM -0.08 31.856 0.146 7.45 4.59 14.49
1/12/2022 12:00:00 PM -0.08 31.856 0.145 7.46 4.68 14.49
1/12/2022 12:15:00 PM -0.08 31.856 0.067 7.46 4.69 14.49
1/12/2022 12:30:00 PM -0.08 31.856 0.067 7.46 4.71 14.51
1/12/2022 12:45:00 PM -0.08 31.856 0.067 7.47 4.83 14.53
1/12/2022 1:00:00 PM -0.08 31.856 0.135 7.47 4.71 14.53
1/12/2022 1:15:00 PM -0.08 31.856 0.065 7.48 4.77 14.53
1/12/2022 1:30:00 PM -0.08 31.856 0.065 7.48 4.81 14.54
1/12/2022 1:45:00 PM -0.08 31.856 0.143 7.48 4.74 14.55
1/12/2022 2:00:00 PM -0.08 31.856 0.144 7.49 4.78 14.55
1/12/2022 2:15:00 PM -0.08 31.856 0.143 7.49 4.85 14.55
1/12/2022 2:30:00 PM -0.08 31.856 0.066 7.5 5 14.56
1/12/2022 2:45:00 PM -0.08 31.856 0.143 7.5 4.98 14.57
1/12/2022 3:00:00 PM -0.08 31.856 0.144 7.5 4.81 14.58
1/12/2022 3:15:00 PM -0.08 31.856 0.144 7.51 4.93 14.57
1/12/2022 3:30:00 PM -0.08 31.856 0.142 7.51 4.96 14.56
1/12/2022 3:45:00 PM -0.09 31.838 0.143 7.51 5.08 14.55
1/12/2022 4:00:00 PM -0.08 31.856 0.143 7.51 4.92 14.54
1/12/2022 4:15:00 PM -0.08 31.856 0.142 7.51 5.22 14.51
1/12/2022 4:30:00 PM -0.08 31.856 0.065 7.5 5.11 14.49
1/12/2022 4:45:00 PM -0.08 31.856 0.065 7.5 5.05 14.45
1/12/2022 5:00:00 PM -0.09 31.838 0.065 7.49 5.14 14.41
1/12/2022 5:15:00 PM -0.08 31.856 0.142 7.48 5.23 14.38
1/12/2022 5:30:00 PM -0.08 31.856 0.143 7.47 4.91 14.35
1/12/2022 5:45:00 PM -0.09 31.838 0.142 7.46 5.15 14.33
1/12/2022 6:00:00 PM -0.09 31.838 0.142 7.45 5 14.31
1/12/2022 6:15:00 PM -0.09 31.838 0.142 7.44 5.01 14.29
1/12/2022 6:30:00 PM -0.09 31.838 0.066 7.44 5.09 14.27
1/12/2022 6:45:00 PM -0.09 31.838 0.065 7.43 5.09 14.26
1/12/2022 7:00:00 PM -0.09 31.838 0.064 7.43 5.02 14.25
1/12/2022 7:15:00 PM -0.08 31.856 0.142 7.42 4.98 14.23
1/12/2022 7:30:00 PM -0.08 31.856 0.143 7.42 4.93 14.22
1/12/2022 7:45:00 PM -0.08 31.856 0.142 7.41 5.13 14.21
1/12/2022 8:00:00 PM -0.08 31.856 0.064 7.41 4.97 14.2
1/12/2022 8:15:00 PM -0.08 31.856 0.064 7.41 5.05 14.2
1/12/2022 8:30:00 PM -0.08 31.856 0.143 7.4 5 14.19
1/12/2022 8:45:00 PM -0.08 31.856 0.142 7.4 5.06 14.18
1/12/2022 9:00:00 PM -0.08 31.856 0.142 7.4 5.08 14.17
1/12/2022 9:15:00 PM -0.08 31.856 0.141 7.39 5.15 14.16
1/12/2022 9:30:00 PM -0.08 31.856 0.142 7.39 5.08 14.16
1/12/2022 9:45:00 PM -0.08 31.856 0.065 7.39 5.02 14.15
1/12/2022 10:00:00 PM -0.08 31.856 0.065 7.38 4.92 14.15
1/12/2022 10:15:00 PM -0.08 31.856 0.142 7.38 5.03 14.14
1/12/2022 10:30:00 PM -0.09 31.838 0.141 7.38 5.07 14.14
1/12/2022 10:45:00 PM -0.08 31.856 0.14 7.38 5.08 14.14
1/12/2022 11:00:00 PM -0.08 31.856 0.064 7.38 4.95 14.14
1/12/2022 11:15:00 PM -0.08 31.856 0.141 7.37 4.96 14.13
1/12/2022 11:30:00 PM -0.08 31.856 0.065 7.37 4.91 14.13
1/12/2022 11:45:00 PM -0.08 31.856 0.138 7.37 4.95 14.13
1/13/2022 12:00:00 AM -0.08 31.856 0.141 7.37 5.09 14.12
1/13/2022 12:15:00 AM -0.08 31.856 0.064 7.37 5.14 14.13
1/13/2022 12:30:00 AM -0.08 31.856 0.14 7.37 5 14.12
1/13/2022 12:45:00 AM -0.08 31.856 0.14 7.37 5.14 14.13
1/13/2022 1:00:00 AM -0.08 31.856 0.14 7.37 5.23 14.12
1/13/2022 1:15:00 AM -0.08 31.856 0.135 7.36 5.06 14.12
1/13/2022 1:30:00 AM -0.08 31.856 0.063 7.36 5.14 14.12
1/13/2022 1:45:00 AM -0.08 31.856 0.064 7.37 5.2 14.11
1/13/2022 2:00:00 AM -0.08 31.856 0.141 7.37 4.95 14.11
1/13/2022 2:15:00 AM -0.08 31.856 0.139 7.37 5.03 14.11
1/13/2022 2:30:00 AM -0.08 31.856 0.139 7.37 5.13 14.11
1/13/2022 2:45:00 AM -0.08 31.856 0.135 7.37 4.97 14.11
1/13/2022 3:00:00 AM -0.08 31.856 0.14 7.37 5.13 14.11
1/13/2022 3:15:00 AM -0.08 31.856 0.064 7.37 5.23 14.1
1/13/2022 3:30:00 AM -0.08 31.856 0.064 7.37 5.17 14.1
1/13/2022 3:45:00 AM -0.08 31.856 0.14 7.37 5.05 14.09
1/13/2022 4:00:00 AM -0.08 31.856 0.14 7.37 5.27 14.1
1/13/2022 4:15:00 AM -0.08 31.856 0.141 7.37 5.08 14.09
1/13/2022 4:30:00 AM -0.08 31.856 0.141 7.37 4.99 14.09
1/13/2022 4:45:00 AM -0.08 31.856 0.063 7.36 5.15 14.09
1/13/2022 5:00:00 AM -0.08 31.856 0.14 7.36 5.23 14.08
1/13/2022 5:15:00 AM -0.08 31.856 0.141 7.36 5.16 14.08
1/13/2022 5:30:00 AM -0.08 31.856 0.14 7.36 5.27 14.08
1/13/2022 5:45:00 AM -0.08 31.856 0.14 7.36 5.04 14.07
1/13/2022 6:00:00 AM -0.08 31.856 0.14 7.36 5.1 14.08
1/13/2022 6:15:00 AM -0.08 31.856 0.064 7.36 5.28 14.07
1/13/2022 6:30:00 AM -0.08 31.856 0.139 7.36 5.15 14.08
1/13/2022 6:45:00 AM -0.08 31.856 0.139 7.36 5.25 14.08
1/13/2022 7:00:00 AM -0.08 31.856 0.14 7.36 5.21 14.08
1/13/2022 7:15:00 AM -0.08 31.856 0.139 7.36 5.15 14.08
1/13/2022 7:30:00 AM -0.08 31.856 0.14 7.36 5.22 14.08
1/13/2022 7:45:00 AM -0.08 31.856 0.141 7.36 5.1 14.09
1/13/2022 8:00:00 AM -0.08 31.856 0.139 7.36 5.13 14.1
1/13/2022 8:15:00 AM -0.08 31.856 0.063 7.36 5.31 14.12
1/13/2022 8:30:00 AM -0.08 31.856 0.064 7.36 5.31 14.14
1/13/2022 8:45:00 AM -0.08 31.856 0.139 7.37 5.5 14.16
1/13/2022 9:00:00 AM -0.08 31.856 0.063 7.38 6.08 14.18
1/13/2022 9:15:00 AM -0.08 31.856 0.063 7.39 5.97 14.21
1/13/2022 9:30:00 AM -0.08 31.856 0.064 7.39 6.01 14.23
1/13/2022 9:45:00 AM -0.08 31.856 0.064 7.4 6.07 14.26
1/13/2022 10:00:00 AM -0.08 31.856 0.063 7.4 6.61 14.26
1/13/2022 10:15:00 AM -0.08 31.856 0.138 7.41 5.53 14.28
1/13/2022 10:30:00 AM -0.08 31.856 0.138 7.42 5.96 14.3
1/13/2022 10:45:00 AM -0.08 31.856 0.137 7.42 5.26 14.31
1/13/2022 11:00:00 AM -0.08 31.856 0.062 7.43 5.04 14.32
1/13/2022 11:15:00 AM -0.08 31.856 0.062 7.43 5.58 14.33
1/13/2022 11:30:00 AM -0.08 31.856 0.065 7.44 5.36 14.33
1/13/2022 11:45:00 AM -0.08 31.856 0.062 7.44 4.74 14.33
1/13/2022 12:00:00 PM -0.07 31.874 0.132 7.44 4.9 14.35
1/13/2022 12:15:00 PM -0.07 31.874 0.062 7.45 4.54 14.36
1/13/2022 12:30:00 PM -0.06 31.892 0.136 7.45 4.39 14.36
1/13/2022 12:45:00 PM -0.06 31.892 0.136 7.45 4.53 14.37
1/13/2022 1:00:00 PM -0.05 31.91 0.133 7.46 4.47 14.37
1/13/2022 1:15:00 PM -0.05 31.91 0.136 7.46 4.33 14.37
1/13/2022 1:30:00 PM -0.05 31.91 0.136 7.47 4.94 14.37
1/13/2022 1:45:00 PM -0.05 31.91 0.138 7.47 4.59 14.37
1/13/2022 2:00:00 PM -0.05 31.91 0.137 7.47 4.25 14.37
1/13/2022 2:15:00 PM -0.05 31.91 0.136 7.47 4.11 14.36
1/13/2022 2:30:00 PM -0.04 31.928 0.136 7.48 4.41 14.37
1/13/2022 2:45:00 PM -0.05 31.91 0.135 7.48 4.24 14.36
1/13/2022 3:00:00 PM -0.05 31.91 0.137 7.49 4.46 14.36
1/13/2022 3:15:00 PM -0.05 31.91 0.136 7.48 4.31 14.35
1/13/2022 3:30:00 PM -0.05 31.91 0.137 7.48 4.43 14.34
1/13/2022 3:45:00 PM -0.05 31.91 0.137 7.48 4.22 14.34
1/13/2022 4:00:00 PM -0.05 31.91 0.137 7.47 4.07 14.32
1/13/2022 4:15:00 PM -0.06 31.892 0.137 7.47 4.24 14.3
1/13/2022 4:30:00 PM -0.06 31.892 0.137 7.47 4.27 14.28
1/13/2022 4:45:00 PM -0.06 31.892 0.136 7.46 3.99 14.26
1/13/2022 5:00:00 PM -0.07 31.874 0.136 7.44 4.04 14.23
1/13/2022 5:15:00 PM -0.07 31.874 0.131 7.43 4.2 14.21
1/13/2022 5:30:00 PM -0.07 31.874 0.135 7.43 4.15 14.19
1/13/2022 5:45:00 PM -0.07 31.874 0.137 7.42 4.07 14.17
1/13/2022 6:00:00 PM -0.07 31.874 0.137 7.41 4.09 14.16
1/13/2022 6:15:00 PM -0.07 31.874 0.136 7.41 4.14 14.15
1/13/2022 6:30:00 PM -0.07 31.874 0.136 7.41 4.01 14.13
1/13/2022 6:45:00 PM -0.07 31.874 0.137 7.41 4.01 14.13
1/13/2022 7:00:00 PM -0.07 31.874 0.136 7.4 4.11 14.12
1/13/2022 7:15:00 PM -0.07 31.874 0.137 7.39 3.94 14.11
1/13/2022 7:30:00 PM -0.07 31.874 0.063 7.39 3.96 14.11
1/13/2022 7:45:00 PM -0.07 31.874 0.137 7.39 3.97 14.1
1/13/2022 8:00:00 PM -0.07 31.874 0.064 7.38 4.03 14.1
1/13/2022 8:15:00 PM -0.07 31.874 0.062 7.38 3.99 14.09
1/13/2022 8:30:00 PM -0.07 31.874 0.136 7.38 3.89 14.08
1/13/2022 8:45:00 PM -0.07 31.874 0.137 7.38 3.84 14.08
1/13/2022 9:00:00 PM -0.07 31.874 0.136 7.38 3.99 14.08
1/13/2022 9:15:00 PM -0.07 31.874 0.138 7.37 3.88 14.08
1/13/2022 9:30:00 PM -0.07 31.874 0.137 7.37 3.88 14.08
1/13/2022 9:45:00 PM -0.07 31.874 0.062 7.37 3.92 14.07
1/13/2022 10:00:00 PM -0.07 31.874 0.137 7.37 3.91 14.07
1/13/2022 10:15:00 PM -0.07 31.874 0.137 7.37 3.85 14.08
1/13/2022 10:30:00 PM -0.07 31.874 0.14 7.37 3.82 14.08
1/13/2022 10:45:00 PM -0.07 31.874 0.137 7.37 3.76 14.08
1/13/2022 11:00:00 PM -0.07 31.874 0.137 7.37 3.84 14.08
1/13/2022 11:15:00 PM -0.07 31.874 0.137 7.37 3.84 14.08
1/13/2022 11:30:00 PM -0.07 31.874 0.136 7.37 3.86 14.08
1/13/2022 11:45:00 PM -0.07 31.874 0.063 7.37 4.02 14.09
1/14/2022 12:00:00 AM -0.07 31.874 0.063 7.38 3.99 14.09
1/14/2022 12:15:00 AM -0.06 31.892 0.137 7.36 4.09 14.08
1/14/2022 12:30:00 AM -0.06 31.892 0.134 7.38 3.82 14.08
1/14/2022 12:45:00 AM -0.06 31.892 0.063 7.36 4.02 14.08
1/14/2022 1:00:00 AM -0.06 31.892 0.064 7.36 3.78 14.07
1/14/2022 1:15:00 AM -0.06 31.892 0.136 7.37 3.81 14.07
1/14/2022 1:30:00 AM -0.06 31.892 0.129 7.37 3.81 14.07
1/14/2022 1:45:00 AM -0.06 31.892 0.136 7.38 3.84 14.07
1/14/2022 2:00:00 AM -0.06 31.892 0.139 7.38 3.86 14.07
1/14/2022 2:15:00 AM -0.06 31.892 0.137 7.37 3.83 14.07
1/14/2022 2:30:00 AM -0.05 31.91 0.136 7.37 3.81 14.07
1/14/2022 2:45:00 AM -0.05 31.91 0.138 7.37 3.88 14.07
1/14/2022 3:00:00 AM -0.05 31.91 0.136 7.37 4.09 14.06
1/14/2022 3:15:00 AM -0.05 31.91 0.137 7.37 3.95 14.06
1/14/2022 3:30:00 AM -0.05 31.91 0.137 7.37 3.82 14.06
1/14/2022 3:45:00 AM -0.05 31.91 0.138 7.37 3.77 14.06
1/14/2022 4:00:00 AM -0.05 31.91 0.136 7.37 3.97 14.06
1/14/2022 4:15:00 AM -0.05 31.91 0.136 7.37 4.03 14.06
1/14/2022 4:30:00 AM -0.05 31.91 0.062 7.37 4.06 14.06
1/14/2022 4:45:00 AM -0.05 31.91 0.137 7.37 3.97 14.06
1/14/2022 5:00:00 AM -0.05 31.91 0.138 7.37 3.94 14.06
1/14/2022 5:15:00 AM -0.05 31.91 0.138 7.37 3.78 14.06
1/14/2022 5:30:00 AM -0.05 31.91 0.139 7.37 3.74 14.06
1/14/2022 5:45:00 AM -0.05 31.91 0.136 7.37 3.77 14.06
1/14/2022 6:00:00 AM -0.05 31.91 0.063 7.38 3.8 14.07
1/14/2022 6:15:00 AM -0.05 31.91 0.136 7.38 3.84 14.07
1/14/2022 6:30:00 AM -0.05 31.91 0.137 7.39 3.87 14.06
1/14/2022 6:45:00 AM -0.04 31.928 0.136 7.39 3.94 14.07
1/14/2022 7:00:00 AM -0.04 31.928 0.137 7.39 3.98 14.07
1/14/2022 7:15:00 AM -0.04 31.928 0.137 7.39 3.88 14.06
1/14/2022 7:30:00 AM -0.04 31.928 0.136 7.39 3.81 14.07
1/14/2022 7:45:00 AM -0.04 31.928 0.132 7.39 3.74 14.07
1/14/2022 8:00:00 AM -0.05 31.91 0.138 7.39 3.85 14.08
1/14/2022 8:15:00 AM -0.05 31.91 0.136 7.4 3.97 14.1
1/14/2022 8:30:00 AM -0.05 31.91 0.136 7.4 3.83 14.11
1/14/2022 8:45:00 AM -0.04 31.928 0.135 7.41 3.82 14.14
1/14/2022 9:00:00 AM -0.04 31.928 0.063 7.41 3.79 14.16
1/14/2022 9:15:00 AM -0.04 31.928 0.062 7.42 3.88 14.2
1/14/2022 9:30:00 AM -0.01 31.982 0.063 7.43 3.82 14.24
1/14/2022 9:45:00 AM 0 32 0.062 7.44 3.77 14.25
1/14/2022 10:00:00 AM 0 32 0.136 7.44 3.77 14.27
1/14/2022 10:15:00 AM 0 32 0.136 7.45 3.84 14.28
1/14/2022 10:30:00 AM 0 32 0.135 7.46 3.76 14.31
1/14/2022 10:45:00 AM 0 32 0.062 7.47 3.89 14.32
1/14/2022 11:00:00 AM 0 32 0.135 7.47 3.85 14.33
1/14/2022 11:15:00 AM -0.01 31.982 0.136 7.47 4.1 14.34
1/14/2022 11:30:00 AM -0.01 31.982 0.13 7.48 3.94 14.35
1/14/2022 11:45:00 AM -0.01 31.982 0.137 7.48 3.9 14.36
1/14/2022 12:00:00 PM 0 32 0.136 7.49 3.94 14.37
1/14/2022 12:15:00 PM 0 32 0.135 7.49 3.85 14.38
1/14/2022 12:30:00 PM 0.01 32.018 0.137 7.5 3.97 14.4
1/14/2022 12:45:00 PM 0.03 32.054 0.137 7.51 3.83 14.41
1/14/2022 1:00:00 PM 0.04 32.072 0.137 7.51 3.83 14.42
1/14/2022 1:15:00 PM 0.03 32.054 0.136 7.52 4.04 14.41
1/14/2022 1:30:00 PM 0.02 32.036 0.135 7.52 3.91 14.43
1/14/2022 1:45:00 PM 0.02 32.036 0.135 7.52 4.08 14.44
1/14/2022 2:00:00 PM 0.02 32.036 0.135 7.53 3.92 14.44
1/14/2022 2:15:00 PM 0.01 32.018 0.135 7.53 4 14.44
1/14/2022 2:30:00 PM 0 32 0.131 7.53 3.8 14.45
1/14/2022 2:45:00 PM 0 32 0.136 7.53 3.87 14.46
1/14/2022 3:00:00 PM -0.01 31.982 0.137 7.54 3.87 14.45
1/14/2022 3:15:00 PM -0.02 31.964 0.137 7.53 4.03 14.44
1/14/2022 3:30:00 PM -0.03 31.946 0.134 7.53 4.17 14.44
1/14/2022 3:45:00 PM -0.04 31.928 0.136 7.53 3.93 14.45
1/14/2022 4:00:00 PM -0.05 31.91 0.135 7.53 3.94 14.46
1/14/2022 4:15:00 PM -0.06 31.892 0.135 7.53 3.87 14.43
1/14/2022 4:30:00 PM -0.07 31.874 0.136 7.53 3.79 14.43
1/14/2022 4:45:00 PM -0.08 31.856 0.136 7.52 3.86 14.41
1/14/2022 5:00:00 PM -0.09 31.838 0.136 7.51 3.89 14.39
1/14/2022 5:15:00 PM -0.1 31.82 0.136 7.51 3.89 14.37
1/14/2022 5:30:00 PM -0.1 31.82 0.138 7.5 3.86 14.36
1/14/2022 5:45:00 PM -0.11 31.802 0.137 7.49 4.08 14.35
1/14/2022 6:00:00 PM -0.1 31.82 0.136 7.49 3.94 14.34
1/14/2022 6:15:00 PM -0.1 31.82 0.064 7.48 3.82 14.33
1/14/2022 6:30:00 PM -0.1 31.82 0.136 7.48 3.86 14.31
1/14/2022 6:45:00 PM -0.09 31.838 0.136 7.47 3.98 14.31
1/14/2022 7:00:00 PM -0.1 31.82 0.137 7.47 3.86 14.31
1/14/2022 7:15:00 PM -0.09 31.838 0.066 7.47 3.85 14.32
1/14/2022 7:30:00 PM -0.09 31.838 0.062 7.46 4 14.31
1/14/2022 7:45:00 PM -0.09 31.838 0.062 7.46 4.06 14.31
1/14/2022 8:00:00 PM -0.09 31.838 0.062 7.46 3.86 14.3
1/14/2022 8:15:00 PM -0.09 31.838 0.063 7.45 3.72 14.3
1/14/2022 8:30:00 PM -0.09 31.838 0.063 7.45 3.78 14.29
1/14/2022 8:45:00 PM -0.09 31.838 0.065 7.45 3.94 14.3
1/14/2022 9:00:00 PM -0.09 31.838 0.068 7.45 3.79 14.3
1/14/2022 9:15:00 PM -0.09 31.838 0.07 7.44 3.81 14.29
1/14/2022 9:30:00 PM -0.09 31.838 0.074 7.44 3.72 14.3
1/14/2022 9:45:00 PM -0.09 31.838 0.066 7.44 3.66 14.29
1/14/2022 10:00:00 PM -0.09 31.838 0.072 7.44 3.71 14.3
1/14/2022 10:15:00 PM -0.09 31.838 0.133 7.44 3.66 14.3
1/14/2022 10:30:00 PM -0.09 31.838 0.138 7.44 3.74 14.29
1/14/2022 10:45:00 PM -0.09 31.838 0.068 7.44 3.58 14.29
1/14/2022 11:00:00 PM -0.09 31.838 0.138 7.43 3.55 14.29
1/14/2022 11:15:00 PM -0.09 31.838 0.139 7.43 3.52 14.29
1/14/2022 11:30:00 PM -0.09 31.838 0.133 7.43 3.54 14.29
1/14/2022 11:45:00 PM -0.09 31.838 0.14 7.43 3.63 14.28
1/15/2022 12:00:00 AM -0.09 31.838 0.139 7.43 3.64 14.29
1/15/2022 12:15:00 AM -0.09 31.838 0.064 7.43 3.66 14.29
1/15/2022 12:30:00 AM -0.09 31.838 0.066 7.43 3.68 14.3
1/15/2022 12:45:00 AM -0.09 31.838 0.064 7.42 3.59 14.3
1/15/2022 1:00:00 AM -0.09 31.838 0.14 7.43 3.62 14.3
1/15/2022 1:15:00 AM -0.09 31.838 0.066 7.42 3.59 14.3
1/15/2022 1:30:00 AM -0.09 31.838 0.068 7.43 3.65 14.31
1/15/2022 1:45:00 AM -0.09 31.838 0.141 7.42 3.72 14.31
1/15/2022 2:00:00 AM -0.09 31.838 0.141 7.42 4.2 14.33
1/15/2022 2:15:00 AM -0.09 31.838 0.138 7.42 3.75 14.33
1/15/2022 2:30:00 AM -0.09 31.838 0.128 7.42 3.72 14.35
1/15/2022 2:45:00 AM -0.09 31.838 0.065 7.42 3.61 14.36
1/15/2022 3:00:00 AM -0.09 31.838 0.141 7.42 3.85 14.36
1/15/2022 3:15:00 AM -0.09 31.838 0.138 7.42 3.66 14.36
1/15/2022 3:30:00 AM -0.09 31.838 0.142 7.42 3.77 14.36
1/15/2022 3:45:00 AM -0.09 31.838 0.143 7.42 4.1 14.36
1/15/2022 4:00:00 AM -0.09 31.838 0.064 7.42 3.95 14.37
1/15/2022 4:15:00 AM -0.09 31.838 0.143 7.42 3.99 14.36
1/15/2022 4:30:00 AM -0.09 31.838 0.065 7.42 4.1 14.35
1/15/2022 4:45:00 AM -0.09 31.838 0.144 7.42 4.04 14.35
1/15/2022 5:00:00 AM -0.09 31.838 0.144 7.42 4.34 14.35
1/15/2022 5:15:00 AM -0.09 31.838 0.144 7.41 4.35 14.34
1/15/2022 5:30:00 AM -0.09 31.838 0.144 7.41 4.59 14.34
1/15/2022 5:45:00 AM -0.09 31.838 0.145 7.41 4.73 14.34
1/15/2022 6:00:00 AM -0.09 31.838 0.145 7.41 5.06 14.35
1/15/2022 6:15:00 AM -0.09 31.838 0.145 7.41 4.97 14.35
1/15/2022 6:30:00 AM -0.09 31.838 0.145 7.4 6.35 14.35
1/15/2022 6:45:00 AM -0.09 31.838 0.141 7.4 5.05 14.35
1/15/2022 7:00:00 AM -0.09 31.838 0.145 7.4 5.12 14.35
1/15/2022 7:15:00 AM -0.09 31.838 0.068 7.4 5.04 14.35
1/15/2022 7:30:00 AM -0.09 31.838 0.147 7.4 4.93 14.36
1/15/2022 7:45:00 AM -0.09 31.838 0.147 7.4 5.2 14.36
1/15/2022 8:00:00 AM -0.09 31.838 0.147 7.4 5.29 14.39
1/15/2022 8:15:00 AM -0.09 31.838 0.068 7.4 5.35 14.4
1/15/2022 8:30:00 AM -0.09 31.838 0.069 7.4 5.36 14.43
1/15/2022 8:45:00 AM -0.09 31.838 0.148 7.4 5.29 14.45
1/15/2022 9:00:00 AM -0.09 31.838 0.148 7.4 5.58 14.48
1/15/2022 9:15:00 AM -0.09 31.838 0.148 7.41 5.25 14.5
1/15/2022 9:30:00 AM -0.09 31.838 0.147 7.41 5.46 14.51
1/15/2022 9:45:00 AM -0.09 31.838 0.148 7.41 5.19 14.54
1/15/2022 10:00:00 AM -0.09 31.838 0.149 7.42 5.57 14.56
1/15/2022 10:15:00 AM -0.09 31.838 0.149 7.42 5.87 14.59
1/15/2022 10:30:00 AM -0.09 31.838 0.143 7.42 4.86 14.59
1/15/2022 10:45:00 AM -0.09 31.838 0.15 7.43 3.62 14.6
1/15/2022 11:00:00 AM -0.09 31.838 0.149 7.43 3.55 14.61
1/15/2022 11:15:00 AM -0.09 31.838 0.15 7.44 3.5 14.63
1/15/2022 11:30:00 AM -0.08 31.856 0.15 7.45 3.59 14.61
1/15/2022 11:45:00 AM -0.08 31.856 0.148 7.45 3.55 14.67
1/15/2022 12:00:00 PM -0.08 31.856 0.068 7.45 3.52 14.67
1/15/2022 12:15:00 PM -0.08 31.856 0.147 7.46 3.61 14.69
1/15/2022 12:30:00 PM -0.08 31.856 0.148 7.46 3.54 14.7
1/15/2022 12:45:00 PM -0.08 31.856 0.148 7.46 3.58 14.71
1/15/2022 1:00:00 PM -0.08 31.856 0.067 7.47 3.71 14.72
1/15/2022 1:15:00 PM -0.08 31.856 0.148 7.47 3.76 14.73
1/15/2022 1:30:00 PM -0.08 31.856 0.144 7.47 3.6 14.74
1/15/2022 1:45:00 PM -0.08 31.856 0.148 7.48 3.78 14.75
1/15/2022 2:00:00 PM -0.08 31.856 0.149 7.48 3.76 14.76
1/15/2022 2:15:00 PM -0.08 31.856 0.15 7.48 3.89 14.77
1/15/2022 2:30:00 PM -0.08 31.856 0.149 7.49 3.96 14.78
1/15/2022 2:45:00 PM -0.08 31.856 0.068 7.5 3.87 14.79
1/15/2022 3:00:00 PM -0.08 31.856 0.148 7.5 3.65 14.8
1/15/2022 3:15:00 PM -0.08 31.856 0.149 7.5 3.8 14.8
1/15/2022 3:30:00 PM -0.08 31.856 0.148 7.5 3.91 14.8
1/15/2022 3:45:00 PM -0.08 31.856 0.067 7.5 3.87 14.8
1/15/2022 4:00:00 PM -0.08 31.856 0.148 7.5 3.78 14.8
1/15/2022 4:15:00 PM -0.08 31.856 0.149 7.5 3.68 14.78
1/15/2022 4:30:00 PM -0.09 31.838 0.148 7.5 3.74 14.76
1/15/2022 4:45:00 PM -0.09 31.838 0.149 7.5 3.69 14.75
1/15/2022 5:00:00 PM -0.09 31.838 0.149 7.49 3.72 14.71
1/15/2022 5:15:00 PM -0.09 31.838 0.149 7.48 3.72 14.68
1/15/2022 5:30:00 PM -0.09 31.838 0.15 7.48 3.66 14.65
1/15/2022 5:45:00 PM -0.09 31.838 0.15 7.42 3.72 14.61
1/15/2022 6:00:00 PM -0.09 31.838 0.15 7.44 3.79 14.59
1/15/2022 6:15:00 PM -0.09 31.838 0.15 7.43 3.62 14.55
1/15/2022 6:30:00 PM -0.09 31.838 0.15 7.43 3.66 14.52
1/15/2022 6:45:00 PM -0.09 31.838 0.151 7.42 3.75 14.5
1/15/2022 7:00:00 PM -0.09 31.838 0.153 7.42 3.71 14.48
1/15/2022 7:15:00 PM -0.09 31.838 0.152 7.41 3.65 14.46
1/15/2022 7:30:00 PM -0.09 31.838 0.144 7.4 3.68 14.44
1/15/2022 7:45:00 PM -0.09 31.838 0.152 7.39 3.59 14.42
1/15/2022 8:00:00 PM -0.09 31.838 0.151 7.39 3.69 14.4
1/15/2022 8:15:00 PM -0.09 31.838 0.152 7.38 3.73 14.39
1/15/2022 8:30:00 PM -0.09 31.838 0.137 7.38 3.59 14.37
1/15/2022 8:45:00 PM -0.09 31.838 0.152 7.38 3.69 14.36
1/15/2022 9:00:00 PM -0.09 31.838 0.151 7.37 3.71 14.35
1/15/2022 9:15:00 PM -0.09 31.838 0.152 7.37 3.86 14.33
1/15/2022 9:30:00 PM -0.09 31.838 0.069 7.36 4.25 14.32
1/15/2022 9:45:00 PM -0.09 31.838 0.152 7.36 3.92 14.31
1/15/2022 10:00:00 PM -0.09 31.838 0.069 7.36 4.06 14.3
1/15/2022 10:15:00 PM -0.09 31.838 0.07 7.36 4.06 14.29
1/15/2022 10:30:00 PM -0.09 31.838 0.154 7.36 3.93 14.27
1/15/2022 10:45:00 PM -0.09 31.838 0.153 7.36 3.68 14.27
1/15/2022 11:00:00 PM -0.09 31.838 0.153 7.35 3.76 14.26
1/15/2022 11:15:00 PM -0.09 31.838 0.153 7.35 3.96 14.25
1/15/2022 11:30:00 PM -0.09 31.838 0.154 7.35 4.07 14.24
1/15/2022 11:45:00 PM -0.09 31.838 0.154 7.35 3.89 14.24
1/16/2022 12:00:00 AM -0.09 31.838 0.156 7.35 3.95 14.23
1/16/2022 12:15:00 AM -0.09 31.838 0.154 7.35 3.71 14.23
1/16/2022 12:30:00 AM -0.09 31.838 0.154 7.34 3.72 14.22
1/16/2022 12:45:00 AM -0.09 31.838 0.154 7.34 3.7 14.22
1/16/2022 1:00:00 AM -0.09 31.838 0.154 7.34 3.61 14.22
1/16/2022 1:15:00 AM -0.09 31.838 0.155 7.34 3.53 14.21
1/16/2022 1:30:00 AM -0.09 31.838 0.154 7.33 3.7 14.2
1/16/2022 1:45:00 AM -0.09 31.838 0.155 7.33 3.59 14.2
1/16/2022 2:00:00 AM -0.09 31.838 0.155 7.33 3.53 14.2
1/16/2022 2:15:00 AM -0.09 31.838 0.071 7.33 3.54 14.19
1/16/2022 2:30:00 AM -0.09 31.838 0.072 7.32 3.56 14.19
1/16/2022 2:45:00 AM -0.09 31.838 0.154 7.32 3.57 14.19
1/16/2022 3:00:00 AM -0.09 31.838 0.156 7.32 3.65 14.18
1/16/2022 3:15:00 AM -0.09 31.838 0.154 7.32 3.69 14.18
1/16/2022 3:30:00 AM -0.09 31.838 0.073 7.32 3.98 14.17
1/16/2022 3:45:00 AM -0.09 31.838 0.146 7.31 3.82 14.17
1/16/2022 4:00:00 AM -0.09 31.838 0.155 7.31 3.75 14.17
1/16/2022 4:15:00 AM -0.09 31.838 0.156 7.31 3.58 14.16
1/16/2022 4:30:00 AM -0.09 31.838 0.148 7.31 3.57 14.16
1/16/2022 4:45:00 AM -0.09 31.838 0.155 7.31 3.65 14.15
1/16/2022 5:00:00 AM -0.09 31.838 0.072 7.31 3.57 14.15
1/16/2022 5:15:00 AM -0.09 31.838 0.157 7.3 3.65 14.15
1/16/2022 5:30:00 AM -0.09 31.838 0.156 7.3 3.73 14.14
1/16/2022 5:45:00 AM -0.09 31.838 0.157 7.3 3.93 14.14
1/16/2022 6:00:00 AM -0.09 31.838 0.073 7.29 3.79 14.13
1/16/2022 6:15:00 AM -0.09 31.838 0.071 7.29 3.91 14.13
1/16/2022 6:30:00 AM -0.09 31.838 0.157 7.29 3.76 14.13
1/16/2022 6:45:00 AM -0.09 31.838 0.157 7.29 3.72 14.12
1/16/2022 7:00:00 AM -0.09 31.838 0.159 7.29 3.66 14.12
1/16/2022 7:15:00 AM -0.09 31.838 0.158 7.29 3.65 14.11
1/16/2022 7:30:00 AM -0.09 31.838 0.159 7.28 3.59 14.11
1/16/2022 7:45:00 AM -0.09 31.838 0.158 7.28 3.61 14.11
1/16/2022 8:00:00 AM -0.09 31.838 0.071 7.28 3.82 14.12
1/16/2022 8:15:00 AM -0.09 31.838 0.074 7.28 3.73 14.13
1/16/2022 8:30:00 AM -0.09 31.838 0.158 7.28 3.7 14.14
1/16/2022 8:45:00 AM -0.08 31.856 0.159 7.28 3.8 14.15
1/16/2022 9:00:00 AM -0.08 31.856 0.152 7.29 3.58 14.17
1/16/2022 9:15:00 AM -0.08 31.856 0.159 7.29 3.69 14.2
1/16/2022 9:30:00 AM -0.08 31.856 0.074 7.29 3.81 14.22
1/16/2022 9:45:00 AM -0.08 31.856 0.159